Time,TemperatureF,DewpointF,PressureIn,WindDirection,WindDirectionDegrees,WindSpeedMPH,WindSpeedGustMPH,Humidity,HourlyPrecipIn,Conditions,Clouds,dailyrainin,SoftwareType,DateUTC
2013-02-02 00:00:00,8.6,-7.9,29.17,SSW,202,2.5,2.5,46,0.00,,---,0.00,VWS V14.01,2013-02-02 05:00:00,
2013-02-02 00:01:00,8.6,-7.9,29.17,ESE,112,2.7,2.7,46,0.00,,---,0.00,VWS V14.01,2013-02-02 05:01:00,
2013-02-02 00:02:00,8.6,-7.9,29.17,WSW,248,2.5,2.7,46,0.00,,---,0.00,VWS V14.01,2013-02-02 05:02:00,
2013-02-02 00:03:00,8.6,-7.9,29.17,WSW,248,2.5,2.5,46,0.00,,---,0.00,VWS V14.01,2013-02-02 05:03:00,
2013-02-02 00:04:00,8.6,-7.9,29.17,WSW,248,1.6,2.5,46,0.00,,---,0.00,VWS V14.01,2013-02-02 05:04:00,
2013-02-02 00:05:00,8.6,-7.9,29.17,SSW,202,2.0,2.0,46,0.00,,---,0.00,VWS V14.01,2013-02-02 05:05:00,
2013-02-02 00:06:00,8.6,-7.9,29.17,SSW,202,0.0,2.0,46,0.00,,---,0.00,VWS V14.01,2013-02-02 05:06:00,
2013-02-02 00:07:00,8.6,-7.9,29.17,SW,225,1.6,1.6,46,0.00,,---,0.00,VWS V14.01,2013-02-02 05:07:00,
2013-02-02 00:08:00,8.6,-7.9,29.20,WNW,292,3.1,3.1,46,0.00,,---,0.00,VWS V14.01,2013-02-02 05:08:00,
2013-02-02 00:09:00,8.6,-7.9,29.20,WNW,292,7.6,7.6,46,0.00,,---,0.00,VWS V14.01,2013-02-02 05:09:00,
2013-02-02 00:10:00,8.4,-8.1,29.20,NNE,22,2.2,7.6,46,0.00,,---,0.00,VWS V14.01,2013-02-02 05:10:00,
2013-02-02 00:11:00,8.4,-8.1,29.20,NNE,22,1.1,2.2,46,0.00,,---,0.00,VWS V14.01,2013-02-02 05:11:00,
2013-02-02 00:12:00,8.4,-8.1,29.20,NNE,22,0.0,1.1,46,0.00,,---,0.00,VWS V14.01,2013-02-02 05:12:00,
2013-02-02 00:13:00,8.4,-8.1,29.20,WNW,292,2.5,2.5,46,0.00,,---,0.00,VWS V14.01,2013-02-02 05:13:00,
2013-02-02 00:14:00,8.4,-8.1,29.20,WNW,292,2.5,2.5,46,0.00,,---,0.00,VWS V14.01,2013-02-02 05:14:00,
2013-02-02 00:15:00,8.4,-8.1,29.20,WSW,248,2.5,2.5,46,0.00,,---,0.00,VWS V14.01,2013-02-02 05:15:00,
2013-02-02 00:16:00,8.4,-8.1,29.20,WSW,248,4.3,4.3,46,0.00,,---,0.00,VWS V14.01,2013-02-02 05:16:00,
2013-02-02 00:17:00,8.4,-8.1,29.20,WSW,248,4.3,4.3,46,0.00,,---,0.00,VWS V14.01,2013-02-02 05:17:00,
2013-02-02 00:18:00,8.4,-8.1,29.20,SW,225,2.0,4.3,46,0.00,,---,0.00,VWS V14.01,2013-02-02 05:18:00,
2013-02-02 00:19:00,8.4,-8.1,29.20,SSW,202,0.0,2.0,46,0.00,,---,0.00,VWS V14.01,2013-02-02 05:19:00,
2013-02-02 00:20:00,8.4,-8.1,29.20,SSW,202,1.6,1.6,46,0.00,,---,0.00,VWS V14.01,2013-02-02 05:20:00,
2013-02-02 00:21:00,8.2,-8.3,29.20,SSW,202,1.6,1.6,46,0.00,,---,0.00,VWS V14.01,2013-02-02 05:21:00,
2013-02-02 00:22:00,8.2,-8.3,29.20,NNW,338,0.0,2.5,46,0.00,,---,0.00,VWS V14.01,2013-02-02 05:22:00,
2013-02-02 00:23:00,8.2,-8.3,29.20,NNW,338,1.6,1.6,46,0.00,,---,0.00,VWS V14.01,2013-02-02 05:23:00,
2013-02-02 00:24:00,8.2,-8.3,29.20,WSW,248,0.0,1.6,46,0.00,,---,0.00,VWS V14.01,2013-02-02 05:24:00,
2013-02-02 00:25:00,8.2,-8.3,29.20,WSW,248,0.0,0.0,46,0.00,,---,0.00,VWS V14.01,2013-02-02 05:25:00,
2013-02-02 00:26:00,8.2,-8.3,29.20,WSW,248,0.0,0.0,46,0.00,,---,0.00,VWS V14.01,2013-02-02 05:26:00,
2013-02-02 00:27:00,8.2,-8.3,29.20,SW,225,1.3,2.2,46,0.00,,---,0.00,VWS V14.01,2013-02-02 05:27:00,
2013-02-02 00:28:00,8.2,-8.3,29.20,SW,225,1.3,1.3,46,0.00,,---,0.00,VWS V14.01,2013-02-02 05:28:00,
2013-02-02 00:29:00,8.2,-8.3,29.20,WSW,248,2.7,2.9,46,0.00,,---,0.00,VWS V14.01,2013-02-02 05:29:00,
2013-02-02 00:30:00,8.2,-8.3,29.20,WNW,292,2.5,2.7,46,0.00,,---,0.00,VWS V14.01,2013-02-02 05:30:00,
2013-02-02 00:31:00,8.2,-8.3,29.20,WNW,292,2.2,2.5,46,0.00,,---,0.00,VWS V14.01,2013-02-02 05:31:00,
2013-02-02 00:32:00,8.1,-8.4,29.20,WNW,292,0.0,2.2,46,0.00,,---,0.00,VWS V14.01,2013-02-02 05:32:00,
2013-02-02 00:33:00,8.1,-8.4,29.20,WNW,292,0.0,0.0,46,0.00,,---,0.00,VWS V14.01,2013-02-02 05:33:00,
2013-02-02 00:34:00,8.1,-8.4,29.20,WNW,292,2.2,2.2,46,0.00,,---,0.00,VWS V14.01,2013-02-02 05:34:00,
2013-02-02 00:35:00,8.1,-8.4,29.20,WSW,248,2.0,2.2,46,0.00,,---,0.00,VWS V14.01,2013-02-02 05:35:00,
2013-02-02 00:36:00,8.1,-8.4,29.20,WSW,248,2.0,2.2,46,0.00,,---,0.00,VWS V14.01,2013-02-02 05:36:00,
2013-02-02 00:37:00,8.1,-8.4,29.20,WNW,292,1.1,2.0,46,0.00,,---,0.00,VWS V14.01,2013-02-02 05:37:00,
2013-02-02 00:38:00,8.1,-8.4,29.20,NW,315,0.9,1.1,46,0.00,,---,0.00,VWS V14.01,2013-02-02 05:38:00,
2013-02-02 00:39:00,8.1,-8.4,29.20,NNW,338,3.4,3.4,46,0.00,,---,0.00,VWS V14.01,2013-02-02 05:39:00,
2013-02-02 00:40:00,8.1,-8.4,29.20,WNW,292,1.6,1.6,46,0.00,,---,0.00,VWS V14.01,2013-02-02 05:40:00,
2013-02-02 00:41:00,8.1,-8.4,29.20,WSW,248,2.7,2.7,46,0.00,,---,0.00,VWS V14.01,2013-02-02 05:41:00,
2013-02-02 00:42:00,8.1,-8.4,29.20,WSW,248,0.0,2.7,46,0.00,,---,0.00,VWS V14.01,2013-02-02 05:42:00,
2013-02-02 00:43:00,8.1,-8.4,29.20,SW,225,2.0,2.0,46,0.00,,---,0.00,VWS V14.01,2013-02-02 05:43:00,
2013-02-02 00:44:00,8.2,-8.3,29.20,SW,225,0.0,2.0,46,0.00,,---,0.00,VWS V14.01,2013-02-02 05:44:00,
2013-02-02 00:45:00,8.2,-8.3,29.20,SW,225,0.0,0.0,46,0.00,,---,0.00,VWS V14.01,2013-02-02 05:45:00,
2013-02-02 00:46:00,8.4,-8.1,29.20,SSW,202,0.0,0.0,46,0.00,,---,0.00,VWS V14.01,2013-02-02 05:46:00,
2013-02-02 00:47:00,8.4,-8.1,29.20,SSW,202,0.0,0.0,46,0.00,,---,0.00,VWS V14.01,2013-02-02 05:47:00,
2013-02-02 00:48:00,8.4,-8.1,29.20,SSW,202,0.0,2.0,46,0.00,,---,0.00,VWS V14.01,2013-02-02 05:48:00,
2013-02-02 00:49:00,8.4,-8.1,29.20,SSW,202,0.0,0.0,46,0.00,,---,0.00,VWS V14.01,2013-02-02 05:49:00,
2013-02-02 00:50:00,8.4,-8.1,29.20,West,270,2.5,2.5,46,0.00,,---,0.00,VWS V14.01,2013-02-02 05:50:00,
2013-02-02 00:51:00,8.6,-7.9,29.20,West,270,2.5,2.5,46,0.00,,---,0.00,VWS V14.01,2013-02-02 05:51:00,
2013-02-02 00:52:00,8.6,-7.9,29.20,NNW,338,0.0,2.5,46,0.00,,---,0.00,VWS V14.01,2013-02-02 05:52:00,
2013-02-02 00:53:00,8.4,-8.1,29.20,WNW,292,4.3,4.3,46,0.00,,---,0.00,VWS V14.01,2013-02-02 05:53:00,
2013-02-02 00:54:00,8.6,-7.9,29.20,West,270,1.3,4.3,46,0.00,,---,0.00,VWS V14.01,2013-02-02 05:54:00,
2013-02-02 00:55:00,8.6,-7.9,29.20,WSW,248,2.0,2.0,46,0.00,,---,0.00,VWS V14.01,2013-02-02 05:55:00,
2013-02-02 00:56:00,8.6,-7.9,29.20,NNW,338,3.4,3.4,46,0.00,,---,0.00,VWS V14.01,2013-02-02 05:56:00,
2013-02-02 00:57:00,8.6,-7.9,29.20,South,180,1.6,3.4,46,0.00,,---,0.00,VWS V14.01,2013-02-02 05:57:00,
2013-02-02 00:58:00,8.6,-7.9,29.20,South,180,1.6,1.6,46,0.00,,---,0.00,VWS V14.01,2013-02-02 05:58:00,
2013-02-02 00:59:00,8.6,-7.9,29.20,West,270,2.5,2.7,46,0.00,,---,0.00,VWS V14.01,2013-02-02 05:59:00,
2013-02-02 01:00:00,8.6,-7.9,29.20,NW,315,2.0,2.5,46,0.00,,---,0.00,VWS V14.01,2013-02-02 06:00:00,
2013-02-02 01:01:00,8.6,-7.9,29.20,WNW,292,1.3,2.0,46,0.00,,---,0.00,VWS V14.01,2013-02-02 06:01:00,
2013-02-02 01:02:00,8.8,-7.8,29.20,WSW,248,2.2,2.2,46,0.00,,---,0.00,VWS V14.01,2013-02-02 06:02:00,
2013-02-02 01:03:00,8.8,-7.8,29.20,WSW,248,1.3,2.2,46,0.00,,---,0.00,VWS V14.01,2013-02-02 06:03:00,
2013-02-02 01:04:00,8.8,-7.8,29.20,SE,135,1.3,1.3,46,0.00,,---,0.00,VWS V14.01,2013-02-02 06:04:00,
2013-02-02 01:05:00,8.8,-7.8,29.20,SE,135,2.0,2.0,46,0.00,,---,0.00,VWS V14.01,2013-02-02 06:05:00,
2013-02-02 01:06:00,8.8,-7.8,29.20,WNW,292,2.9,2.9,46,0.00,,---,0.00,VWS V14.01,2013-02-02 06:06:00,
2013-02-02 01:07:00,8.8,-7.8,29.20,WNW,292,2.9,2.9,46,0.00,,---,0.00,VWS V14.01,2013-02-02 06:07:00,
2013-02-02 01:08:00,8.8,-7.8,29.20,WNW,292,0.0,2.9,46,0.00,,---,0.00,VWS V14.01,2013-02-02 06:08:00,
2013-02-02 01:09:00,8.8,-7.8,29.20,SSW,202,2.5,2.5,46,0.00,,---,0.00,VWS V14.01,2013-02-02 06:09:00,
2013-02-02 01:10:00,8.8,-7.8,29.20,SSW,202,2.5,2.5,46,0.00,,---,0.00,VWS V14.01,2013-02-02 06:10:00,
2013-02-02 01:11:00,8.8,-7.8,29.20,SSW,202,2.5,2.5,46,0.00,,---,0.00,VWS V14.01,2013-02-02 06:11:00,
2013-02-02 01:12:00,8.8,-7.8,29.20,SSW,202,2.5,2.5,46,0.00,,---,0.00,VWS V14.01,2013-02-02 06:12:00,
2013-02-02 01:13:00,9.0,-7.6,29.20,WNW,292,3.1,3.1,46,0.00,,---,0.00,VWS V14.01,2013-02-02 06:13:00,
2013-02-02 01:14:00,9.0,-7.6,29.20,WNW,292,3.1,3.1,46,0.00,,---,0.00,VWS V14.01,2013-02-02 06:14:00,
2013-02-02 01:15:00,9.0,-7.6,29.20,WSW,248,0.0,0.0,46,0.00,,---,0.00,VWS V14.01,2013-02-02 06:15:00,
2013-02-02 01:16:00,8.8,-7.8,29.20,WSW,248,1.3,1.3,46,0.00,,---,0.00,VWS V14.01,2013-02-02 06:16:00,
2013-02-02 01:17:00,8.8,-7.8,29.20,WSW,248,1.1,1.3,46,0.00,,---,0.00,VWS V14.01,2013-02-02 06:17:00,
2013-02-02 01:18:00,9.0,-7.6,29.20,WSW,248,0.0,1.1,46,0.00,,---,0.00,VWS V14.01,2013-02-02 06:18:00,
2013-02-02 01:19:00,9.1,-7.4,29.20,WSW,248,2.0,2.0,46,0.00,,---,0.00,VWS V14.01,2013-02-02 06:19:00,
2013-02-02 01:20:00,9.1,-7.4,29.20,WSW,248,1.3,2.0,46,0.00,,---,0.00,VWS V14.01,2013-02-02 06:20:00,
2013-02-02 01:21:00,9.1,-7.4,29.20,NNE,22,1.1,1.3,46,0.00,,---,0.00,VWS V14.01,2013-02-02 06:21:00,
2013-02-02 01:22:00,9.1,-7.4,29.20,West,270,1.6,2.2,46,0.00,,---,0.00,VWS V14.01,2013-02-02 06:22:00,
2013-02-02 01:23:00,9.1,-7.4,29.20,West,270,1.6,1.6,46,0.00,,---,0.00,VWS V14.01,2013-02-02 06:23:00,
2013-02-02 01:24:00,9.1,-7.4,29.20,WSW,248,1.1,2.0,46,0.00,,---,0.00,VWS V14.01,2013-02-02 06:24:00,
2013-02-02 01:25:00,9.1,-7.4,29.20,WSW,248,1.1,1.1,46,0.00,,---,0.00,VWS V14.01,2013-02-02 06:25:00,
2013-02-02 01:26:00,9.1,-7.4,29.20,WSW,248,1.1,1.1,46,0.00,,---,0.00,VWS V14.01,2013-02-02 06:26:00,
2013-02-02 01:27:00,9.1,-7.4,29.20,SW,225,1.3,1.6,46,0.00,,---,0.00,VWS V14.01,2013-02-02 06:27:00,
2013-02-02 01:28:00,9.1,-7.4,29.20,SW,225,1.3,1.3,46,0.00,,---,0.00,VWS V14.01,2013-02-02 06:28:00,
2013-02-02 01:29:00,9.1,-7.4,29.20,SW,225,0.0,1.3,46,0.00,,---,0.00,VWS V14.01,2013-02-02 06:29:00,
2013-02-02 01:30:00,9.1,-7.4,29.20,WSW,248,2.0,2.0,46,0.00,,---,0.00,VWS V14.01,2013-02-02 06:30:00,
2013-02-02 01:31:00,9.1,-7.4,29.20,WSW,248,1.3,2.0,46,0.00,,---,0.00,VWS V14.01,2013-02-02 06:31:00,
2013-02-02 01:32:00,9.1,-7.4,29.20,WSW,248,1.6,1.6,46,0.00,,---,0.00,VWS V14.01,2013-02-02 06:32:00,
2013-02-02 01:33:00,9.1,-7.4,29.20,WNW,292,1.6,2.0,46,0.00,,---,0.00,VWS V14.01,2013-02-02 06:33:00,
2013-02-02 01:34:00,9.1,-7.4,29.20,WNW,292,1.6,1.6,46,0.00,,---,0.00,VWS V14.01,2013-02-02 06:34:00,
2013-02-02 01:35:00,9.1,-7.4,29.20,West,270,2.5,2.5,46,0.00,,---,0.00,VWS V14.01,2013-02-02 06:35:00,
2013-02-02 01:36:00,9.1,-7.4,29.20,NNE,22,2.5,2.5,46,0.00,,---,0.00,VWS V14.01,2013-02-02 06:36:00,
2013-02-02 01:37:00,9.1,-7.4,29.20,NNW,338,1.6,2.5,46,0.00,,---,0.00,VWS V14.01,2013-02-02 06:37:00,
2013-02-02 01:38:00,9.1,-7.4,29.23,NNW,338,0.0,1.6,46,0.00,,---,0.00,VWS V14.01,2013-02-02 06:38:00,
2013-02-02 01:39:00,9.1,-7.4,29.23,NNW,338,0.0,0.0,46,0.00,,---,0.00,VWS V14.01,2013-02-02 06:39:00,
2013-02-02 01:40:00,9.1,-7.4,29.23,WNW,292,1.6,1.6,46,0.00,,---,0.00,VWS V14.01,2013-02-02 06:40:00,
2013-02-02 01:41:00,9.1,-7.4,29.23,WNW,292,0.9,1.6,46,0.00,,---,0.00,VWS V14.01,2013-02-02 06:41:00,
2013-02-02 01:42:00,9.0,-7.6,29.23,WNW,292,1.3,1.3,46,0.00,,---,0.00,VWS V14.01,2013-02-02 06:42:00,
2013-02-02 01:43:00,9.0,-7.6,29.23,SE,135,2.5,2.5,46,0.00,,---,0.00,VWS V14.01,2013-02-02 06:43:00,
2013-02-02 01:44:00,8.8,-7.8,29.23,SSE,158,1.6,2.5,46,0.00,,---,0.00,VWS V14.01,2013-02-02 06:44:00,
2013-02-02 01:45:00,8.8,-7.8,29.23,WNW,292,4.3,4.3,46,0.00,,---,0.00,VWS V14.01,2013-02-02 06:45:00,
2013-02-02 01:46:00,9.0,-7.6,29.23,NNE,22,2.2,2.7,46,0.00,,---,0.00,VWS V14.01,2013-02-02 06:46:00,
2013-02-02 01:47:00,9.0,-7.6,29.23,West,270,1.3,2.2,46,0.00,,---,0.00,VWS V14.01,2013-02-02 06:47:00,
2013-02-02 01:48:00,8.8,-7.8,29.23,West,270,1.3,1.3,46,0.00,,---,0.00,VWS V14.01,2013-02-02 06:48:00,
2013-02-02 01:49:00,8.8,-7.8,29.23,ESE,112,3.6,3.6,46,0.00,,---,0.00,VWS V14.01,2013-02-02 06:49:00,
2013-02-02 01:50:00,8.8,-7.8,29.23,West,270,2.2,3.6,46,0.00,,---,0.00,VWS V14.01,2013-02-02 06:50:00,
2013-02-02 01:51:00,8.8,-7.8,29.23,West,270,2.2,2.2,46,0.00,,---,0.00,VWS V14.01,2013-02-02 06:51:00,
2013-02-02 01:52:00,8.8,-7.8,29.23,North,0,4.0,4.9,46,0.00,,---,0.00,VWS V14.01,2013-02-02 06:52:00,
2013-02-02 01:53:00,8.8,-7.8,29.23,WNW,292,4.0,4.0,46,0.00,,---,0.00,VWS V14.01,2013-02-02 06:53:00,
2013-02-02 01:54:00,8.8,-7.8,29.23,ESE,112,4.0,4.0,46,0.00,,---,0.00,VWS V14.01,2013-02-02 06:54:00,
2013-02-02 01:55:00,8.6,-7.9,29.23,WNW,292,2.2,4.0,46,0.00,,---,0.00,VWS V14.01,2013-02-02 06:55:00,
2013-02-02 01:56:00,8.8,-7.8,29.23,SW,225,1.6,2.2,46,0.00,,---,0.00,VWS V14.01,2013-02-02 06:56:00,
2013-02-02 01:57:00,8.8,-7.8,29.23,WSW,248,2.7,2.7,46,0.00,,---,0.00,VWS V14.01,2013-02-02 06:57:00,
2013-02-02 01:58:00,8.8,-7.8,29.23,WNW,292,3.8,4.0,46,0.00,,---,0.00,VWS V14.01,2013-02-02 06:58:00,
2013-02-02 01:59:00,8.8,-7.8,29.23,NW,315,1.6,3.8,46,0.00,,---,0.00,VWS V14.01,2013-02-02 06:59:00,
2013-02-02 02:00:00,8.8,-7.8,29.23,NNW,338,0.0,1.6,46,0.00,,---,0.00,VWS V14.01,2013-02-02 07:00:00,
2013-02-02 02:01:00,8.6,-7.9,29.23,NNW,338,0.0,0.0,46,0.00,,---,0.00,VWS V14.01,2013-02-02 07:01:00,
2013-02-02 02:02:00,8.6,-7.9,29.23,NNW,338,2.0,2.0,46,0.00,,---,0.00,VWS V14.01,2013-02-02 07:02:00,
2013-02-02 02:03:00,8.6,-7.9,29.23,WSW,248,3.1,3.1,46,0.00,,---,0.00,VWS V14.01,2013-02-02 07:03:00,
2013-02-02 02:04:00,8.6,-7.9,29.23,WSW,248,1.3,3.1,46,0.00,,---,0.00,VWS V14.01,2013-02-02 07:04:00,
2013-02-02 02:05:00,8.6,-7.9,29.23,WSW,248,1.3,1.3,46,0.00,,---,0.00,VWS V14.01,2013-02-02 07:05:00,
2013-02-02 02:06:00,8.6,-7.9,29.23,NW,315,1.1,3.1,46,0.00,,---,0.00,VWS V14.01,2013-02-02 07:06:00,
2013-02-02 02:07:00,8.4,-8.1,29.23,NW,315,1.1,1.1,46,0.00,,---,0.00,VWS V14.01,2013-02-02 07:07:00,
2013-02-02 02:08:00,8.4,-8.1,29.23,South,180,0.0,2.0,46,0.00,,---,0.00,VWS V14.01,2013-02-02 07:08:00,
2013-02-02 02:09:00,8.4,-8.1,29.23,NNW,338,3.1,3.1,46,0.00,,---,0.00,VWS V14.01,2013-02-02 07:09:00,
2013-02-02 02:10:00,8.4,-8.1,29.23,NNW,338,3.1,3.1,46,0.00,,---,0.00,VWS V14.01,2013-02-02 07:10:00,
2013-02-02 02:11:00,8.2,-8.3,29.26,North,0,1.3,3.1,46,0.00,,---,0.00,VWS V14.01,2013-02-02 07:11:00,
2013-02-02 02:12:00,8.2,-8.3,29.26,North,0,1.3,1.3,46,0.00,,---,0.00,VWS V14.01,2013-02-02 07:12:00,
2013-02-02 02:13:00,8.2,-8.3,29.26,WNW,292,2.9,2.9,46,0.00,,---,0.00,VWS V14.01,2013-02-02 07:13:00,
2013-02-02 02:14:00,8.2,-8.3,29.26,WNW,292,2.5,2.9,46,0.00,,---,0.00,VWS V14.01,2013-02-02 07:14:00,
2013-02-02 02:15:00,8.2,-8.3,29.26,SE,135,2.7,2.7,46,0.00,,---,0.00,VWS V14.01,2013-02-02 07:15:00,
2013-02-02 02:16:00,8.1,-8.4,29.26,South,180,1.3,2.7,46,0.00,,---,0.00,VWS V14.01,2013-02-02 07:16:00,
2013-02-02 02:17:00,8.1,-8.4,29.26,West,270,2.5,2.5,46,0.00,,---,0.00,VWS V14.01,2013-02-02 07:17:00,
2013-02-02 02:18:00,8.1,-8.4,29.26,SSW,202,2.9,2.9,46,0.00,,---,0.00,VWS V14.01,2013-02-02 07:18:00,
2013-02-02 02:19:00,8.1,-8.4,29.26,WNW,292,1.6,2.9,46,0.00,,---,0.00,VWS V14.01,2013-02-02 07:19:00,
2013-02-02 02:20:00,8.1,-8.4,29.26,NW,315,1.3,1.6,46,0.00,,---,0.00,VWS V14.01,2013-02-02 07:20:00,
2013-02-02 02:21:00,8.1,-8.4,29.26,ENE,68,3.6,3.6,46,0.00,,---,0.00,VWS V14.01,2013-02-02 07:21:00,
2013-02-02 02:22:00,7.9,-8.6,29.26,WSW,248,1.3,3.6,46,0.00,,---,0.00,VWS V14.01,2013-02-02 07:22:00,
2013-02-02 02:23:00,7.9,-8.6,29.26,SSE,158,0.9,1.6,46,0.00,,---,0.00,VWS V14.01,2013-02-02 07:23:00,
2013-02-02 02:24:00,7.9,-8.6,29.26,SSE,158,0.0,0.9,46,0.00,,---,0.00,VWS V14.01,2013-02-02 07:24:00,
2013-02-02 02:25:00,7.7,-8.8,29.26,SSE,158,0.0,0.0,46,0.00,,---,0.00,VWS V14.01,2013-02-02 07:25:00,
2013-02-02 02:26:00,7.9,-8.6,29.26,WSW,248,2.2,2.2,46,0.00,,---,0.00,VWS V14.01,2013-02-02 07:26:00,
2013-02-02 02:27:00,7.9,-8.6,29.26,NNW,338,2.9,2.9,46,0.00,,---,0.00,VWS V14.01,2013-02-02 07:27:00,
2013-02-02 02:28:00,7.7,-8.8,29.26,NNW,338,0.9,2.9,46,0.00,,---,0.00,VWS V14.01,2013-02-02 07:28:00,
2013-02-02 02:29:00,7.7,-8.8,29.26,North,0,0.0,0.9,46,0.00,,---,0.00,VWS V14.01,2013-02-02 07:29:00,
2013-02-02 02:30:00,7.7,-8.8,29.26,North,0,0.0,0.0,46,0.00,,---,0.00,VWS V14.01,2013-02-02 07:30:00,
2013-02-02 02:31:00,7.7,-8.8,29.26,North,0,0.0,0.0,46,0.00,,---,0.00,VWS V14.01,2013-02-02 07:31:00,
2013-02-02 02:32:00,7.5,-8.9,29.26,North,0,0.0,0.0,46,0.00,,---,0.00,VWS V14.01,2013-02-02 07:32:00,
2013-02-02 02:33:00,7.5,-8.9,29.26,North,0,1.3,1.3,46,0.00,,---,0.00,VWS V14.01,2013-02-02 07:33:00,
2013-02-02 02:34:00,7.5,-8.9,29.26,North,0,0.0,1.3,46,0.00,,---,0.00,VWS V14.01,2013-02-02 07:34:00,
2013-02-02 02:35:00,7.5,-8.9,29.26,North,0,0.0,0.0,46,0.00,,---,0.00,VWS V14.01,2013-02-02 07:35:00,
2013-02-02 02:36:00,7.5,-8.9,29.26,North,0,0.0,0.0,46,0.00,,---,0.00,VWS V14.01,2013-02-02 07:36:00,
2013-02-02 02:37:00,7.5,-8.9,29.26,North,0,0.0,0.0,46,0.00,,---,0.00,VWS V14.01,2013-02-02 07:37:00,
2013-02-02 02:38:00,7.5,-8.9,29.26,WNW,292,2.0,2.0,46,0.00,,---,0.00,VWS V14.01,2013-02-02 07:38:00,
2013-02-02 02:39:00,7.5,-8.9,29.26,WNW,292,0.0,2.0,46,0.00,,---,0.00,VWS V14.01,2013-02-02 07:39:00,
2013-02-02 02:40:00,7.5,-8.9,29.26,WNW,292,0.0,0.0,46,0.00,,---,0.00,VWS V14.01,2013-02-02 07:40:00,
2013-02-02 02:41:00,7.3,-9.1,29.26,SSE,158,3.1,3.1,46,0.00,,---,0.00,VWS V14.01,2013-02-02 07:41:00,
2013-02-02 02:42:00,7.3,-9.1,29.26,SSE,158,1.1,3.1,46,0.00,,---,0.00,VWS V14.01,2013-02-02 07:42:00,
2013-02-02 02:43:00,7.3,-9.1,29.26,SSE,158,0.0,1.1,46,0.00,,---,0.00,VWS V14.01,2013-02-02 07:43:00,
2013-02-02 02:44:00,7.3,-9.1,29.26,SSE,158,0.0,0.0,46,0.00,,---,0.00,VWS V14.01,2013-02-02 07:44:00,
2013-02-02 02:45:00,7.3,-9.1,29.26,SSE,158,0.0,0.0,46,0.00,,---,0.00,VWS V14.01,2013-02-02 07:45:00,
2013-02-02 02:46:00,7.2,-9.3,29.26,SSE,158,0.0,0.0,46,0.00,,---,0.00,VWS V14.01,2013-02-02 07:46:00,
2013-02-02 02:47:00,7.2,-9.3,29.26,SSE,158,0.0,0.0,46,0.00,,---,0.00,VWS V14.01,2013-02-02 07:47:00,
2013-02-02 02:48:00,7.0,-9.4,29.26,SSE,158,1.1,1.1,46,0.00,,---,0.00,VWS V14.01,2013-02-02 07:48:00,
2013-02-02 02:49:00,7.0,-9.4,29.26,SSE,158,1.1,1.1,46,0.00,,---,0.00,VWS V14.01,2013-02-02 07:49:00,
2013-02-02 02:50:00,7.0,-9.4,29.26,SSE,158,1.1,1.1,46,0.00,,---,0.00,VWS V14.01,2013-02-02 07:50:00,
2013-02-02 02:51:00,7.0,-9.4,29.26,SSE,158,0.0,0.0,46,0.00,,---,0.00,VWS V14.01,2013-02-02 07:51:00,
2013-02-02 02:52:00,7.0,-9.4,29.26,SSE,158,0.0,0.0,46,0.00,,---,0.00,VWS V14.01,2013-02-02 07:52:00,
2013-02-02 02:53:00,7.0,-9.4,29.26,SSE,158,2.0,2.0,46,0.00,,---,0.00,VWS V14.01,2013-02-02 07:53:00,
2013-02-02 02:54:00,7.0,-9.4,29.26,SSE,158,0.0,2.0,46,0.00,,---,0.00,VWS V14.01,2013-02-02 07:54:00,
2013-02-02 02:55:00,7.0,-9.4,29.26,SSE,158,1.6,1.6,46,0.00,,---,0.00,VWS V14.01,2013-02-02 07:55:00,
2013-02-02 02:56:00,7.0,-9.4,29.26,SSE,158,0.0,1.6,46,0.00,,---,0.00,VWS V14.01,2013-02-02 07:56:00,
2013-02-02 02:57:00,7.0,-9.4,29.26,SSE,158,0.0,0.0,46,0.00,,---,0.00,VWS V14.01,2013-02-02 07:57:00,
2013-02-02 02:58:00,6.8,-9.6,29.26,SSE,158,0.0,0.0,46,0.00,,---,0.00,VWS V14.01,2013-02-02 07:58:00,
2013-02-02 02:59:00,6.8,-9.6,29.26,SSE,158,0.0,0.0,46,0.00,,---,0.00,VWS V14.01,2013-02-02 07:59:00,
2013-02-02 03:00:00,6.8,-9.6,29.26,SSE,158,0.0,0.0,46,0.00,,---,0.00,VWS V14.01,2013-02-02 08:00:00,
2013-02-02 03:01:00,6.8,-9.6,29.26,SSE,158,0.0,0.0,46,0.00,,---,0.00,VWS V14.01,2013-02-02 08:01:00,
2013-02-02 03:02:00,6.8,-9.6,29.26,SSE,158,0.0,0.0,46,0.00,,---,0.00,VWS V14.01,2013-02-02 08:02:00,
2013-02-02 03:03:00,6.8,-9.6,29.26,SSE,158,0.0,0.0,46,0.00,,---,0.00,VWS V14.01,2013-02-02 08:03:00,
2013-02-02 03:04:00,6.6,-9.8,29.26,SSE,158,1.6,1.6,46,0.00,,---,0.00,VWS V14.01,2013-02-02 08:04:00,
2013-02-02 03:05:00,6.4,-9.9,29.26,SSE,158,0.0,1.6,46,0.00,,---,0.00,VWS V14.01,2013-02-02 08:05:00,
2013-02-02 03:06:00,6.4,-9.9,29.26,SSE,158,0.0,1.6,46,0.00,,---,0.00,VWS V14.01,2013-02-02 08:06:00,
2013-02-02 03:07:00,6.4,-9.9,29.26,SSE,158,0.0,0.0,46,0.00,,---,0.00,VWS V14.01,2013-02-02 08:07:00,
2013-02-02 03:08:00,6.4,-9.9,29.26,SSE,158,1.1,1.1,46,0.00,,---,0.00,VWS V14.01,2013-02-02 08:08:00,
2013-02-02 03:09:00,6.4,-9.9,29.26,SSE,158,0.0,1.1,46,0.00,,---,0.00,VWS V14.01,2013-02-02 08:09:00,
2013-02-02 03:10:00,6.4,-9.9,29.26,SSE,158,0.0,0.0,46,0.00,,---,0.00,VWS V14.01,2013-02-02 08:10:00,
2013-02-02 03:11:00,6.4,-9.9,29.26,SSE,158,0.0,0.0,46,0.00,,---,0.00,VWS V14.01,2013-02-02 08:11:00,
2013-02-02 03:12:00,6.4,-9.9,29.26,SSE,158,0.0,0.9,46,0.00,,---,0.00,VWS V14.01,2013-02-02 08:12:00,
2013-02-02 03:13:00,6.4,-9.9,29.26,SSE,158,0.0,0.0,46,0.00,,---,0.00,VWS V14.01,2013-02-02 08:13:00,
2013-02-02 03:14:00,6.4,-9.9,29.26,SSE,158,0.0,0.0,46,0.00,,---,0.00,VWS V14.01,2013-02-02 08:14:00,
2013-02-02 03:15:00,6.4,-9.9,29.26,SSE,158,1.1,1.1,46,0.00,,---,0.00,VWS V14.01,2013-02-02 08:15:00,
2013-02-02 03:16:00,6.4,-9.9,29.26,SSE,158,1.1,1.1,46,0.00,,---,0.00,VWS V14.01,2013-02-02 08:16:00,
2013-02-02 03:17:00,6.4,-9.9,29.26,SSE,158,0.0,1.1,46,0.00,,---,0.00,VWS V14.01,2013-02-02 08:17:00,
2013-02-02 03:18:00,6.4,-9.9,29.26,SSE,158,0.0,0.0,46,0.00,,---,0.00,VWS V14.01,2013-02-02 08:18:00,
2013-02-02 03:19:00,6.6,-9.8,29.26,SSE,158,0.0,0.0,46,0.00,,---,0.00,VWS V14.01,2013-02-02 08:19:00,
2013-02-02 03:20:00,6.6,-9.8,29.26,SSE,158,0.0,0.0,46,0.00,,---,0.00,VWS V14.01,2013-02-02 08:20:00,
2013-02-02 03:21:00,6.8,-9.6,29.26,SSE,158,0.0,0.0,46,0.00,,---,0.00,VWS V14.01,2013-02-02 08:21:00,
2013-02-02 03:22:00,6.8,-9.6,29.26,SSE,158,0.0,0.0,46,0.00,,---,0.00,VWS V14.01,2013-02-02 08:22:00,
2013-02-02 03:23:00,6.8,-9.6,29.26,SSE,158,0.0,0.0,46,0.00,,---,0.00,VWS V14.01,2013-02-02 08:23:00,
2013-02-02 03:24:00,6.8,-9.6,29.26,SSE,158,0.0,0.0,46,0.00,,---,0.00,VWS V14.01,2013-02-02 08:24:00,
2013-02-02 03:25:00,7.0,-9.4,29.26,NW,315,0.0,3.8,46,0.00,,---,0.00,VWS V14.01,2013-02-02 08:25:00,
2013-02-02 03:26:00,7.0,-9.4,29.26,NW,315,0.0,3.8,46,0.00,,---,0.00,VWS V14.01,2013-02-02 08:26:00,
2013-02-02 03:27:00,7.0,-9.4,29.26,ENE,68,1.6,2.5,46,0.00,,---,0.00,VWS V14.01,2013-02-02 08:27:00,
2013-02-02 03:28:00,7.0,-9.4,29.26,ENE,68,1.6,1.6,46,0.00,,---,0.00,VWS V14.01,2013-02-02 08:28:00,
2013-02-02 03:29:00,7.0,-9.4,29.26,SE,135,2.5,2.7,46,0.00,,---,0.00,VWS V14.01,2013-02-02 08:29:00,
2013-02-02 03:30:00,7.2,-9.3,29.26,ESE,112,2.5,2.5,46,0.00,,---,0.00,VWS V14.01,2013-02-02 08:30:00,
2013-02-02 03:31:00,7.2,-9.3,29.26,ESE,112,2.7,2.7,46,0.00,,---,0.00,VWS V14.01,2013-02-02 08:31:00,
2013-02-02 03:32:00,7.2,-9.3,29.26,ESE,112,0.9,2.7,46,0.00,,---,0.00,VWS V14.01,2013-02-02 08:32:00,
2013-02-02 03:33:00,7.2,-9.3,29.26,SSE,158,4.0,4.0,46,0.00,,---,0.00,VWS V14.01,2013-02-02 08:33:00,
2013-02-02 03:34:00,7.2,-9.3,29.26,ESE,112,2.7,4.0,46,0.00,,---,0.00,VWS V14.01,2013-02-02 08:34:00,
2013-02-02 03:35:00,7.2,-9.3,29.26,ESE,112,0.0,0.0,46,0.00,,---,0.00,VWS V14.01,2013-02-02 08:35:00,
2013-02-02 03:36:00,7.2,-9.3,29.26,ESE,112,0.0,0.0,46,0.00,,---,0.00,VWS V14.01,2013-02-02 08:36:00,
2013-02-02 03:37:00,7.2,-9.3,29.26,ESE,112,1.6,1.6,46,0.00,,---,0.00,VWS V14.01,2013-02-02 08:37:00,
2013-02-02 03:38:00,7.2,-9.3,29.26,ESE,112,0.9,1.6,46,0.00,,---,0.00,VWS V14.01,2013-02-02 08:38:00,
2013-02-02 03:39:00,7.3,-9.1,29.26,ESE,112,1.3,1.3,46,0.00,,---,0.00,VWS V14.01,2013-02-02 08:39:00,
2013-02-02 03:40:00,7.3,-9.1,29.26,NW,315,2.9,2.9,46,0.00,,---,0.00,VWS V14.01,2013-02-02 08:40:00,
2013-02-02 03:41:00,7.3,-9.1,29.26,NW,315,2.9,2.9,46,0.00,,---,0.00,VWS V14.01,2013-02-02 08:41:00,
2013-02-02 03:42:00,7.2,-9.3,29.26,NNW,338,1.3,2.9,46,0.00,,---,0.00,VWS V14.01,2013-02-02 08:42:00,
2013-02-02 03:43:00,7.2,-9.3,29.26,NNW,338,1.6,1.6,46,0.00,,---,0.00,VWS V14.01,2013-02-02 08:43:00,
2013-02-02 03:44:00,7.2,-9.3,29.26,NNW,338,1.6,1.6,46,0.00,,---,0.00,VWS V14.01,2013-02-02 08:44:00,
2013-02-02 03:45:00,7.2,-9.3,29.26,NNW,338,2.2,2.2,46,0.00,,---,0.00,VWS V14.01,2013-02-02 08:45:00,
2013-02-02 03:46:00,7.2,-9.3,29.26,SSE,158,2.7,2.7,46,0.00,,---,0.00,VWS V14.01,2013-02-02 08:46:00,
2013-02-02 03:47:00,7.2,-9.3,29.26,SSE,158,2.7,2.7,46,0.00,,---,0.00,VWS V14.01,2013-02-02 08:47:00,
2013-02-02 03:48:00,7.2,-9.3,29.26,SSW,202,1.3,3.4,46,0.00,,---,0.00,VWS V14.01,2013-02-02 08:48:00,
2013-02-02 03:49:00,7.2,-9.3,29.26,WNW,292,2.5,2.5,46,0.00,,---,0.00,VWS V14.01,2013-02-02 08:49:00,
2013-02-02 03:50:00,7.2,-9.3,29.26,WNW,292,1.3,2.7,46,0.00,,---,0.00,VWS V14.01,2013-02-02 08:50:00,
2013-02-02 03:51:00,7.3,-9.1,29.26,WNW,292,1.3,2.7,46,0.00,,---,0.00,VWS V14.01,2013-02-02 08:51:00,
2013-02-02 03:52:00,7.3,-9.1,29.26,WNW,292,0.0,1.3,46,0.00,,---,0.00,VWS V14.01,2013-02-02 08:52:00,
2013-02-02 03:53:00,7.2,-9.3,29.26,WNW,292,0.0,0.0,46,0.00,,---,0.00,VWS V14.01,2013-02-02 08:53:00,
2013-02-02 03:54:00,7.2,-9.3,29.26,West,270,0.0,0.0,46,0.00,,---,0.00,VWS V14.01,2013-02-02 08:54:00,
2013-02-02 03:55:00,7.2,-9.3,29.26,West,270,1.6,1.6,46,0.00,,---,0.00,VWS V14.01,2013-02-02 08:55:00,
2013-02-02 03:56:00,7.2,-9.3,29.26,SSE,158,2.7,2.7,46,0.00,,---,0.00,VWS V14.01,2013-02-02 08:56:00,
2013-02-02 03:57:00,7.2,-9.3,29.26,ESE,112,2.2,2.7,46,0.00,,---,0.00,VWS V14.01,2013-02-02 08:57:00,
2013-02-02 03:58:00,7.2,-9.3,29.26,ESE,112,2.0,2.2,46,0.00,,---,0.00,VWS V14.01,2013-02-02 08:58:00,
2013-02-02 03:59:00,7.2,-9.3,29.26,ESE,112,0.0,2.0,46,0.00,,---,0.00,VWS V14.01,2013-02-02 08:59:00,
2013-02-02 04:00:00,7.2,-9.3,29.26,ESE,112,0.0,2.5,46,0.00,,---,0.00,VWS V14.01,2013-02-02 09:00:00,
2013-02-02 04:01:00,7.2,-9.3,29.26,ESE,112,0.0,2.5,46,0.00,,---,0.00,VWS V14.01,2013-02-02 09:01:00,
2013-02-02 04:02:00,7.2,-9.3,29.26,SE,135,2.7,2.7,46,0.00,,---,0.00,VWS V14.01,2013-02-02 09:02:00,
2013-02-02 04:03:00,7.2,-9.3,29.26,SE,135,1.1,2.7,46,0.00,,---,0.00,VWS V14.01,2013-02-02 09:03:00,
2013-02-02 04:04:00,7.2,-9.3,29.26,SSE,158,2.5,2.5,46,0.00,,---,0.00,VWS V14.01,2013-02-02 09:04:00,
2013-02-02 04:05:00,7.2,-9.3,29.26,SSE,158,0.0,2.0,46,0.00,,---,0.00,VWS V14.01,2013-02-02 09:05:00,
2013-02-02 04:06:00,7.2,-9.3,29.26,SSE,158,0.0,2.0,46,0.00,,---,0.00,VWS V14.01,2013-02-02 09:06:00,
2013-02-02 04:07:00,7.2,-9.3,29.26,SSE,158,0.0,0.0,46,0.00,,---,0.00,VWS V14.01,2013-02-02 09:07:00,
2013-02-02 04:08:00,7.2,-9.3,29.26,SSW,202,3.1,3.1,46,0.00,,---,0.00,VWS V14.01,2013-02-02 09:08:00,
2013-02-02 04:09:00,7.2,-9.3,29.26,SSW,202,3.1,3.1,46,0.00,,---,0.00,VWS V14.01,2013-02-02 09:09:00,
2013-02-02 04:10:00,7.2,-9.3,29.26,East,90,0.0,0.0,46,0.00,,---,0.00,VWS V14.01,2013-02-02 09:10:00,
2013-02-02 04:11:00,7.2,-9.3,29.26,ESE,112,0.0,0.0,46,0.00,,---,0.00,VWS V14.01,2013-02-02 09:11:00,
2013-02-02 04:12:00,7.2,-9.3,29.26,ESE,112,1.6,1.6,46,0.00,,---,0.00,VWS V14.01,2013-02-02 09:12:00,
2013-02-02 04:13:00,7.2,-9.3,29.26,ESE,112,0.9,1.6,46,0.00,,---,0.00,VWS V14.01,2013-02-02 09:13:00,
2013-02-02 04:14:00,7.0,-9.4,29.26,ESE,112,2.0,2.0,46,0.00,,---,0.00,VWS V14.01,2013-02-02 09:14:00,
2013-02-02 04:15:00,7.0,-9.4,29.26,ESE,112,2.2,2.2,46,0.00,,---,0.00,VWS V14.01,2013-02-02 09:15:00,
2013-02-02 04:16:00,7.0,-9.4,29.26,NE,45,1.3,2.2,46,0.00,,---,0.00,VWS V14.01,2013-02-02 09:16:00,
2013-02-02 04:17:00,7.0,-9.4,29.26,ENE,68,1.1,1.3,46,0.00,,---,0.00,VWS V14.01,2013-02-02 09:17:00,
2013-02-02 04:18:00,7.0,-9.4,29.26,ENE,68,1.1,1.1,46,0.00,,---,0.00,VWS V14.01,2013-02-02 09:18:00,
2013-02-02 04:19:00,6.8,-9.6,29.26,East,90,1.1,1.1,46,0.00,,---,0.00,VWS V14.01,2013-02-02 09:19:00,
2013-02-02 04:20:00,6.8,-9.6,29.26,NNW,338,4.3,4.3,46,0.00,,---,0.00,VWS V14.01,2013-02-02 09:20:00,
2013-02-02 04:21:00,6.8,-9.6,29.26,NNW,338,4.3,4.3,46,0.00,,---,0.00,VWS V14.01,2013-02-02 09:21:00,
2013-02-02 04:22:00,6.8,-9.6,29.26,ESE,112,2.0,4.3,46,0.00,,---,0.00,VWS V14.01,2013-02-02 09:22:00,
2013-02-02 04:23:00,6.6,-9.8,29.29,ESE,112,2.0,2.0,46,0.00,,---,0.00,VWS V14.01,2013-02-02 09:23:00,
2013-02-02 04:24:00,6.6,-9.8,29.29,ESE,112,0.0,2.0,46,0.00,,---,0.00,VWS V14.01,2013-02-02 09:24:00,
2013-02-02 04:25:00,6.4,-9.9,29.29,SE,135,1.6,1.6,46,0.00,,---,0.00,VWS V14.01,2013-02-02 09:25:00,
2013-02-02 04:26:00,6.4,-9.9,29.29,SE,135,0.0,1.6,46,0.00,,---,0.00,VWS V14.01,2013-02-02 09:26:00,
2013-02-02 04:27:00,6.4,-9.9,29.29,SE,135,0.0,0.0,46,0.00,,---,0.00,VWS V14.01,2013-02-02 09:27:00,
2013-02-02 04:28:00,6.4,-9.9,29.29,SE,135,0.0,0.0,46,0.00,,---,0.00,VWS V14.01,2013-02-02 09:28:00,
2013-02-02 04:29:00,6.4,-9.9,29.29,SE,135,0.0,0.0,46,0.00,,---,0.00,VWS V14.01,2013-02-02 09:29:00,
2013-02-02 04:30:00,6.3,-10.1,29.29,SE,135,0.0,0.0,46,0.00,,---,0.00,VWS V14.01,2013-02-02 09:30:00,
2013-02-02 04:31:00,6.3,-10.1,29.29,SE,135,0.0,0.0,46,0.00,,---,0.00,VWS V14.01,2013-02-02 09:31:00,
2013-02-02 04:32:00,6.3,-10.1,29.29,SE,135,0.0,0.0,46,0.00,,---,0.00,VWS V14.01,2013-02-02 09:32:00,
2013-02-02 04:33:00,6.3,-10.1,29.29,SE,135,0.0,0.0,46,0.00,,---,0.00,VWS V14.01,2013-02-02 09:33:00,
2013-02-02 04:34:00,6.3,-10.1,29.29,SE,135,0.0,0.0,46,0.00,,---,0.00,VWS V14.01,2013-02-02 09:34:00,
2013-02-02 04:35:00,6.3,-10.1,29.29,SE,135,0.0,0.0,46,0.00,,---,0.00,VWS V14.01,2013-02-02 09:35:00,
2013-02-02 04:36:00,6.3,-10.1,29.29,SE,135,0.0,0.0,46,0.00,,---,0.00,VWS V14.01,2013-02-02 09:36:00,
2013-02-02 04:37:00,6.3,-10.1,29.29,SE,135,0.0,0.0,46,0.00,,---,0.00,VWS V14.01,2013-02-02 09:37:00,
2013-02-02 04:38:00,6.3,-10.1,29.29,SE,135,2.0,2.9,46,0.00,,---,0.00,VWS V14.01,2013-02-02 09:38:00,
2013-02-02 04:39:00,6.3,-10.1,29.29,SE,135,1.3,2.0,46,0.00,,---,0.00,VWS V14.01,2013-02-02 09:39:00,
2013-02-02 04:40:00,6.3,-10.1,29.29,SE,135,0.0,1.3,46,0.00,,---,0.00,VWS V14.01,2013-02-02 09:40:00,
2013-02-02 04:41:00,6.3,-10.1,29.29,SE,135,0.0,0.0,46,0.00,,---,0.00,VWS V14.01,2013-02-02 09:41:00,
2013-02-02 04:42:00,6.3,-10.1,29.29,SE,135,0.0,0.0,46,0.00,,---,0.00,VWS V14.01,2013-02-02 09:42:00,
2013-02-02 04:43:00,6.1,-10.2,29.29,SE,135,0.0,0.0,46,0.00,,---,0.00,VWS V14.01,2013-02-02 09:43:00,
2013-02-02 04:44:00,6.1,-10.2,29.29,SE,135,0.0,0.0,46,0.00,,---,0.00,VWS V14.01,2013-02-02 09:44:00,
2013-02-02 04:45:00,6.1,-10.2,29.29,SE,135,0.0,0.0,46,0.00,,---,0.00,VWS V14.01,2013-02-02 09:45:00,
2013-02-02 04:46:00,5.9,-10.4,29.29,SE,135,0.0,0.0,46,0.00,,---,0.00,VWS V14.01,2013-02-02 09:46:00,
2013-02-02 04:47:00,5.9,-10.4,29.29,SE,135,0.0,0.0,46,0.00,,---,0.00,VWS V14.01,2013-02-02 09:47:00,
2013-02-02 04:48:00,5.9,-10.4,29.29,SE,135,0.0,0.0,46,0.00,,---,0.00,VWS V14.01,2013-02-02 09:48:00,
2013-02-02 04:49:00,5.9,-10.4,29.29,SE,135,0.0,0.0,46,0.00,,---,0.00,VWS V14.01,2013-02-02 09:49:00,
2013-02-02 04:50:00,5.9,-10.4,29.29,SE,135,0.0,0.0,46,0.00,,---,0.00,VWS V14.01,2013-02-02 09:50:00,
2013-02-02 04:51:00,5.9,-10.4,29.29,SE,135,0.0,0.0,46,0.00,,---,0.00,VWS V14.01,2013-02-02 09:51:00,
2013-02-02 04:52:00,5.7,-10.6,29.29,SE,135,0.0,0.0,46,0.00,,---,0.00,VWS V14.01,2013-02-02 09:52:00,
2013-02-02 04:53:00,5.7,-10.6,29.26,SE,135,0.0,0.0,46,0.00,,---,0.00,VWS V14.01,2013-02-02 09:53:00,
2013-02-02 04:54:00,5.7,-10.6,29.26,SE,135,0.0,0.0,46,0.00,,---,0.00,VWS V14.01,2013-02-02 09:54:00,
2013-02-02 04:55:00,5.5,-10.8,29.26,SE,135,0.0,0.0,46,0.00,,---,0.00,VWS V14.01,2013-02-02 09:55:00,
2013-02-02 04:56:00,5.5,-10.8,29.26,SE,135,0.0,0.0,46,0.00,,---,0.00,VWS V14.01,2013-02-02 09:56:00,
2013-02-02 04:57:00,5.5,-10.8,29.26,SE,135,0.0,0.0,46,0.00,,---,0.00,VWS V14.01,2013-02-02 09:57:00,
2013-02-02 04:58:00,5.5,-10.8,29.26,SE,135,0.0,0.0,46,0.00,,---,0.00,VWS V14.01,2013-02-02 09:58:00,
2013-02-02 04:59:00,5.5,-10.8,29.26,SE,135,0.0,0.0,46,0.00,,---,0.00,VWS V14.01,2013-02-02 09:59:00,
2013-02-02 05:00:00,5.5,-10.8,29.26,SE,135,0.0,0.0,46,0.00,,---,0.00,VWS V14.01,2013-02-02 10:00:00,
2013-02-02 05:01:00,5.5,-10.8,29.26,SE,135,0.0,0.0,46,0.00,,---,0.00,VWS V14.01,2013-02-02 10:01:00,
2013-02-02 05:02:00,5.4,-10.9,29.26,SE,135,0.0,0.0,46,0.00,,---,0.00,VWS V14.01,2013-02-02 10:02:00,
2013-02-02 05:03:00,5.4,-10.9,29.26,SE,135,0.0,0.0,46,0.00,,---,0.00,VWS V14.01,2013-02-02 10:03:00,
2013-02-02 05:04:00,5.4,-10.9,29.26,SE,135,0.0,0.0,46,0.00,,---,0.00,VWS V14.01,2013-02-02 10:04:00,
2013-02-02 05:05:00,5.4,-10.9,29.26,SE,135,0.0,0.0,46,0.00,,---,0.00,VWS V14.01,2013-02-02 10:05:00,
2013-02-02 05:06:00,5.4,-10.9,29.26,SE,135,0.0,0.0,46,0.00,,---,0.00,VWS V14.01,2013-02-02 10:06:00,
2013-02-02 05:07:00,5.4,-10.9,29.26,SE,135,0.0,0.0,46,0.00,,---,0.00,VWS V14.01,2013-02-02 10:07:00,
2013-02-02 05:08:00,5.2,-11.1,29.26,SE,135,0.0,0.0,46,0.00,,---,0.00,VWS V14.01,2013-02-02 10:08:00,
2013-02-02 05:09:00,5.0,-11.2,29.26,SE,135,1.3,1.3,46,0.00,,---,0.00,VWS V14.01,2013-02-02 10:09:00,
2013-02-02 05:10:00,5.0,-11.2,29.26,SE,135,2.0,2.0,46,0.00,,---,0.00,VWS V14.01,2013-02-02 10:10:00,
2013-02-02 05:11:00,5.2,-11.1,29.26,SE,135,2.2,2.2,46,0.00,,---,0.00,VWS V14.01,2013-02-02 10:11:00,
2013-02-02 05:12:00,5.2,-11.1,29.26,SE,135,1.6,2.2,46,0.00,,---,0.00,VWS V14.01,2013-02-02 10:12:00,
2013-02-02 05:13:00,5.0,-11.2,29.26,SE,135,1.6,1.6,46,0.00,,---,0.00,VWS V14.01,2013-02-02 10:13:00,
2013-02-02 05:14:00,5.0,-11.2,29.26,SE,135,0.0,1.6,46,0.00,,---,0.00,VWS V14.01,2013-02-02 10:14:00,
2013-02-02 05:15:00,5.0,-11.2,29.26,SE,135,0.0,0.0,46,0.00,,---,0.00,VWS V14.01,2013-02-02 10:15:00,
2013-02-02 05:16:00,5.0,-11.2,29.26,SE,135,0.0,0.0,46,0.00,,---,0.00,VWS V14.01,2013-02-02 10:16:00,
2013-02-02 05:17:00,5.0,-11.2,29.26,SE,135,1.3,1.6,46,0.00,,---,0.00,VWS V14.01,2013-02-02 10:17:00,
2013-02-02 05:18:00,4.8,-11.4,29.26,SE,135,1.3,1.3,46,0.00,,---,0.00,VWS V14.01,2013-02-02 10:18:00,
2013-02-02 05:19:00,4.8,-11.4,29.26,SE,135,0.0,1.3,46,0.00,,---,0.00,VWS V14.01,2013-02-02 10:19:00,
2013-02-02 05:20:00,4.6,-11.6,29.26,SE,135,1.1,1.1,46,0.00,,---,0.00,VWS V14.01,2013-02-02 10:20:00,
2013-02-02 05:21:00,4.6,-11.6,29.26,SE,135,1.1,1.1,46,0.00,,---,0.00,VWS V14.01,2013-02-02 10:21:00,
2013-02-02 05:22:00,4.6,-11.6,29.26,SE,135,0.0,1.1,46,0.00,,---,0.00,VWS V14.01,2013-02-02 10:22:00,
2013-02-02 05:23:00,4.6,-11.6,29.26,SE,135,0.0,0.0,46,0.00,,---,0.00,VWS V14.01,2013-02-02 10:23:00,
2013-02-02 05:24:00,4.6,-11.6,29.26,SE,135,0.0,0.0,46,0.00,,---,0.00,VWS V14.01,2013-02-02 10:24:00,
2013-02-02 05:25:00,4.5,-11.7,29.26,SE,135,0.0,0.0,46,0.00,,---,0.00,VWS V14.01,2013-02-02 10:25:00,
2013-02-02 05:26:00,4.5,-11.7,29.26,SE,135,0.0,0.0,46,0.00,,---,0.00,VWS V14.01,2013-02-02 10:26:00,
2013-02-02 05:27:00,4.5,-11.7,29.26,SE,135,0.0,0.0,46,0.00,,---,0.00,VWS V14.01,2013-02-02 10:27:00,
2013-02-02 05:28:00,4.5,-11.7,29.26,SE,135,0.0,0.0,46,0.00,,---,0.00,VWS V14.01,2013-02-02 10:28:00,
2013-02-02 05:29:00,4.5,-11.7,29.26,SE,135,0.0,0.0,46,0.00,,---,0.00,VWS V14.01,2013-02-02 10:29:00,
2013-02-02 05:30:00,4.5,-11.7,29.26,SE,135,0.0,0.0,46,0.00,,---,0.00,VWS V14.01,2013-02-02 10:30:00,
2013-02-02 05:31:00,4.5,-11.7,29.26,SE,135,0.0,0.0,46,0.00,,---,0.00,VWS V14.01,2013-02-02 10:31:00,
2013-02-02 05:32:00,4.3,-11.9,29.26,SE,135,0.0,0.0,46,0.00,,---,0.00,VWS V14.01,2013-02-02 10:32:00,
2013-02-02 05:33:00,4.3,-11.9,29.26,SE,135,0.0,0.0,46,0.00,,---,0.00,VWS V14.01,2013-02-02 10:33:00,
2013-02-02 05:34:00,4.3,-11.9,29.26,SE,135,0.0,0.0,46,0.00,,---,0.00,VWS V14.01,2013-02-02 10:34:00,
2013-02-02 05:35:00,4.3,-11.9,29.26,SE,135,0.0,0.0,46,0.00,,---,0.00,VWS V14.01,2013-02-02 10:35:00,
2013-02-02 05:36:00,4.3,-11.9,29.26,SE,135,0.0,0.0,46,0.00,,---,0.00,VWS V14.01,2013-02-02 10:36:00,
2013-02-02 05:37:00,4.3,-11.9,29.26,SE,135,0.0,0.0,46,0.00,,---,0.00,VWS V14.01,2013-02-02 10:37:00,
2013-02-02 05:38:00,4.3,-11.9,29.26,SE,135,0.0,0.0,46,0.00,,---,0.00,VWS V14.01,2013-02-02 10:38:00,
2013-02-02 05:39:00,4.5,-11.7,29.26,SE,135,0.0,0.0,46,0.00,,---,0.00,VWS V14.01,2013-02-02 10:39:00,
2013-02-02 05:40:00,4.5,-11.7,29.26,SE,135,0.0,0.0,46,0.00,,---,0.00,VWS V14.01,2013-02-02 10:40:00,
2013-02-02 05:41:00,4.5,-11.7,29.26,SE,135,0.0,0.0,46,0.00,,---,0.00,VWS V14.01,2013-02-02 10:41:00,
2013-02-02 05:42:00,4.5,-11.7,29.26,SE,135,0.0,0.0,46,0.00,,---,0.00,VWS V14.01,2013-02-02 10:42:00,
2013-02-02 05:43:00,4.5,-11.7,29.26,SE,135,0.0,0.0,46,0.00,,---,0.00,VWS V14.01,2013-02-02 10:43:00,
2013-02-02 05:44:00,4.3,-11.9,29.26,SE,135,0.0,0.0,46,0.00,,---,0.00,VWS V14.01,2013-02-02 10:44:00,
2013-02-02 05:45:00,4.3,-11.9,29.26,SE,135,0.0,0.0,46,0.00,,---,0.00,VWS V14.01,2013-02-02 10:45:00,
2013-02-02 05:46:00,4.3,-11.9,29.26,SE,135,0.0,0.0,46,0.00,,---,0.00,VWS V14.01,2013-02-02 10:46:00,
2013-02-02 05:47:00,4.3,-11.9,29.26,SE,135,0.0,0.0,46,0.00,,---,0.00,VWS V14.01,2013-02-02 10:47:00,
2013-02-02 05:48:00,4.3,-11.9,29.26,SE,135,0.0,0.0,46,0.00,,---,0.00,VWS V14.01,2013-02-02 10:48:00,
2013-02-02 05:49:00,4.3,-11.9,29.26,SE,135,0.0,0.0,46,0.00,,---,0.00,VWS V14.01,2013-02-02 10:49:00,
2013-02-02 05:50:00,4.3,-11.9,29.26,SE,135,0.0,0.0,46,0.00,,---,0.00,VWS V14.01,2013-02-02 10:50:00,
2013-02-02 05:51:00,4.3,-11.9,29.26,SE,135,0.0,0.0,46,0.00,,---,0.00,VWS V14.01,2013-02-02 10:51:00,
2013-02-02 05:52:00,4.3,-11.9,29.26,SE,135,0.0,0.0,46,0.00,,---,0.00,VWS V14.01,2013-02-02 10:52:00,
2013-02-02 05:53:00,4.1,-12.1,29.26,SE,135,0.0,0.0,46,0.00,,---,0.00,VWS V14.01,2013-02-02 10:53:00,
2013-02-02 05:54:00,4.1,-12.1,29.26,SE,135,0.0,0.0,46,0.00,,---,0.00,VWS V14.01,2013-02-02 10:54:00,
2013-02-02 05:55:00,4.1,-12.1,29.26,SE,135,0.0,0.0,46,0.00,,---,0.00,VWS V14.01,2013-02-02 10:55:00,
2013-02-02 05:56:00,4.1,-12.1,29.26,SE,135,0.0,0.0,46,0.00,,---,0.00,VWS V14.01,2013-02-02 10:56:00,
2013-02-02 05:57:00,4.1,-12.1,29.26,SE,135,0.0,0.0,46,0.00,,---,0.00,VWS V14.01,2013-02-02 10:57:00,
2013-02-02 05:58:00,4.1,-12.1,29.26,SE,135,0.0,0.0,46,0.00,,---,0.00,VWS V14.01,2013-02-02 10:58:00,
2013-02-02 05:59:00,4.1,-12.1,29.26,SE,135,0.0,0.0,46,0.00,,---,0.00,VWS V14.01,2013-02-02 10:59:00,
2013-02-02 06:00:00,3.9,-12.2,29.26,SE,135,0.0,0.0,46,0.00,,---,0.00,VWS V14.01,2013-02-02 11:00:00,
2013-02-02 06:01:00,3.9,-12.2,29.26,SE,135,0.0,0.0,46,0.00,,---,0.00,VWS V14.01,2013-02-02 11:01:00,
2013-02-02 06:02:00,4.1,-12.1,29.26,SE,135,0.0,0.0,46,0.00,,---,0.00,VWS V14.01,2013-02-02 11:02:00,
2013-02-02 06:03:00,4.1,-12.1,29.26,SE,135,0.0,0.0,46,0.00,,---,0.00,VWS V14.01,2013-02-02 11:03:00,
2013-02-02 06:04:00,4.1,-12.1,29.26,SE,135,0.0,0.0,46,0.00,,---,0.00,VWS V14.01,2013-02-02 11:04:00,
2013-02-02 06:05:00,4.1,-12.1,29.26,SE,135,0.0,0.0,46,0.00,,---,0.00,VWS V14.01,2013-02-02 11:05:00,
2013-02-02 06:06:00,3.9,-12.2,29.26,SE,135,0.0,0.0,46,0.00,,---,0.00,VWS V14.01,2013-02-02 11:06:00,
2013-02-02 06:07:00,3.9,-12.2,29.26,SE,135,0.0,0.0,46,0.00,,---,0.00,VWS V14.01,2013-02-02 11:07:00,
2013-02-02 06:08:00,3.9,-12.2,29.26,SE,135,0.0,0.0,46,0.00,,---,0.00,VWS V14.01,2013-02-02 11:08:00,
2013-02-02 06:09:00,4.1,-12.1,29.26,SE,135,0.0,0.0,46,0.00,,---,0.00,VWS V14.01,2013-02-02 11:09:00,
2013-02-02 06:10:00,4.1,-12.1,29.26,SE,135,0.0,0.0,46,0.00,,---,0.00,VWS V14.01,2013-02-02 11:10:00,
2013-02-02 06:11:00,4.1,-12.1,29.26,SE,135,0.0,0.0,46,0.00,,---,0.00,VWS V14.01,2013-02-02 11:11:00,
2013-02-02 06:12:00,4.1,-12.1,29.26,SE,135,0.0,0.0,46,0.00,,---,0.00,VWS V14.01,2013-02-02 11:12:00,
2013-02-02 06:13:00,4.1,-12.1,29.26,SE,135,0.0,0.0,46,0.00,,---,0.00,VWS V14.01,2013-02-02 11:13:00,
2013-02-02 06:14:00,3.9,-12.2,29.26,SE,135,0.0,0.0,46,0.00,,---,0.00,VWS V14.01,2013-02-02 11:14:00,
2013-02-02 06:15:00,3.9,-12.2,29.26,SE,135,0.0,0.0,46,0.00,,---,0.00,VWS V14.01,2013-02-02 11:15:00,
2013-02-02 06:16:00,3.9,-12.2,29.26,SE,135,0.0,0.0,46,0.00,,---,0.00,VWS V14.01,2013-02-02 11:16:00,
2013-02-02 06:17:00,3.7,-12.4,29.26,SE,135,1.6,1.6,46,0.00,,---,0.00,VWS V14.01,2013-02-02 11:17:00,
2013-02-02 06:18:00,3.7,-12.4,29.26,SE,135,1.6,1.6,46,0.00,,---,0.00,VWS V14.01,2013-02-02 11:18:00,
2013-02-02 06:19:00,3.7,-12.4,29.26,SE,135,1.3,1.6,46,0.00,,---,0.00,VWS V14.01,2013-02-02 11:19:00,
2013-02-02 06:20:00,3.7,-12.4,29.26,SE,135,1.3,1.3,46,0.00,,---,0.00,VWS V14.01,2013-02-02 11:20:00,
2013-02-02 06:21:00,3.7,-12.4,29.26,SE,135,2.2,2.2,46,0.00,,---,0.00,VWS V14.01,2013-02-02 11:21:00,
2013-02-02 06:22:00,3.7,-12.4,29.26,SE,135,1.3,2.2,46,0.00,,---,0.00,VWS V14.01,2013-02-02 11:22:00,
2013-02-02 06:23:00,3.7,-12.4,29.26,SE,135,0.0,1.3,46,0.00,,---,0.00,VWS V14.01,2013-02-02 11:23:00,
2013-02-02 06:24:00,3.7,-12.4,29.26,SE,135,0.0,0.0,46,0.00,,---,0.00,VWS V14.01,2013-02-02 11:24:00,
2013-02-02 06:25:00,3.6,-12.6,29.26,SE,135,1.3,1.3,46,0.00,,---,0.00,VWS V14.01,2013-02-02 11:25:00,
2013-02-02 06:26:00,3.6,-12.6,29.26,SE,135,1.6,1.6,46,0.00,,---,0.00,VWS V14.01,2013-02-02 11:26:00,
2013-02-02 06:27:00,3.6,-12.6,29.26,SE,135,1.6,1.6,46,0.00,,---,0.00,VWS V14.01,2013-02-02 11:27:00,
2013-02-02 06:28:00,3.6,-12.6,29.26,ESE,112,2.0,2.0,46,0.00,,---,0.00,VWS V14.01,2013-02-02 11:28:00,
2013-02-02 06:29:00,3.6,-12.6,29.26,ESE,112,2.5,2.5,46,0.00,,---,0.00,VWS V14.01,2013-02-02 11:29:00,
2013-02-02 06:30:00,3.6,-12.6,29.26,ESE,112,1.1,1.1,46,0.00,,---,0.00,VWS V14.01,2013-02-02 11:30:00,
2013-02-02 06:31:00,3.6,-12.6,29.26,ESE,112,1.1,1.1,46,0.00,,---,0.00,VWS V14.01,2013-02-02 11:31:00,
2013-02-02 06:32:00,3.7,-12.4,29.26,ESE,112,1.1,1.1,46,0.00,,---,0.00,VWS V14.01,2013-02-02 11:32:00,
2013-02-02 06:33:00,3.7,-12.4,29.26,ESE,112,0.9,1.1,46,0.00,,---,0.00,VWS V14.01,2013-02-02 11:33:00,
2013-02-02 06:34:00,3.6,-12.6,29.26,ESE,112,0.0,0.9,46,0.00,,---,0.00,VWS V14.01,2013-02-02 11:34:00,
2013-02-02 06:35:00,3.6,-12.6,29.26,ESE,112,0.0,0.0,46,0.00,,---,0.00,VWS V14.01,2013-02-02 11:35:00,
2013-02-02 06:36:00,3.7,-12.4,29.26,ESE,112,0.0,0.0,46,0.00,,---,0.00,VWS V14.01,2013-02-02 11:36:00,
2013-02-02 06:37:00,3.7,-12.4,29.26,ESE,112,0.0,0.0,46,0.00,,---,0.00,VWS V14.01,2013-02-02 11:37:00,
2013-02-02 06:38:00,3.7,-12.4,29.26,ESE,112,0.0,0.0,46,0.00,,---,0.00,VWS V14.01,2013-02-02 11:38:00,
2013-02-02 06:39:00,3.7,-12.4,29.26,ESE,112,0.0,0.0,46,0.00,,---,0.00,VWS V14.01,2013-02-02 11:39:00,
2013-02-02 06:40:00,3.6,-12.6,29.26,ESE,112,0.0,0.0,46,0.00,,---,0.00,VWS V14.01,2013-02-02 11:40:00,
2013-02-02 06:41:00,3.6,-12.6,29.26,ESE,112,0.0,0.0,46,0.00,,---,0.00,VWS V14.01,2013-02-02 11:41:00,
2013-02-02 06:42:00,3.6,-12.6,29.26,ESE,112,0.0,0.0,46,0.00,,---,0.00,VWS V14.01,2013-02-02 11:42:00,
2013-02-02 06:43:00,3.4,-12.7,29.26,ESE,112,0.0,0.0,46,0.00,,---,0.00,VWS V14.01,2013-02-02 11:43:00,
2013-02-02 06:44:00,3.4,-12.7,29.26,ESE,112,0.0,0.0,46,0.00,,---,0.00,VWS V14.01,2013-02-02 11:44:00,
2013-02-02 06:45:00,3.2,-12.9,29.26,ESE,112,0.0,0.0,46,0.00,,---,0.00,VWS V14.01,2013-02-02 11:45:00,
2013-02-02 06:46:00,3.2,-12.9,29.26,ESE,112,0.0,0.0,46,0.00,,---,0.00,VWS V14.01,2013-02-02 11:46:00,
2013-02-02 06:47:00,3.2,-12.9,29.26,ESE,112,0.0,0.0,46,0.00,,---,0.00,VWS V14.01,2013-02-02 11:47:00,
2013-02-02 06:48:00,3.2,-12.9,29.26,ESE,112,0.0,0.0,46,0.00,,---,0.00,VWS V14.01,2013-02-02 11:48:00,
2013-02-02 06:49:00,3.2,-12.9,29.26,ESE,112,0.0,0.0,46,0.00,,---,0.00,VWS V14.01,2013-02-02 11:49:00,
2013-02-02 06:50:00,3.2,-12.9,29.26,ESE,112,0.0,0.0,46,0.00,,---,0.00,VWS V14.01,2013-02-02 11:50:00,
2013-02-02 06:51:00,3.2,-12.9,29.26,ESE,112,0.0,0.0,46,0.00,,---,0.00,VWS V14.01,2013-02-02 11:51:00,
2013-02-02 06:52:00,3.2,-12.9,29.26,ESE,112,0.0,0.0,46,0.00,,---,0.00,VWS V14.01,2013-02-02 11:52:00,
2013-02-02 06:53:00,3.2,-12.9,29.26,ESE,112,0.0,0.0,46,0.00,,---,0.00,VWS V14.01,2013-02-02 11:53:00,
2013-02-02 06:54:00,3.2,-12.9,29.26,ESE,112,0.0,0.0,46,0.00,,---,0.00,VWS V14.01,2013-02-02 11:54:00,
2013-02-02 06:55:00,3.2,-12.9,29.26,ESE,112,0.0,0.0,46,0.00,,---,0.00,VWS V14.01,2013-02-02 11:55:00,
2013-02-02 06:56:00,3.2,-12.9,29.26,ESE,112,0.0,0.0,46,0.00,,---,0.00,VWS V14.01,2013-02-02 11:56:00,
2013-02-02 06:57:00,3.2,-12.9,29.26,ESE,112,0.0,0.0,46,0.00,,---,0.00,VWS V14.01,2013-02-02 11:57:00,
2013-02-02 06:58:00,3.2,-12.9,29.26,ESE,112,0.0,0.0,46,0.00,,---,0.00,VWS V14.01,2013-02-02 11:58:00,
2013-02-02 06:59:00,3.2,-12.9,29.26,ESE,112,0.0,0.0,46,0.00,,---,0.00,VWS V14.01,2013-02-02 11:59:00,
2013-02-02 07:00:00,3.2,-12.9,29.26,ESE,112,0.0,0.0,46,0.00,,---,0.00,VWS V14.01,2013-02-02 12:00:00,
2013-02-02 07:01:00,3.2,-12.9,29.26,ESE,112,0.0,0.0,46,0.00,,---,0.00,VWS V14.01,2013-02-02 12:01:00,
2013-02-02 07:02:00,3.2,-12.9,29.26,ESE,112,0.0,0.0,46,0.00,,---,0.00,VWS V14.01,2013-02-02 12:02:00,
2013-02-02 07:03:00,3.2,-12.9,29.26,ESE,112,0.0,0.0,46,0.00,,---,0.00,VWS V14.01,2013-02-02 12:03:00,
2013-02-02 07:04:00,3.0,-13.1,29.26,ESE,112,0.9,0.9,46,0.00,,---,0.00,VWS V14.01,2013-02-02 12:04:00,
2013-02-02 07:05:00,3.0,-13.1,29.26,ESE,112,0.9,0.9,46,0.00,,---,0.00,VWS V14.01,2013-02-02 12:05:00,
2013-02-02 07:06:00,3.0,-13.1,29.26,ESE,112,1.6,1.6,46,0.00,,---,0.00,VWS V14.01,2013-02-02 12:06:00,
2013-02-02 07:07:00,2.8,-13.2,29.26,ESE,112,1.3,1.6,46,0.00,,---,0.00,VWS V14.01,2013-02-02 12:07:00,
2013-02-02 07:08:00,2.8,-13.2,29.26,ESE,112,0.9,1.3,46,0.00,,---,0.00,VWS V14.01,2013-02-02 12:08:00,
2013-02-02 07:09:00,2.8,-13.2,29.26,ESE,112,0.9,0.9,46,0.00,,---,0.00,VWS V14.01,2013-02-02 12:09:00,
2013-02-02 07:10:00,2.8,-13.2,29.26,ESE,112,1.1,1.3,46,0.00,,---,0.00,VWS V14.01,2013-02-02 12:10:00,
2013-02-02 07:11:00,2.8,-13.2,29.26,ESE,112,0.0,1.1,46,0.00,,---,0.00,VWS V14.01,2013-02-02 12:11:00,
2013-02-02 07:12:00,2.8,-13.2,29.26,ESE,112,0.0,0.0,46,0.00,,---,0.00,VWS V14.01,2013-02-02 12:12:00,
2013-02-02 07:13:00,2.8,-13.2,29.26,ESE,112,0.0,0.0,46,0.00,,---,0.00,VWS V14.01,2013-02-02 12:13:00,
2013-02-02 07:14:00,2.8,-13.2,29.26,ESE,112,0.0,0.0,46,0.00,,---,0.00,VWS V14.01,2013-02-02 12:14:00,
2013-02-02 07:15:00,2.8,-13.2,29.26,ESE,112,1.1,1.1,46,0.00,,---,0.00,VWS V14.01,2013-02-02 12:15:00,
2013-02-02 07:16:00,2.8,-13.2,29.26,ESE,112,0.0,1.1,46,0.00,,---,0.00,VWS V14.01,2013-02-02 12:16:00,
2013-02-02 07:17:00,2.7,-13.4,29.26,ESE,112,1.1,1.1,46,0.00,,---,0.00,VWS V14.01,2013-02-02 12:17:00,
2013-02-02 07:18:00,2.7,-13.4,29.26,ESE,112,0.0,1.1,46,0.00,,---,0.00,VWS V14.01,2013-02-02 12:18:00,
2013-02-02 07:19:00,2.7,-13.4,29.26,ESE,112,0.0,0.0,46,0.00,,---,0.00,VWS V14.01,2013-02-02 12:19:00,
2013-02-02 07:20:00,2.7,-13.4,29.26,ESE,112,0.0,0.0,46,0.00,,---,0.00,VWS V14.01,2013-02-02 12:20:00,
2013-02-02 07:21:00,2.7,-13.4,29.26,ESE,112,0.0,0.0,46,0.00,,---,0.00,VWS V14.01,2013-02-02 12:21:00,
2013-02-02 07:22:00,2.7,-13.4,29.26,ESE,112,0.0,0.0,46,0.00,,---,0.00,VWS V14.01,2013-02-02 12:22:00,
2013-02-02 07:23:00,2.7,-13.4,29.26,ESE,112,0.0,0.0,46,0.00,,---,0.00,VWS V14.01,2013-02-02 12:23:00,
2013-02-02 07:24:00,2.7,-13.4,29.26,ESE,112,0.0,0.0,46,0.00,,---,0.00,VWS V14.01,2013-02-02 12:24:00,
2013-02-02 07:25:00,2.7,-13.4,29.26,ESE,112,0.0,0.0,46,0.00,,---,0.00,VWS V14.01,2013-02-02 12:25:00,
2013-02-02 07:26:00,2.7,-13.4,29.26,ESE,112,0.0,0.0,46,0.00,,---,0.00,VWS V14.01,2013-02-02 12:26:00,
2013-02-02 07:27:00,2.7,-13.4,29.26,ESE,112,0.0,0.0,46,0.00,,---,0.00,VWS V14.01,2013-02-02 12:27:00,
2013-02-02 07:28:00,2.7,-13.4,29.26,ESE,112,1.6,1.6,46,0.00,,---,0.00,VWS V14.01,2013-02-02 12:28:00,
2013-02-02 07:29:00,2.7,-13.4,29.26,ESE,112,1.3,1.6,46,0.00,,---,0.00,VWS V14.01,2013-02-02 12:29:00,
2013-02-02 07:30:00,2.7,-13.4,29.26,ESE,112,0.0,1.3,46,0.00,,---,0.00,VWS V14.01,2013-02-02 12:30:00,
2013-02-02 07:31:00,2.7,-13.4,29.26,ESE,112,0.0,0.0,46,0.00,,---,0.00,VWS V14.01,2013-02-02 12:31:00,
2013-02-02 07:32:00,2.7,-13.4,29.26,ESE,112,0.0,0.0,46,0.00,,---,0.00,VWS V14.01,2013-02-02 12:32:00,
2013-02-02 07:33:00,2.7,-13.4,29.26,ESE,112,1.3,1.3,46,0.00,,---,0.00,VWS V14.01,2013-02-02 12:33:00,
2013-02-02 07:34:00,2.8,-13.2,29.26,ESE,112,1.1,1.3,46,0.00,,---,0.00,VWS V14.01,2013-02-02 12:34:00,
2013-02-02 07:35:00,2.8,-13.2,29.26,ESE,112,1.1,1.1,46,0.00,,---,0.00,VWS V14.01,2013-02-02 12:35:00,
2013-02-02 07:36:00,2.8,-13.2,29.26,ESE,112,2.0,2.0,46,0.00,,---,0.00,VWS V14.01,2013-02-02 12:36:00,
2013-02-02 07:37:00,2.8,-13.2,29.26,ESE,112,1.1,2.0,46,0.00,,---,0.00,VWS V14.01,2013-02-02 12:37:00,
2013-02-02 07:38:00,2.8,-13.2,29.26,ESE,112,1.1,1.1,46,0.00,,---,0.00,VWS V14.01,2013-02-02 12:38:00,
2013-02-02 07:39:00,2.8,-13.2,29.26,ESE,112,1.1,1.1,46,0.00,,---,0.00,VWS V14.01,2013-02-02 12:39:00,
2013-02-02 07:40:00,3.0,-13.1,29.26,ESE,112,1.3,1.3,46,0.00,,---,0.00,VWS V14.01,2013-02-02 12:40:00,
2013-02-02 07:41:00,3.2,-12.9,29.26,ESE,112,2.5,2.5,46,0.00,,---,0.00,VWS V14.01,2013-02-02 12:41:00,
2013-02-02 07:42:00,3.2,-12.9,29.26,ESE,112,2.5,2.5,46,0.00,,---,0.00,VWS V14.01,2013-02-02 12:42:00,
2013-02-02 07:43:00,3.2,-12.9,29.26,ESE,112,2.0,2.5,46,0.00,,---,0.00,VWS V14.01,2013-02-02 12:43:00,
2013-02-02 07:44:00,3.2,-12.9,29.26,ESE,112,0.9,2.0,46,0.00,,---,0.00,VWS V14.01,2013-02-02 12:44:00,
2013-02-02 07:45:00,3.2,-12.9,29.26,ESE,112,2.5,2.5,46,0.00,,---,0.00,VWS V14.01,2013-02-02 12:45:00,
2013-02-02 07:46:00,3.2,-12.9,29.26,ESE,112,2.5,2.5,46,0.00,,---,0.00,VWS V14.01,2013-02-02 12:46:00,
2013-02-02 07:47:00,3.2,-12.9,29.26,ESE,112,2.0,2.5,46,0.00,,---,0.00,VWS V14.01,2013-02-02 12:47:00,
2013-02-02 07:48:00,3.4,-12.7,29.26,ESE,112,2.0,2.0,46,0.00,,---,0.00,VWS V14.01,2013-02-02 12:48:00,
2013-02-02 07:49:00,3.4,-12.7,29.26,ESE,112,0.0,2.0,46,0.00,,---,0.00,VWS V14.01,2013-02-02 12:49:00,
2013-02-02 07:50:00,3.6,-12.6,29.26,ESE,112,0.0,0.0,46,0.00,,---,0.00,VWS V14.01,2013-02-02 12:50:00,
2013-02-02 07:51:00,3.6,-12.6,29.26,ESE,112,0.0,0.0,46,0.00,,---,0.00,VWS V14.01,2013-02-02 12:51:00,
2013-02-02 07:52:00,3.7,-12.4,29.23,ESE,112,0.0,0.0,46,0.00,,---,0.00,VWS V14.01,2013-02-02 12:52:00,
2013-02-02 07:53:00,3.7,-12.4,29.23,ESE,112,0.0,0.0,46,0.00,,---,0.00,VWS V14.01,2013-02-02 12:53:00,
2013-02-02 07:54:00,3.9,-12.2,29.23,ESE,112,1.3,1.3,46,0.00,,---,0.00,VWS V14.01,2013-02-02 12:54:00,
2013-02-02 07:55:00,4.1,-12.1,29.23,ESE,112,1.3,1.3,46,0.00,,---,0.00,VWS V14.01,2013-02-02 12:55:00,
2013-02-02 07:56:00,4.1,-12.1,29.23,ESE,112,0.0,1.3,46,0.00,,---,0.00,VWS V14.01,2013-02-02 12:56:00,
2013-02-02 07:57:00,4.1,-12.1,29.23,ESE,112,0.0,0.0,46,0.00,,---,0.00,VWS V14.01,2013-02-02 12:57:00,
2013-02-02 07:58:00,4.3,-11.9,29.23,ESE,112,0.0,0.0,46,0.00,,---,0.00,VWS V14.01,2013-02-02 12:58:00,
2013-02-02 07:59:00,4.3,-11.9,29.23,ESE,112,0.0,0.0,46,0.00,,---,0.00,VWS V14.01,2013-02-02 12:59:00,
2013-02-02 08:00:00,4.3,-11.9,29.23,ESE,112,0.0,0.0,46,0.00,,---,0.00,VWS V14.01,2013-02-02 13:00:00,
2013-02-02 08:01:00,4.3,-11.9,29.23,ESE,112,0.0,0.0,46,0.00,,---,0.00,VWS V14.01,2013-02-02 13:01:00,
2013-02-02 08:02:00,4.3,-11.9,29.23,ESE,112,0.0,0.0,46,0.00,,---,0.00,VWS V14.01,2013-02-02 13:02:00,
2013-02-02 08:03:00,4.3,-11.9,29.23,ESE,112,0.0,0.0,46,0.00,,---,0.00,VWS V14.01,2013-02-02 13:03:00,
2013-02-02 08:04:00,4.3,-11.9,29.23,ESE,112,0.0,0.0,46,0.00,,---,0.00,VWS V14.01,2013-02-02 13:04:00,
2013-02-02 08:05:00,4.3,-11.9,29.23,ESE,112,0.0,0.0,46,0.00,,---,0.00,VWS V14.01,2013-02-02 13:05:00,
2013-02-02 08:06:00,4.3,-11.9,29.23,ESE,112,0.0,0.0,46,0.00,,---,0.00,VWS V14.01,2013-02-02 13:06:00,
2013-02-02 08:07:00,4.3,-11.9,29.23,ESE,112,0.0,0.0,46,0.00,,---,0.00,VWS V14.01,2013-02-02 13:07:00,
2013-02-02 08:08:00,4.3,-11.9,29.23,ESE,112,0.0,0.0,46,0.00,,---,0.00,VWS V14.01,2013-02-02 13:08:00,
2013-02-02 08:09:00,4.3,-11.9,29.23,ESE,112,0.0,0.0,46,0.00,,---,0.00,VWS V14.01,2013-02-02 13:09:00,
2013-02-02 08:10:00,4.6,-11.6,29.23,ESE,112,0.0,0.0,46,0.00,,---,0.00,VWS V14.01,2013-02-02 13:10:00,
2013-02-02 08:11:00,4.6,-11.6,29.23,ESE,112,0.0,0.0,46,0.00,,---,0.00,VWS V14.01,2013-02-02 13:11:00,
2013-02-02 08:12:00,4.6,-11.6,29.23,ESE,112,0.0,0.0,46,0.00,,---,0.00,VWS V14.01,2013-02-02 13:12:00,
2013-02-02 08:13:00,5.0,-11.2,29.23,ESE,112,0.0,0.0,46,0.00,,---,0.00,VWS V14.01,2013-02-02 13:13:00,
2013-02-02 08:14:00,5.4,-10.9,29.23,ESE,112,0.0,0.0,46,0.00,,---,0.00,VWS V14.01,2013-02-02 13:14:00,
2013-02-02 08:15:00,5.4,-10.9,29.23,ESE,112,0.0,0.0,46,0.00,,---,0.00,VWS V14.01,2013-02-02 13:15:00,
2013-02-02 08:16:00,5.5,-10.8,29.23,ESE,112,0.0,0.0,46,0.00,,---,0.00,VWS V14.01,2013-02-02 13:16:00,
2013-02-02 08:17:00,5.5,-10.8,29.23,ESE,112,0.0,0.0,46,0.00,,---,0.00,VWS V14.01,2013-02-02 13:17:00,
2013-02-02 08:18:00,5.9,-10.4,29.23,ESE,112,0.0,0.0,46,0.00,,---,0.00,VWS V14.01,2013-02-02 13:18:00,
2013-02-02 08:19:00,5.9,-10.4,29.23,ESE,112,0.0,0.0,46,0.00,,---,0.00,VWS V14.01,2013-02-02 13:19:00,
2013-02-02 08:20:00,6.3,-10.1,29.23,ESE,112,0.0,0.0,46,0.00,,---,0.00,VWS V14.01,2013-02-02 13:20:00,
2013-02-02 08:21:00,6.3,-10.1,29.23,ESE,112,1.6,1.6,46,0.00,,---,0.00,VWS V14.01,2013-02-02 13:21:00,
2013-02-02 08:22:00,6.3,-10.1,29.23,ESE,112,0.0,1.6,46,0.00,,---,0.00,VWS V14.01,2013-02-02 13:22:00,
2013-02-02 08:23:00,6.3,-10.1,29.26,ESE,112,0.0,0.0,46,0.00,,---,0.00,VWS V14.01,2013-02-02 13:23:00,
2013-02-02 08:24:00,6.4,-9.9,29.26,SE,135,2.0,2.7,46,0.00,,---,0.00,VWS V14.01,2013-02-02 13:24:00,
2013-02-02 08:25:00,6.4,-9.9,29.26,SE,135,2.0,2.0,46,0.00,,---,0.00,VWS V14.01,2013-02-02 13:25:00,
2013-02-02 08:26:00,6.8,-9.6,29.26,SE,135,1.6,2.0,46,0.00,,---,0.00,VWS V14.01,2013-02-02 13:26:00,
2013-02-02 08:27:00,7.0,-9.4,29.26,SE,135,2.2,2.2,46,0.00,,---,0.00,VWS V14.01,2013-02-02 13:27:00,
2013-02-02 08:28:00,7.0,-9.4,29.26,SSE,158,2.2,2.2,46,0.00,,---,0.00,VWS V14.01,2013-02-02 13:28:00,
2013-02-02 08:29:00,7.2,-9.3,29.26,SSE,158,2.2,2.2,46,0.00,,---,0.00,VWS V14.01,2013-02-02 13:29:00,
2013-02-02 08:30:00,7.2,-9.3,29.26,South,180,2.5,2.5,46,0.00,,---,0.00,VWS V14.01,2013-02-02 13:30:00,
2013-02-02 08:31:00,7.2,-9.3,29.26,South,180,0.9,2.5,46,0.00,,---,0.00,VWS V14.01,2013-02-02 13:31:00,
2013-02-02 08:32:00,7.2,-9.3,29.26,South,180,1.6,1.6,46,0.00,,---,0.00,VWS V14.01,2013-02-02 13:32:00,
2013-02-02 08:33:00,7.2,-9.3,29.26,South,180,2.5,2.5,46,0.00,,---,0.00,VWS V14.01,2013-02-02 13:33:00,
2013-02-02 08:34:00,7.2,-9.3,29.26,South,180,1.6,2.5,46,0.00,,---,0.00,VWS V14.01,2013-02-02 13:34:00,
2013-02-02 08:35:00,7.2,-9.3,29.26,South,180,1.3,1.6,46,0.00,,---,0.00,VWS V14.01,2013-02-02 13:35:00,
2013-02-02 08:36:00,7.0,-9.4,29.26,South,180,0.0,1.3,46,0.00,,---,0.00,VWS V14.01,2013-02-02 13:36:00,
2013-02-02 08:37:00,7.0,-9.4,29.26,South,180,0.0,0.0,46,0.00,,---,0.00,VWS V14.01,2013-02-02 13:37:00,
2013-02-02 08:38:00,7.0,-9.4,29.26,South,180,0.0,0.0,46,0.00,,---,0.00,VWS V14.01,2013-02-02 13:38:00,
2013-02-02 08:39:00,7.0,-9.4,29.26,South,180,0.0,0.0,46,0.00,,---,0.00,VWS V14.01,2013-02-02 13:39:00,
2013-02-02 08:40:00,7.5,-8.9,29.26,South,180,0.9,0.9,46,0.00,,---,0.00,VWS V14.01,2013-02-02 13:40:00,
2013-02-02 08:41:00,7.7,-8.8,29.26,South,180,1.6,1.6,46,0.00,,---,0.00,VWS V14.01,2013-02-02 13:41:00,
2013-02-02 08:42:00,7.7,-8.8,29.26,South,180,0.0,1.6,46,0.00,,---,0.00,VWS V14.01,2013-02-02 13:42:00,
2013-02-02 08:43:00,7.9,-8.6,29.26,South,180,0.0,0.0,46,0.00,,---,0.00,VWS V14.01,2013-02-02 13:43:00,
2013-02-02 08:44:00,7.9,-8.6,29.26,South,180,0.0,0.0,46,0.00,,---,0.00,VWS V14.01,2013-02-02 13:44:00,
2013-02-02 08:45:00,8.2,-8.3,29.26,South,180,1.1,1.1,46,0.00,,---,0.00,VWS V14.01,2013-02-02 13:45:00,
2013-02-02 08:46:00,8.2,-8.3,29.26,South,180,0.0,1.1,46,0.00,,---,0.00,VWS V14.01,2013-02-02 13:46:00,
2013-02-02 08:47:00,8.4,-8.1,29.26,South,180,0.0,0.0,46,0.00,,---,0.00,VWS V14.01,2013-02-02 13:47:00,
2013-02-02 08:48:00,8.1,-8.4,29.26,South,180,0.0,0.0,46,0.00,,---,0.00,VWS V14.01,2013-02-02 13:48:00,
2013-02-02 08:49:00,8.1,-8.4,29.26,South,180,0.9,1.6,46,0.00,,---,0.00,VWS V14.01,2013-02-02 13:49:00,
2013-02-02 08:50:00,8.4,-8.1,29.26,South,180,0.9,0.9,46,0.00,,---,0.00,VWS V14.01,2013-02-02 13:50:00,
2013-02-02 08:51:00,8.4,-8.1,29.26,South,180,0.0,0.9,46,0.00,,---,0.00,VWS V14.01,2013-02-02 13:51:00,
2013-02-02 08:52:00,8.8,-7.8,29.23,South,180,0.0,0.0,46,0.00,,---,0.00,VWS V14.01,2013-02-02 13:52:00,
2013-02-02 08:53:00,9.1,-7.4,29.23,South,180,1.3,1.3,46,0.00,,---,0.00,VWS V14.01,2013-02-02 13:53:00,
2013-02-02 08:54:00,9.1,-7.4,29.23,South,180,1.1,1.3,46,0.00,,---,0.00,VWS V14.01,2013-02-02 13:54:00,
2013-02-02 08:55:00,9.3,-7.3,29.23,South,180,2.2,2.2,46,0.00,,---,0.00,VWS V14.01,2013-02-02 13:55:00,
2013-02-02 08:56:00,9.3,-7.3,29.23,South,180,0.9,2.2,46,0.00,,---,0.00,VWS V14.01,2013-02-02 13:56:00,
2013-02-02 08:57:00,9.5,-7.1,29.23,South,180,0.9,0.9,46,0.00,,---,0.00,VWS V14.01,2013-02-02 13:57:00,
2013-02-02 08:58:00,9.5,-7.1,29.23,South,180,0.0,0.9,46,0.00,,---,0.00,VWS V14.01,2013-02-02 13:58:00,
2013-02-02 08:59:00,9.9,-6.8,29.23,South,180,0.0,0.0,46,0.00,,---,0.00,VWS V14.01,2013-02-02 13:59:00,
2013-02-02 09:00:00,9.9,-6.8,29.23,South,180,0.0,0.0,46,0.00,,---,0.00,VWS V14.01,2013-02-02 14:00:00,
2013-02-02 09:01:00,10.2,-6.4,29.23,South,180,1.1,1.6,46,0.00,,---,0.00,VWS V14.01,2013-02-02 14:01:00,
2013-02-02 09:02:00,10.2,-6.4,29.23,South,180,1.1,1.1,46,0.00,,---,0.00,VWS V14.01,2013-02-02 14:02:00,
2013-02-02 09:03:00,10.8,-5.9,29.23,SSE,158,3.1,3.1,46,0.00,,---,0.00,VWS V14.01,2013-02-02 14:03:00,
2013-02-02 09:04:00,10.9,-5.8,29.23,SE,135,1.6,3.1,46,0.00,,---,0.00,VWS V14.01,2013-02-02 14:04:00,
2013-02-02 09:05:00,10.9,-5.8,29.23,SE,135,1.6,1.6,46,0.00,,---,0.00,VWS V14.01,2013-02-02 14:05:00,
2013-02-02 09:06:00,11.1,-5.6,29.23,SE,135,1.3,1.6,46,0.00,,---,0.00,VWS V14.01,2013-02-02 14:06:00,
2013-02-02 09:07:00,11.1,-5.6,29.23,SE,135,2.2,2.2,46,0.00,,---,0.00,VWS V14.01,2013-02-02 14:07:00,
2013-02-02 09:08:00,11.5,-5.3,29.23,SE,135,1.3,2.2,46,0.00,,---,0.00,VWS V14.01,2013-02-02 14:08:00,
2013-02-02 09:09:00,11.8,-4.9,29.23,SE,135,0.0,1.3,46,0.00,,---,0.00,VWS V14.01,2013-02-02 14:09:00,
2013-02-02 09:10:00,11.8,-4.9,29.23,SE,135,0.0,0.0,46,0.00,,---,0.00,VWS V14.01,2013-02-02 14:10:00,
2013-02-02 09:11:00,11.8,-4.9,29.23,SE,135,2.2,2.2,46,0.00,,---,0.00,VWS V14.01,2013-02-02 14:11:00,
2013-02-02 09:12:00,11.8,-4.9,29.23,SE,135,2.2,2.2,46,0.00,,---,0.00,VWS V14.01,2013-02-02 14:12:00,
2013-02-02 09:13:00,11.5,-5.3,29.23,SE,135,1.3,2.2,46,0.00,,---,0.00,VWS V14.01,2013-02-02 14:13:00,
2013-02-02 09:14:00,10.9,-5.8,29.23,SE,135,0.0,1.3,46,0.00,,---,0.00,VWS V14.01,2013-02-02 14:14:00,
2013-02-02 09:15:00,10.9,-5.8,29.23,SE,135,1.1,1.1,46,0.00,,---,0.00,VWS V14.01,2013-02-02 14:15:00,
2013-02-02 09:16:00,10.9,-5.8,29.23,SE,135,1.1,1.1,46,0.00,,---,0.00,VWS V14.01,2013-02-02 14:16:00,
2013-02-02 09:17:00,11.3,-5.4,29.23,SW,225,2.5,2.5,46,0.00,,---,0.00,VWS V14.01,2013-02-02 14:17:00,
2013-02-02 09:18:00,11.8,-4.9,29.23,SW,225,2.5,2.5,46,0.00,,---,0.00,VWS V14.01,2013-02-02 14:18:00,
2013-02-02 09:19:00,11.8,-4.9,29.23,SW,225,1.3,2.5,46,0.00,,---,0.00,VWS V14.01,2013-02-02 14:19:00,
2013-02-02 09:20:00,12.2,-4.6,29.23,WSW,248,2.0,2.0,46,0.00,,---,0.00,VWS V14.01,2013-02-02 14:20:00,
2013-02-02 09:21:00,12.2,-4.6,29.23,WSW,248,1.3,2.2,46,0.00,,---,0.00,VWS V14.01,2013-02-02 14:21:00,
2013-02-02 09:22:00,12.4,-4.4,29.23,WSW,248,0.0,1.3,46,0.00,,---,0.00,VWS V14.01,2013-02-02 14:22:00,
2013-02-02 09:23:00,12.4,-4.4,29.23,WSW,248,0.0,0.0,46,0.00,,---,0.00,VWS V14.01,2013-02-02 14:23:00,
2013-02-02 09:24:00,12.4,-4.4,29.23,WSW,248,0.0,0.0,46,0.00,,---,0.00,VWS V14.01,2013-02-02 14:24:00,
2013-02-02 09:25:00,12.4,-4.4,29.23,WSW,248,0.0,0.0,46,0.00,,---,0.00,VWS V14.01,2013-02-02 14:25:00,
2013-02-02 09:26:00,12.6,-4.3,29.23,SE,135,3.6,3.6,46,0.00,,---,0.00,VWS V14.01,2013-02-02 14:26:00,
2013-02-02 09:27:00,12.6,-4.3,29.23,SE,135,1.1,3.6,46,0.00,,---,0.00,VWS V14.01,2013-02-02 14:27:00,
2013-02-02 09:28:00,12.6,-4.3,29.23,SE,135,2.5,2.5,46,0.00,,---,0.00,VWS V14.01,2013-02-02 14:28:00,
2013-02-02 09:29:00,12.6,-4.3,29.23,ESE,112,1.3,2.5,46,0.00,,---,0.00,VWS V14.01,2013-02-02 14:29:00,
2013-02-02 09:30:00,12.6,-4.3,29.23,ESE,112,0.0,1.3,46,0.00,,---,0.00,VWS V14.01,2013-02-02 14:30:00,
2013-02-02 09:31:00,12.4,-4.4,29.23,ESE,112,0.0,0.0,46,0.00,,---,0.00,VWS V14.01,2013-02-02 14:31:00,
2013-02-02 09:32:00,12.4,-4.4,29.23,ESE,112,0.9,0.9,46,0.00,,---,0.00,VWS V14.01,2013-02-02 14:32:00,
2013-02-02 09:33:00,12.7,-4.1,29.23,ESE,112,0.0,0.9,46,0.00,,---,0.00,VWS V14.01,2013-02-02 14:33:00,
2013-02-02 09:34:00,12.7,-4.1,29.23,ESE,112,1.6,1.6,46,0.00,,---,0.00,VWS V14.01,2013-02-02 14:34:00,
2013-02-02 09:35:00,12.7,-4.1,29.23,ESE,112,2.2,2.2,46,0.00,,---,0.00,VWS V14.01,2013-02-02 14:35:00,
2013-02-02 09:36:00,13.1,-3.8,29.23,ESE,112,2.0,2.7,46,0.00,,---,0.00,VWS V14.01,2013-02-02 14:36:00,
2013-02-02 09:37:00,13.1,-3.8,29.23,ESE,112,2.0,2.0,46,0.00,,---,0.00,VWS V14.01,2013-02-02 14:37:00,
2013-02-02 09:38:00,13.5,-3.5,29.23,ESE,112,2.0,2.0,46,0.00,,---,0.00,VWS V14.01,2013-02-02 14:38:00,
2013-02-02 09:39:00,13.6,-3.3,29.23,ESE,112,2.0,2.0,46,0.00,,---,0.00,VWS V14.01,2013-02-02 14:39:00,
2013-02-02 09:40:00,13.6,-3.3,29.23,ESE,112,2.0,2.0,46,0.00,,---,0.00,VWS V14.01,2013-02-02 14:40:00,
2013-02-02 09:41:00,14.0,-1.6,29.23,WSW,248,3.1,3.1,49,0.00,,---,0.00,VWS V14.01,2013-02-02 14:41:00,
2013-02-02 09:42:00,14.0,-1.6,29.23,WSW,248,2.5,3.1,49,0.00,,---,0.00,VWS V14.01,2013-02-02 14:42:00,
2013-02-02 09:43:00,14.2,-1.5,29.23,WSW,248,1.6,2.5,49,0.00,,---,0.00,VWS V14.01,2013-02-02 14:43:00,
2013-02-02 09:44:00,14.2,-1.5,29.23,West,270,2.5,2.5,49,0.00,,---,0.00,VWS V14.01,2013-02-02 14:44:00,
2013-02-02 09:45:00,14.0,-1.6,29.23,West,270,2.0,2.5,49,0.00,,---,0.00,VWS V14.01,2013-02-02 14:45:00,
2013-02-02 09:46:00,14.0,-1.6,29.23,West,270,1.3,2.0,49,0.00,,---,0.00,VWS V14.01,2013-02-02 14:46:00,
2013-02-02 09:47:00,14.4,-1.7,29.23,West,270,0.0,1.3,48,0.00,,---,0.00,VWS V14.01,2013-02-02 14:47:00,
2013-02-02 09:48:00,14.4,-1.7,29.23,WNW,292,2.0,2.0,48,0.00,,---,0.00,VWS V14.01,2013-02-02 14:48:00,
2013-02-02 09:49:00,14.5,-1.6,29.23,NNE,22,2.2,2.2,48,0.00,,---,0.00,VWS V14.01,2013-02-02 14:49:00,
2013-02-02 09:50:00,14.5,-2.0,29.23,WNW,292,1.6,2.2,47,0.00,,---,0.00,VWS V14.01,2013-02-02 14:50:00,
2013-02-02 09:51:00,15.3,-0.9,29.23,WSW,248,2.2,2.2,48,0.00,,---,0.00,VWS V14.01,2013-02-02 14:51:00,
2013-02-02 09:52:00,15.3,-0.9,29.23,WSW,248,1.6,2.2,48,0.00,,---,0.00,VWS V14.01,2013-02-02 14:52:00,
2013-02-02 09:53:00,15.3,-0.9,29.20,WSW,248,0.0,1.6,48,0.00,,---,0.00,VWS V14.01,2013-02-02 14:53:00,
2013-02-02 09:54:00,15.1,-1.1,29.20,WSW,248,2.0,2.0,48,0.00,,---,0.00,VWS V14.01,2013-02-02 14:54:00,
2013-02-02 09:55:00,15.1,-1.1,29.20,WSW,248,2.0,2.0,48,0.00,,---,0.00,VWS V14.01,2013-02-02 14:55:00,
2013-02-02 09:56:00,15.6,-0.6,29.20,WSW,248,0.0,2.0,48,0.00,,---,0.00,VWS V14.01,2013-02-02 14:56:00,
2013-02-02 09:57:00,16.0,-0.2,29.20,SE,135,1.6,1.6,48,0.00,,---,0.00,VWS V14.01,2013-02-02 14:57:00,
2013-02-02 09:58:00,16.0,-0.2,29.20,SSE,158,2.9,2.9,48,0.00,,---,0.00,VWS V14.01,2013-02-02 14:58:00,
2013-02-02 09:59:00,16.3,-0.3,29.20,SSE,158,2.7,2.9,47,0.00,,---,0.00,VWS V14.01,2013-02-02 14:59:00,
2013-02-02 10:00:00,16.3,-0.3,29.20,SSE,158,2.7,2.7,47,0.00,,---,0.00,VWS V14.01,2013-02-02 15:00:00,
2013-02-02 10:01:00,17.4,0.6,29.20,WSW,248,3.1,4.3,47,0.00,,---,0.00,VWS V14.01,2013-02-02 15:01:00,
2013-02-02 10:02:00,17.4,0.6,29.20,WSW,248,3.1,3.1,47,0.00,,---,0.00,VWS V14.01,2013-02-02 15:02:00,
2013-02-02 10:03:00,17.4,0.6,29.20,West,270,3.1,3.1,47,0.00,,---,0.00,VWS V14.01,2013-02-02 15:03:00,
2013-02-02 10:04:00,17.8,1.0,29.20,WSW,248,2.9,3.1,47,0.00,,---,0.00,VWS V14.01,2013-02-02 15:04:00,
2013-02-02 10:05:00,17.8,1.0,29.20,WNW,292,1.6,2.9,47,0.00,,---,0.00,VWS V14.01,2013-02-02 15:05:00,
2013-02-02 10:06:00,17.4,0.2,29.20,WSW,248,2.5,3.1,46,0.00,,---,0.00,VWS V14.01,2013-02-02 15:06:00,
2013-02-02 10:07:00,17.4,0.2,29.20,WSW,248,0.0,2.5,46,0.00,,---,0.00,VWS V14.01,2013-02-02 15:07:00,
2013-02-02 10:08:00,17.4,0.2,29.20,West,270,5.4,5.4,46,0.00,,---,0.00,VWS V14.01,2013-02-02 15:08:00,
2013-02-02 10:09:00,17.4,0.2,29.20,WSW,248,5.4,5.4,46,0.00,,---,0.00,VWS V14.01,2013-02-02 15:09:00,
2013-02-02 10:10:00,18.0,0.7,29.20,WSW,248,4.3,5.4,46,0.00,,---,0.00,VWS V14.01,2013-02-02 15:10:00,
2013-02-02 10:11:00,18.0,0.7,29.20,WSW,248,3.8,4.3,46,0.00,,---,0.00,VWS V14.01,2013-02-02 15:11:00,
2013-02-02 10:12:00,18.3,1.0,29.20,WSW,248,3.4,3.8,46,0.00,,---,0.00,VWS V14.01,2013-02-02 15:12:00,
2013-02-02 10:13:00,18.7,1.4,29.20,WSW,248,3.1,3.4,46,0.00,,---,0.00,VWS V14.01,2013-02-02 15:13:00,
2013-02-02 10:14:00,18.7,1.4,29.20,WSW,248,3.6,3.6,46,0.00,,---,0.00,VWS V14.01,2013-02-02 15:14:00,
2013-02-02 10:15:00,19.4,2.0,29.20,WSW,248,4.0,4.0,46,0.00,,---,0.00,VWS V14.01,2013-02-02 15:15:00,
2013-02-02 10:16:00,19.6,1.7,29.20,WSW,248,2.9,2.9,45,0.00,,---,0.00,VWS V14.01,2013-02-02 15:16:00,
2013-02-02 10:17:00,19.6,1.7,29.20,SSW,202,2.0,2.9,45,0.00,,---,0.00,VWS V14.01,2013-02-02 15:17:00,
2013-02-02 10:18:00,19.9,2.5,29.20,SSW,202,2.5,2.5,46,0.00,,---,0.00,VWS V14.01,2013-02-02 15:18:00,
2013-02-02 10:19:00,19.9,2.5,29.20,SW,225,2.5,2.5,46,0.00,,---,0.00,VWS V14.01,2013-02-02 15:19:00,
2013-02-02 10:20:00,20.3,2.8,29.20,SW,225,2.5,2.5,46,0.00,,---,0.00,VWS V14.01,2013-02-02 15:20:00,
2013-02-02 10:21:00,20.3,2.8,29.20,West,270,2.5,2.5,46,0.00,,---,0.00,VWS V14.01,2013-02-02 15:21:00,
2013-02-02 10:22:00,20.8,3.3,29.20,West,270,2.5,2.5,46,0.00,,---,0.00,VWS V14.01,2013-02-02 15:22:00,
2013-02-02 10:23:00,20.8,3.3,29.20,West,270,2.5,2.5,46,0.00,,---,0.00,VWS V14.01,2013-02-02 15:23:00,
2013-02-02 10:24:00,20.5,2.5,29.20,WNW,292,4.0,4.0,45,0.00,,---,0.00,VWS V14.01,2013-02-02 15:24:00,
2013-02-02 10:25:00,20.5,2.5,29.20,WNW,292,4.0,4.0,45,0.00,,---,0.00,VWS V14.01,2013-02-02 15:25:00,
2013-02-02 10:26:00,20.1,1.7,29.20,WSW,248,2.7,4.7,44,0.00,,---,0.00,VWS V14.01,2013-02-02 15:26:00,
2013-02-02 10:27:00,19.9,1.5,29.20,WSW,248,2.7,2.7,44,0.00,,---,0.00,VWS V14.01,2013-02-02 15:27:00,
2013-02-02 10:28:00,19.9,1.5,29.20,WSW,248,3.4,3.4,44,0.00,,---,0.00,VWS V14.01,2013-02-02 15:28:00,
2013-02-02 10:29:00,20.5,2.0,29.20,SW,225,0.0,0.0,44,0.00,,---,0.00,VWS V14.01,2013-02-02 15:29:00,
2013-02-02 10:30:00,20.5,2.0,29.20,SW,225,0.0,0.0,44,0.00,,---,0.00,VWS V14.01,2013-02-02 15:30:00,
2013-02-02 10:31:00,20.8,2.4,29.20,West,270,3.8,3.8,44,0.00,,---,0.00,VWS V14.01,2013-02-02 15:31:00,
2013-02-02 10:32:00,19.9,1.1,29.20,WNW,292,4.9,4.9,43,0.00,,---,0.00,VWS V14.01,2013-02-02 15:32:00,
2013-02-02 10:33:00,19.9,1.1,29.20,WNW,292,2.9,4.9,43,0.00,,---,0.00,VWS V14.01,2013-02-02 15:33:00,
2013-02-02 10:34:00,19.9,1.1,29.20,WNW,292,2.5,2.9,43,0.00,,---,0.00,VWS V14.01,2013-02-02 15:34:00,
2013-02-02 10:35:00,19.9,1.1,29.20,WNW,292,3.8,3.8,43,0.00,,---,0.00,VWS V14.01,2013-02-02 15:35:00,
2013-02-02 10:36:00,20.7,2.2,29.20,WNW,292,3.8,3.8,44,0.00,,---,0.00,VWS V14.01,2013-02-02 15:36:00,
2013-02-02 10:37:00,20.7,2.2,29.20,WNW,292,4.9,4.9,44,0.00,,---,0.00,VWS V14.01,2013-02-02 15:37:00,
2013-02-02 10:38:00,20.8,1.9,29.20,WSW,248,3.4,4.9,43,0.00,,---,0.00,VWS V14.01,2013-02-02 15:38:00,
2013-02-02 10:39:00,21.0,2.0,29.20,WSW,248,6.5,6.5,43,0.00,,---,0.00,VWS V14.01,2013-02-02 15:39:00,
2013-02-02 10:40:00,21.0,2.0,29.20,WSW,248,2.2,6.5,43,0.00,,---,0.00,VWS V14.01,2013-02-02 15:40:00,
2013-02-02 10:41:00,21.0,2.0,29.20,WSW,248,2.2,2.2,43,0.00,,---,0.00,VWS V14.01,2013-02-02 15:41:00,
2013-02-02 10:42:00,21.0,2.0,29.20,WNW,292,3.8,4.0,43,0.00,,---,0.00,VWS V14.01,2013-02-02 15:42:00,
2013-02-02 10:43:00,20.7,1.7,29.20,WNW,292,4.7,4.7,43,0.00,,---,0.00,VWS V14.01,2013-02-02 15:43:00,
2013-02-02 10:44:00,20.7,1.7,29.20,WSW,248,5.6,5.6,43,0.00,,---,0.00,VWS V14.01,2013-02-02 15:44:00,
2013-02-02 10:45:00,20.7,1.7,29.20,WSW,248,3.4,5.6,43,0.00,,---,0.00,VWS V14.01,2013-02-02 15:45:00,
2013-02-02 10:46:00,20.7,1.7,29.20,WNW,292,4.3,4.3,43,0.00,,---,0.00,VWS V14.01,2013-02-02 15:46:00,
2013-02-02 10:47:00,20.8,1.9,29.20,WNW,292,6.0,6.0,43,0.00,,---,0.00,VWS V14.01,2013-02-02 15:47:00,
2013-02-02 10:48:00,20.8,1.9,29.20,WNW,292,3.4,6.0,43,0.00,,---,0.00,VWS V14.01,2013-02-02 15:48:00,
2013-02-02 10:49:00,20.8,1.9,29.20,WNW,292,6.3,6.3,43,0.00,,---,0.00,VWS V14.01,2013-02-02 15:49:00,
2013-02-02 10:50:00,21.0,1.5,29.20,WNW,292,6.3,6.3,42,0.00,,---,0.00,VWS V14.01,2013-02-02 15:50:00,
2013-02-02 10:51:00,21.0,1.5,29.20,WNW,292,3.4,6.3,42,0.00,,---,0.00,VWS V14.01,2013-02-02 15:51:00,
2013-02-02 10:52:00,21.2,2.2,29.20,WSW,248,3.1,3.4,43,0.00,,---,0.00,VWS V14.01,2013-02-02 15:52:00,
2013-02-02 10:53:00,21.2,2.2,29.20,WSW,248,4.0,4.0,43,0.00,,---,0.00,VWS V14.01,2013-02-02 15:53:00,
2013-02-02 10:54:00,21.9,2.9,29.20,WSW,248,4.0,4.0,43,0.00,,---,0.00,VWS V14.01,2013-02-02 15:54:00,
2013-02-02 10:55:00,21.2,2.2,29.20,WSW,248,4.0,4.0,43,0.00,,---,0.00,VWS V14.01,2013-02-02 15:55:00,
2013-02-02 10:56:00,21.2,2.2,29.20,WSW,248,3.1,6.0,43,0.00,,---,0.00,VWS V14.01,2013-02-02 15:56:00,
2013-02-02 10:57:00,21.2,2.2,29.20,WSW,248,3.1,3.1,43,0.00,,---,0.00,VWS V14.01,2013-02-02 15:57:00,
2013-02-02 10:58:00,21.2,2.2,29.20,WSW,248,3.6,3.6,43,0.00,,---,0.00,VWS V14.01,2013-02-02 15:58:00,
2013-02-02 10:59:00,21.9,2.9,29.20,WSW,248,3.4,3.4,43,0.00,,---,0.00,VWS V14.01,2013-02-02 15:59:00,
2013-02-02 11:00:00,21.9,2.9,29.20,WSW,248,3.1,3.4,43,0.00,,---,0.00,VWS V14.01,2013-02-02 16:00:00,
2013-02-02 11:01:00,21.9,2.9,29.20,West,270,4.0,4.0,43,0.00,,---,0.00,VWS V14.01,2013-02-02 16:01:00,
2013-02-02 11:02:00,21.9,2.9,29.20,WNW,292,3.4,4.0,43,0.00,,---,0.00,VWS V14.01,2013-02-02 16:02:00,
2013-02-02 11:03:00,22.3,3.2,29.20,WNW,292,3.8,4.0,43,0.00,,---,0.00,VWS V14.01,2013-02-02 16:03:00,
2013-02-02 11:04:00,22.5,3.4,29.20,WSW,248,1.6,3.8,43,0.00,,---,0.00,VWS V14.01,2013-02-02 16:04:00,
2013-02-02 11:05:00,22.5,3.4,29.20,WSW,248,1.1,3.8,43,0.00,,---,0.00,VWS V14.01,2013-02-02 16:05:00,
2013-02-02 11:06:00,22.8,3.7,29.20,SSW,202,2.2,2.2,43,0.00,,---,0.00,VWS V14.01,2013-02-02 16:06:00,
2013-02-02 11:07:00,22.8,3.7,29.20,SSW,202,0.9,2.2,43,0.00,,---,0.00,VWS V14.01,2013-02-02 16:07:00,
2013-02-02 11:08:00,23.0,3.8,29.17,SSW,202,2.0,2.0,43,0.00,,---,0.00,VWS V14.01,2013-02-02 16:08:00,
2013-02-02 11:09:00,23.2,4.0,29.17,West,270,5.4,5.4,43,0.00,,---,0.00,VWS V14.01,2013-02-02 16:09:00,
2013-02-02 11:10:00,23.2,4.0,29.17,West,270,5.4,5.4,43,0.00,,---,0.00,VWS V14.01,2013-02-02 16:10:00,
2013-02-02 11:11:00,23.2,4.0,29.17,WSW,248,3.6,5.4,43,0.00,,---,0.00,VWS V14.01,2013-02-02 16:11:00,
2013-02-02 11:12:00,23.2,4.0,29.17,WSW,248,2.9,3.6,43,0.00,,---,0.00,VWS V14.01,2013-02-02 16:12:00,
2013-02-02 11:13:00,23.2,4.0,29.17,WSW,248,2.7,2.9,43,0.00,,---,0.00,VWS V14.01,2013-02-02 16:13:00,
2013-02-02 11:14:00,24.1,4.8,29.17,WSW,248,4.0,5.4,43,0.00,,---,0.00,VWS V14.01,2013-02-02 16:14:00,
2013-02-02 11:15:00,24.1,4.8,29.17,WSW,248,4.0,5.4,43,0.00,,---,0.00,VWS V14.01,2013-02-02 16:15:00,
2013-02-02 11:16:00,24.8,5.5,29.17,WSW,248,4.0,4.0,43,0.00,,---,0.00,VWS V14.01,2013-02-02 16:16:00,
2013-02-02 11:17:00,24.8,5.5,29.17,SW,225,2.2,4.0,43,0.00,,---,0.00,VWS V14.01,2013-02-02 16:17:00,
2013-02-02 11:18:00,24.8,5.5,29.17,SW,225,2.2,2.2,43,0.00,,---,0.00,VWS V14.01,2013-02-02 16:18:00,
2013-02-02 11:19:00,25.3,5.5,29.17,WNW,292,3.8,3.8,42,0.00,,---,0.00,VWS V14.01,2013-02-02 16:19:00,
2013-02-02 11:20:00,25.5,5.6,29.17,WNW,292,3.8,3.8,42,0.00,,---,0.00,VWS V14.01,2013-02-02 16:20:00,
2013-02-02 11:21:00,25.5,5.6,29.17,West,270,3.8,3.8,42,0.00,,---,0.00,VWS V14.01,2013-02-02 16:21:00,
2013-02-02 11:22:00,25.9,6.0,29.17,West,270,4.3,4.3,42,0.00,,---,0.00,VWS V14.01,2013-02-02 16:22:00,
2013-02-02 11:23:00,25.9,6.0,29.17,SSW,202,6.5,6.5,42,0.00,,---,0.00,VWS V14.01,2013-02-02 16:23:00,
2013-02-02 11:24:00,26.2,6.3,29.17,NW,315,5.4,5.4,42,0.00,,---,0.00,VWS V14.01,2013-02-02 16:24:00,
2013-02-02 11:25:00,25.7,4.2,29.17,WSW,248,7.4,7.4,39,0.00,,---,0.00,VWS V14.01,2013-02-02 16:25:00,
2013-02-02 11:26:00,25.7,4.2,29.17,WSW,248,6.3,7.4,39,0.00,,---,0.00,VWS V14.01,2013-02-02 16:26:00,
2013-02-02 11:27:00,26.2,4.7,29.17,WNW,292,4.7,6.3,39,0.00,,---,0.00,VWS V14.01,2013-02-02 16:27:00,
2013-02-02 11:28:00,26.2,4.7,29.17,WNW,292,2.5,4.7,39,0.00,,---,0.00,VWS V14.01,2013-02-02 16:28:00,
2013-02-02 11:29:00,26.6,5.6,29.17,West,270,5.8,5.8,40,0.00,,---,0.00,VWS V14.01,2013-02-02 16:29:00,
2013-02-02 11:30:00,27.1,6.0,29.17,West,270,5.8,5.8,40,0.00,,---,0.00,VWS V14.01,2013-02-02 16:30:00,
2013-02-02 11:31:00,27.1,6.0,29.17,SW,225,2.0,5.8,40,0.00,,---,0.00,VWS V14.01,2013-02-02 16:31:00,
2013-02-02 11:32:00,27.0,6.4,29.17,SW,225,2.0,2.0,41,0.00,,---,0.00,VWS V14.01,2013-02-02 16:32:00,
2013-02-02 11:33:00,27.0,6.4,29.17,WNW,292,2.0,2.2,41,0.00,,---,0.00,VWS V14.01,2013-02-02 16:33:00,
2013-02-02 11:34:00,25.9,4.9,29.17,South,180,2.0,2.0,40,0.00,,---,0.00,VWS V14.01,2013-02-02 16:34:00,
2013-02-02 11:35:00,25.9,4.9,29.17,SW,225,2.0,2.0,40,0.00,,---,0.00,VWS V14.01,2013-02-02 16:35:00,
2013-02-02 11:37:00,25.5,5.1,29.17,West,270,3.4,3.4,41,0.00,,---,0.00,VWS V14.01,2013-02-02 16:37:00,
2013-02-02 11:38:00,25.3,4.9,29.15,West,270,3.8,3.8,41,0.00,,---,0.00,VWS V14.01,2013-02-02 16:38:00,
2013-02-02 11:39:00,24.6,3.2,29.14,WNW,292,4.9,6.3,39,0.00,,---,0.00,VWS V14.01,2013-02-02 16:39:00,
2013-02-02 11:40:00,24.6,3.2,29.15,WNW,292,5.8,6.3,39,0.00,,---,0.00,VWS V14.01,2013-02-02 16:40:00,
2013-02-02 11:41:00,24.8,3.9,29.15,WNW,292,5.8,5.8,40,0.00,,---,0.00,VWS V14.01,2013-02-02 16:41:00,
2013-02-02 11:42:00,24.8,3.9,29.15,WNW,292,2.9,5.8,40,0.00,,---,0.00,VWS V14.01,2013-02-02 16:42:00,
2013-02-02 11:43:00,25.3,4.4,29.15,WNW,292,4.7,4.7,40,0.00,,---,0.00,VWS V14.01,2013-02-02 16:43:00,
2013-02-02 11:44:00,25.7,5.3,29.14,WSW,248,2.9,2.9,41,0.00,,---,0.00,VWS V14.01,2013-02-02 16:44:00,
2013-02-02 11:45:00,25.7,5.3,29.15,WNW,292,3.4,3.4,41,0.00,,---,0.00,VWS V14.01,2013-02-02 16:45:00,
2013-02-02 11:46:00,26.1,5.6,29.15,WSW,248,5.6,5.6,41,0.00,,---,0.00,VWS V14.01,2013-02-02 16:46:00,
2013-02-02 11:47:00,26.1,5.6,29.15,WSW,248,4.0,5.6,41,0.00,,---,0.00,VWS V14.01,2013-02-02 16:47:00,
2013-02-02 11:48:00,26.1,5.6,29.15,WSW,248,2.5,4.0,41,0.00,,---,0.00,VWS V14.01,2013-02-02 16:48:00,
2013-02-02 11:49:00,26.6,6.1,29.14,WSW,248,3.6,3.6,41,0.00,,---,0.00,VWS V14.01,2013-02-02 16:49:00,
2013-02-02 11:50:00,26.8,6.2,29.15,WSW,248,3.6,3.6,41,0.00,,---,0.00,VWS V14.01,2013-02-02 16:50:00,
2013-02-02 11:51:00,26.8,6.2,29.15,WSW,248,3.4,3.6,41,0.00,,---,0.00,VWS V14.01,2013-02-02 16:51:00,
2013-02-02 11:52:00,27.0,6.4,29.15,SW,225,1.3,3.4,41,0.00,,---,0.00,VWS V14.01,2013-02-02 16:52:00,
2013-02-02 11:53:00,26.8,6.2,29.15,SSW,202,1.3,1.3,41,0.00,,---,0.00,VWS V14.01,2013-02-02 16:53:00,
2013-02-02 11:54:00,26.8,6.2,29.14,SSE,158,1.3,2.0,41,0.00,,---,0.00,VWS V14.01,2013-02-02 16:54:00,
2013-02-02 11:55:00,26.8,6.2,29.15,SSE,158,1.3,2.0,41,0.00,,---,0.00,VWS V14.01,2013-02-02 16:55:00,
2013-02-02 11:56:00,26.4,6.4,29.15,WSW,248,3.1,3.1,42,0.00,,---,0.00,VWS V14.01,2013-02-02 16:56:00,
2013-02-02 11:57:00,26.4,5.9,29.15,SW,225,1.6,3.1,41,0.00,,---,0.00,VWS V14.01,2013-02-02 16:57:00,
2013-02-02 11:58:00,26.4,5.9,29.15,West,270,2.5,2.7,41,0.00,,---,0.00,VWS V14.01,2013-02-02 16:58:00,
2013-02-02 11:59:00,26.1,5.6,29.14,NNW,338,1.3,2.5,41,0.00,,---,0.00,VWS V14.01,2013-02-02 16:59:00,
2013-02-02 12:00:00,26.1,5.6,29.15,WSW,248,3.1,3.1,41,0.00,,---,0.00,VWS V14.01,2013-02-02 17:00:00,
2013-02-02 12:01:00,26.4,5.9,29.15,West,270,6.5,6.5,41,0.00,,---,0.00,VWS V14.01,2013-02-02 17:01:00,
2013-02-02 12:02:00,26.4,5.9,29.15,WSW,248,5.8,6.5,41,0.00,,---,0.00,VWS V14.01,2013-02-02 17:02:00,
2013-02-02 12:03:00,26.8,6.2,29.15,WSW,248,2.5,5.8,41,0.00,,---,0.00,VWS V14.01,2013-02-02 17:03:00,
2013-02-02 12:04:00,27.1,6.6,29.14,WSW,248,2.7,2.7,41,0.00,,---,0.00,VWS V14.01,2013-02-02 17:04:00,
2013-02-02 12:05:00,27.1,6.6,29.15,WNW,292,3.8,3.8,41,0.00,,---,0.00,VWS V14.01,2013-02-02 17:05:00,
2013-02-02 12:06:00,27.3,6.7,29.15,West,270,5.8,5.8,41,0.00,,---,0.00,VWS V14.01,2013-02-02 17:06:00,
2013-02-02 12:07:00,27.3,6.7,29.15,WNW,292,4.3,5.8,41,0.00,,---,0.00,VWS V14.01,2013-02-02 17:07:00,
2013-02-02 12:08:00,27.7,7.1,29.15,WSW,248,4.0,4.3,41,0.00,,---,0.00,VWS V14.01,2013-02-02 17:08:00,
2013-02-02 12:09:00,28.0,7.4,29.14,WNW,292,3.1,4.0,41,0.00,,---,0.00,VWS V14.01,2013-02-02 17:09:00,
2013-02-02 12:10:00,28.0,7.4,29.15,WNW,292,3.1,4.0,41,0.00,,---,0.00,VWS V14.01,2013-02-02 17:10:00,
2013-02-02 12:11:00,28.0,7.4,29.15,WSW,248,2.2,3.1,41,0.00,,---,0.00,VWS V14.01,2013-02-02 17:11:00,
2013-02-02 12:12:00,27.9,7.2,29.15,SW,225,2.5,2.7,41,0.00,,---,0.00,VWS V14.01,2013-02-02 17:12:00,
2013-02-02 12:13:00,27.9,7.2,29.15,SW,225,2.5,2.5,41,0.00,,---,0.00,VWS V14.01,2013-02-02 17:13:00,
2013-02-02 12:14:00,27.1,6.6,29.14,WSW,248,2.9,2.9,41,0.00,,---,0.00,VWS V14.01,2013-02-02 17:14:00,
2013-02-02 12:15:00,27.1,6.6,29.15,West,270,1.6,2.9,41,0.00,,---,0.00,VWS V14.01,2013-02-02 17:15:00,
2013-02-02 12:16:00,27.1,6.6,29.15,WNW,292,1.6,1.6,41,0.00,,---,0.00,VWS V14.01,2013-02-02 17:16:00,
2013-02-02 12:17:00,26.4,4.8,29.15,WSW,248,3.6,3.6,39,0.00,,---,0.00,VWS V14.01,2013-02-02 17:17:00,
2013-02-02 12:18:00,26.6,6.1,29.15,WSW,248,3.6,3.6,41,0.00,,---,0.00,VWS V14.01,2013-02-02 17:18:00,
2013-02-02 12:19:00,26.6,6.1,29.14,WSW,248,3.6,3.6,41,0.00,,---,0.00,VWS V14.01,2013-02-02 17:19:00,
2013-02-02 12:20:00,26.6,6.1,29.15,WSW,248,3.6,3.6,41,0.00,,---,0.00,VWS V14.01,2013-02-02 17:20:00,
2013-02-02 12:21:00,26.6,6.1,29.15,West,270,4.9,4.9,41,0.00,,---,0.00,VWS V14.01,2013-02-02 17:21:00,
2013-02-02 12:22:00,25.7,5.3,29.15,WNW,292,3.6,5.8,41,0.00,,---,0.00,VWS V14.01,2013-02-02 17:22:00,
2013-02-02 12:23:00,25.7,5.3,29.15,WNW,292,2.7,3.6,41,0.00,,---,0.00,VWS V14.01,2013-02-02 17:23:00,
2013-02-02 12:24:00,25.3,3.9,29.14,WNW,292,3.6,3.6,39,0.00,,---,0.00,VWS V14.01,2013-02-02 17:24:00,
2013-02-02 12:25:00,25.2,3.7,29.15,WNW,292,4.7,4.7,39,0.00,,---,0.00,VWS V14.01,2013-02-02 17:25:00,
2013-02-02 12:26:00,25.2,3.7,29.15,NW,315,5.8,5.8,39,0.00,,---,0.00,VWS V14.01,2013-02-02 17:26:00,
2013-02-02 12:27:00,25.2,3.7,29.15,WNW,292,7.4,7.4,39,0.00,,---,0.00,VWS V14.01,2013-02-02 17:27:00,
2013-02-02 12:28:00,24.3,1.8,29.15,WSW,248,4.0,7.4,37,0.00,,---,0.00,VWS V14.01,2013-02-02 17:28:00,
2013-02-02 12:29:00,24.6,3.2,29.14,WSW,248,5.6,5.6,39,0.00,,---,0.00,VWS V14.01,2013-02-02 17:29:00,
2013-02-02 12:30:00,24.6,3.2,29.15,WNW,292,3.8,5.6,39,0.00,,---,0.00,VWS V14.01,2013-02-02 17:30:00,
2013-02-02 12:31:00,24.6,3.2,29.15,WSW,248,4.9,4.9,39,0.00,,---,0.00,VWS V14.01,2013-02-02 17:31:00,
2013-02-02 12:32:00,24.6,3.2,29.15,WSW,248,4.9,4.9,39,0.00,,---,0.00,VWS V14.01,2013-02-02 17:32:00,
2013-02-02 12:33:00,25.2,3.7,29.15,WSW,248,2.7,4.9,39,0.00,,---,0.00,VWS V14.01,2013-02-02 17:33:00,
2013-02-02 12:34:00,25.3,4.4,29.14,West,270,2.5,2.7,40,0.00,,---,0.00,VWS V14.01,2013-02-02 17:34:00,
2013-02-02 12:35:00,25.3,4.4,29.15,West,270,2.5,2.7,40,0.00,,---,0.00,VWS V14.01,2013-02-02 17:35:00,
2013-02-02 12:36:00,25.7,5.3,29.15,WSW,248,4.3,4.3,41,0.00,,---,0.00,VWS V14.01,2013-02-02 17:36:00,
2013-02-02 12:37:00,25.7,5.3,29.15,WNW,292,5.8,5.8,41,0.00,,---,0.00,VWS V14.01,2013-02-02 17:37:00,
2013-02-02 12:38:00,25.5,5.1,29.15,West,270,3.4,5.8,41,0.00,,---,0.00,VWS V14.01,2013-02-02 17:38:00,
2013-02-02 12:39:00,24.8,3.9,29.14,WNW,292,5.8,5.8,40,0.00,,---,0.00,VWS V14.01,2013-02-02 17:39:00,
2013-02-02 12:40:00,24.8,3.9,29.15,WSW,248,4.3,5.8,40,0.00,,---,0.00,VWS V14.01,2013-02-02 17:40:00,
2013-02-02 12:41:00,24.8,3.9,29.15,SW,225,5.4,5.4,40,0.00,,---,0.00,VWS V14.01,2013-02-02 17:41:00,
2013-02-02 12:42:00,24.8,4.4,29.15,SW,225,3.8,5.4,41,0.00,,---,0.00,VWS V14.01,2013-02-02 17:42:00,
2013-02-02 12:43:00,24.8,4.4,29.15,SW,225,3.8,3.8,41,0.00,,---,0.00,VWS V14.01,2013-02-02 17:43:00,
2013-02-02 12:44:00,24.8,4.4,29.14,West,270,4.9,4.9,41,0.00,,---,0.00,VWS V14.01,2013-02-02 17:44:00,
2013-02-02 12:45:00,24.3,4.0,29.15,WSW,248,3.4,4.9,41,0.00,,---,0.00,VWS V14.01,2013-02-02 17:45:00,
2013-02-02 12:46:00,24.3,4.0,29.15,NW,315,3.4,3.4,41,0.00,,---,0.00,VWS V14.01,2013-02-02 17:46:00,
2013-02-02 12:47:00,23.9,3.6,29.15,WNW,292,3.8,3.8,41,0.00,,---,0.00,VWS V14.01,2013-02-02 17:47:00,
2013-02-02 12:48:00,23.9,3.6,29.15,WSW,248,4.3,4.3,41,0.00,,---,0.00,VWS V14.01,2013-02-02 17:48:00,
2013-02-02 12:49:00,24.1,4.3,29.14,WSW,248,2.7,5.8,42,0.00,,---,0.00,VWS V14.01,2013-02-02 17:49:00,
2013-02-02 12:50:00,23.9,4.2,29.15,WSW,248,2.7,5.8,42,0.00,,---,0.00,VWS V14.01,2013-02-02 17:50:00,
2013-02-02 12:51:00,23.9,4.2,29.15,WSW,248,2.9,2.9,42,0.00,,---,0.00,VWS V14.01,2013-02-02 17:51:00,
2013-02-02 12:52:00,24.3,4.5,29.15,WSW,248,2.9,2.9,42,0.00,,---,0.00,VWS V14.01,2013-02-02 17:52:00,
2013-02-02 12:53:00,24.3,4.5,29.11,WSW,248,3.4,3.4,42,0.00,,---,0.00,VWS V14.01,2013-02-02 17:53:00,
2013-02-02 12:54:00,24.8,5.0,29.12,SSW,202,3.1,3.1,42,0.00,,---,0.00,VWS V14.01,2013-02-02 17:54:00,
2013-02-02 12:55:00,24.6,4.8,29.11,SSW,202,3.1,3.1,42,0.00,,---,0.00,VWS V14.01,2013-02-02 17:55:00,
2013-02-02 12:56:00,24.6,4.8,29.11,WSW,248,2.9,3.4,42,0.00,,---,0.00,VWS V14.01,2013-02-02 17:56:00,
2013-02-02 12:57:00,24.6,4.8,29.11,WSW,248,2.9,2.9,42,0.00,,---,0.00,VWS V14.01,2013-02-02 17:57:00,
2013-02-02 12:58:00,24.8,5.0,29.11,WSW,248,0.9,2.9,42,0.00,,---,0.00,VWS V14.01,2013-02-02 17:58:00,
2013-02-02 12:59:00,24.8,5.0,29.12,SW,225,1.1,1.1,42,0.00,,---,0.00,VWS V14.01,2013-02-02 17:59:00,
2013-02-02 13:00:00,24.8,5.0,29.11,SW,225,1.3,1.3,42,0.00,,---,0.00,VWS V14.01,2013-02-02 18:00:00,
2013-02-02 13:01:00,25.0,5.1,29.11,SW,225,1.6,1.6,42,0.00,,---,0.00,VWS V14.01,2013-02-02 18:01:00,
2013-02-02 13:02:00,25.0,5.1,29.11,WSW,248,5.8,5.8,42,0.00,,---,0.00,VWS V14.01,2013-02-02 18:02:00,
2013-02-02 13:03:00,24.6,4.8,29.11,WNW,292,2.9,5.8,42,0.00,,---,0.00,VWS V14.01,2013-02-02 18:03:00,
2013-02-02 13:04:00,24.3,4.5,29.12,WSW,248,6.5,6.5,42,0.00,,---,0.00,VWS V14.01,2013-02-02 18:04:00,
2013-02-02 13:05:00,24.3,4.5,29.11,WSW,248,5.6,6.5,42,0.00,,---,0.00,VWS V14.01,2013-02-02 18:05:00,
2013-02-02 13:06:00,23.5,3.8,29.11,WNW,292,5.6,5.8,42,0.00,,---,0.00,VWS V14.01,2013-02-02 18:06:00,
2013-02-02 13:07:00,23.5,3.8,29.15,WNW,292,5.6,5.6,42,0.00,,---,0.00,VWS V14.01,2013-02-02 18:07:00,
2013-02-02 13:08:00,23.4,3.7,29.15,WNW,292,6.5,6.5,42,0.00,,---,0.00,VWS V14.01,2013-02-02 18:08:00,
2013-02-02 13:09:00,22.8,3.2,29.14,WNW,292,4.0,4.0,42,0.00,,---,0.00,VWS V14.01,2013-02-02 18:09:00,
2013-02-02 13:10:00,22.8,3.2,29.15,SW,225,4.9,6.0,42,0.00,,---,0.00,VWS V14.01,2013-02-02 18:10:00,
2013-02-02 13:11:00,22.8,3.2,29.15,SW,225,4.9,4.9,42,0.00,,---,0.00,VWS V14.01,2013-02-02 18:11:00,
2013-02-02 13:12:00,22.8,3.2,29.15,WNW,292,5.6,5.6,42,0.00,,---,0.00,VWS V14.01,2013-02-02 18:12:00,
2013-02-02 13:13:00,22.5,2.8,29.15,WNW,292,5.6,5.6,42,0.00,,---,0.00,VWS V14.01,2013-02-02 18:13:00,
2013-02-02 13:14:00,22.5,2.8,29.14,WSW,248,6.3,6.3,42,0.00,,---,0.00,VWS V14.01,2013-02-02 18:14:00,
2013-02-02 13:15:00,22.6,3.0,29.15,WSW,248,4.9,6.3,42,0.00,,---,0.00,VWS V14.01,2013-02-02 18:15:00,
2013-02-02 13:16:00,22.6,3.0,29.15,WNW,292,3.8,4.9,42,0.00,,---,0.00,VWS V14.01,2013-02-02 18:16:00,
2013-02-02 13:17:00,22.8,3.2,29.15,West,270,5.8,5.8,42,0.00,,---,0.00,VWS V14.01,2013-02-02 18:17:00,
2013-02-02 13:18:00,22.8,3.2,29.15,WNW,292,4.9,5.8,42,0.00,,---,0.00,VWS V14.01,2013-02-02 18:18:00,
2013-02-02 13:19:00,22.6,3.0,29.14,WSW,248,4.9,4.9,42,0.00,,---,0.00,VWS V14.01,2013-02-02 18:19:00,
2013-02-02 13:20:00,22.6,3.0,29.15,WSW,248,4.9,4.9,42,0.00,,---,0.00,VWS V14.01,2013-02-02 18:20:00,
2013-02-02 13:21:00,23.2,3.5,29.15,WNW,292,5.8,5.8,42,0.00,,---,0.00,VWS V14.01,2013-02-02 18:21:00,
2013-02-02 13:22:00,22.8,3.2,29.15,WNW,292,6.5,6.5,42,0.00,,---,0.00,VWS V14.01,2013-02-02 18:22:00,
2013-02-02 13:23:00,22.8,3.2,29.11,WNW,292,3.8,6.5,42,0.00,,---,0.00,VWS V14.01,2013-02-02 18:23:00,
2013-02-02 13:24:00,22.6,3.0,29.12,WNW,292,4.9,4.9,42,0.00,,---,0.00,VWS V14.01,2013-02-02 18:24:00,
2013-02-02 13:25:00,22.6,3.0,29.11,WNW,292,5.8,5.8,42,0.00,,---,0.00,VWS V14.01,2013-02-02 18:25:00,
2013-02-02 13:26:00,22.3,2.7,29.11,WNW,292,3.1,5.8,42,0.00,,---,0.00,VWS V14.01,2013-02-02 18:26:00,
2013-02-02 13:27:00,22.3,2.7,29.11,WNW,292,4.9,4.9,42,0.00,,---,0.00,VWS V14.01,2013-02-02 18:27:00,
2013-02-02 13:28:00,22.3,2.7,29.11,West,270,4.5,4.9,42,0.00,,---,0.00,VWS V14.01,2013-02-02 18:28:00,
2013-02-02 13:29:00,22.5,2.8,29.12,WSW,248,8.1,8.1,42,0.00,,---,0.00,VWS V14.01,2013-02-02 18:29:00,
2013-02-02 13:30:00,22.5,2.8,29.11,WSW,248,8.1,8.1,42,0.00,,---,0.00,VWS V14.01,2013-02-02 18:30:00,
2013-02-02 13:31:00,22.8,3.2,29.11,WNW,292,7.6,8.1,42,0.00,,---,0.00,VWS V14.01,2013-02-02 18:31:00,
2013-02-02 13:32:00,22.6,3.0,29.11,WNW,292,6.0,7.6,42,0.00,,---,0.00,VWS V14.01,2013-02-02 18:32:00,
2013-02-02 13:33:00,22.6,3.0,29.11,WSW,248,8.5,8.5,42,0.00,,---,0.00,VWS V14.01,2013-02-02 18:33:00,
2013-02-02 13:34:00,22.8,3.2,29.12,WSW,248,3.4,4.9,42,0.00,,---,0.00,VWS V14.01,2013-02-02 18:34:00,
2013-02-02 13:35:00,22.8,3.2,29.11,WSW,248,8.1,8.1,42,0.00,,---,0.00,VWS V14.01,2013-02-02 18:35:00,
2013-02-02 13:36:00,22.8,3.2,29.11,WSW,248,8.1,8.1,42,0.00,,---,0.00,VWS V14.01,2013-02-02 18:36:00,
2013-02-02 13:37:00,22.8,3.2,29.11,WNW,292,5.6,8.1,42,0.00,,---,0.00,VWS V14.01,2013-02-02 18:37:00,
2013-02-02 13:38:00,22.8,3.7,29.15,WSW,248,5.8,5.8,43,0.00,,---,0.00,VWS V14.01,2013-02-02 18:38:00,
2013-02-02 13:39:00,22.6,3.0,29.14,WNW,292,5.8,5.8,42,0.00,,---,0.00,VWS V14.01,2013-02-02 18:39:00,
2013-02-02 13:40:00,22.6,3.0,29.15,WNW,292,3.1,5.8,42,0.00,,---,0.00,VWS V14.01,2013-02-02 18:40:00,
2013-02-02 13:41:00,22.6,3.0,29.15,WNW,292,6.0,6.0,42,0.00,,---,0.00,VWS V14.01,2013-02-02 18:41:00,
2013-02-02 13:42:00,22.3,2.7,29.15,WNW,292,6.0,6.0,42,0.00,,---,0.00,VWS V14.01,2013-02-02 18:42:00,
2013-02-02 13:43:00,22.5,2.8,29.15,West,270,4.0,6.0,42,0.00,,---,0.00,VWS V14.01,2013-02-02 18:43:00,
2013-02-02 13:44:00,22.5,2.8,29.14,West,270,2.7,2.7,42,0.00,,---,0.00,VWS V14.01,2013-02-02 18:44:00,
2013-02-02 13:45:00,22.8,3.7,29.15,WSW,248,4.3,4.3,43,0.00,,---,0.00,VWS V14.01,2013-02-02 18:45:00,
2013-02-02 13:46:00,22.8,3.7,29.15,WNW,292,4.7,4.7,43,0.00,,---,0.00,VWS V14.01,2013-02-02 18:46:00,
2013-02-02 13:47:00,22.6,3.5,29.15,WNW,292,3.6,4.7,43,0.00,,---,0.00,VWS V14.01,2013-02-02 18:47:00,
2013-02-02 13:48:00,22.1,2.5,29.15,WNW,292,4.9,4.9,42,0.00,,---,0.00,VWS V14.01,2013-02-02 18:48:00,
2013-02-02 13:49:00,22.1,2.5,29.14,WNW,292,3.8,4.9,42,0.00,,---,0.00,VWS V14.01,2013-02-02 18:49:00,
2013-02-02 13:50:00,22.3,2.7,29.15,WNW,292,3.8,3.8,42,0.00,,---,0.00,VWS V14.01,2013-02-02 18:50:00,
2013-02-02 13:51:00,22.3,2.7,29.15,WNW,292,3.8,3.8,42,0.00,,---,0.00,VWS V14.01,2013-02-02 18:51:00,
2013-02-02 13:52:00,22.3,2.7,29.15,West,270,4.3,4.3,42,0.00,,---,0.00,VWS V14.01,2013-02-02 18:52:00,
2013-02-02 13:53:00,22.3,2.7,29.15,WNW,292,4.3,4.3,42,0.00,,---,0.00,VWS V14.01,2013-02-02 18:53:00,
2013-02-02 13:54:00,22.8,3.7,29.14,NW,315,5.6,5.6,43,0.00,,---,0.00,VWS V14.01,2013-02-02 18:54:00,
2013-02-02 13:55:00,22.8,3.7,29.15,NW,315,5.6,5.6,43,0.00,,---,0.00,VWS V14.01,2013-02-02 18:55:00,
2013-02-02 13:56:00,22.3,2.7,29.15,WNW,292,2.7,5.6,42,0.00,,---,0.00,VWS V14.01,2013-02-02 18:56:00,
2013-02-02 13:57:00,22.3,2.7,29.15,WNW,292,2.7,2.7,42,0.00,,---,0.00,VWS V14.01,2013-02-02 18:57:00,
2013-02-02 13:58:00,22.6,3.5,29.15,WNW,292,4.3,4.3,43,0.00,,---,0.00,VWS V14.01,2013-02-02 18:58:00,
2013-02-02 13:59:00,22.3,2.7,29.14,WNW,292,3.1,3.1,42,0.00,,---,0.00,VWS V14.01,2013-02-02 18:59:00,
2013-02-02 14:00:00,22.3,2.7,29.15,NW,315,3.8,3.8,42,0.00,,---,0.00,VWS V14.01,2013-02-02 19:00:00,
2013-02-02 14:01:00,22.5,2.8,29.15,NNW,338,2.5,3.8,42,0.00,,---,0.00,VWS V14.01,2013-02-02 19:01:00,
2013-02-02 14:02:00,22.5,2.8,29.15,WNW,292,3.6,3.6,42,0.00,,---,0.00,VWS V14.01,2013-02-02 19:02:00,
2013-02-02 14:03:00,22.3,2.7,29.15,WNW,292,3.1,3.6,42,0.00,,---,0.00,VWS V14.01,2013-02-02 19:03:00,
2013-02-02 14:04:00,22.1,2.5,29.14,WNW,292,3.1,3.1,42,0.00,,---,0.00,VWS V14.01,2013-02-02 19:04:00,
2013-02-02 14:05:00,22.1,2.5,29.15,WNW,292,3.4,3.4,42,0.00,,---,0.00,VWS V14.01,2013-02-02 19:05:00,
2013-02-02 14:06:00,22.1,2.5,29.15,WNW,292,3.4,3.4,42,0.00,,---,0.00,VWS V14.01,2013-02-02 19:06:00,
2013-02-02 14:07:00,22.1,2.5,29.15,WNW,292,3.6,3.6,42,0.00,,---,0.00,VWS V14.01,2013-02-02 19:07:00,
2013-02-02 14:08:00,22.1,2.5,29.11,WSW,248,2.5,3.6,42,0.00,,---,0.00,VWS V14.01,2013-02-02 19:08:00,
2013-02-02 14:09:00,22.1,2.5,29.12,WSW,248,5.4,5.4,42,0.00,,---,0.00,VWS V14.01,2013-02-02 19:09:00,
2013-02-02 14:10:00,22.5,2.8,29.11,WSW,248,1.6,5.4,42,0.00,,---,0.00,VWS V14.01,2013-02-02 19:10:00,
2013-02-02 14:11:00,22.6,3.5,29.11,WSW,248,1.6,1.6,43,0.00,,---,0.00,VWS V14.01,2013-02-02 19:11:00,
2013-02-02 14:12:00,22.6,3.5,29.11,WSW,248,3.1,3.1,43,0.00,,---,0.00,VWS V14.01,2013-02-02 19:12:00,
2013-02-02 14:13:00,22.6,3.5,29.11,WSW,248,1.6,3.1,43,0.00,,---,0.00,VWS V14.01,2013-02-02 19:13:00,
2013-02-02 14:14:00,22.6,3.5,29.12,WSW,248,6.0,6.0,43,0.00,,---,0.00,VWS V14.01,2013-02-02 19:14:00,
2013-02-02 14:15:00,22.8,3.7,29.11,WNW,292,4.7,6.0,43,0.00,,---,0.00,VWS V14.01,2013-02-02 19:15:00,
2013-02-02 14:16:00,22.8,3.7,29.11,WNW,292,2.5,4.7,43,0.00,,---,0.00,VWS V14.01,2013-02-02 19:16:00,
2013-02-02 14:17:00,22.8,3.7,29.11,WNW,292,2.5,2.5,43,0.00,,---,0.00,VWS V14.01,2013-02-02 19:17:00,
2013-02-02 14:18:00,22.8,3.7,29.11,West,270,2.7,2.9,43,0.00,,---,0.00,VWS V14.01,2013-02-02 19:18:00,
2013-02-02 14:19:00,22.8,3.7,29.12,WNW,292,3.4,3.4,43,0.00,,---,0.00,VWS V14.01,2013-02-02 19:19:00,
2013-02-02 14:20:00,22.8,3.7,29.11,NW,315,2.7,3.4,43,0.00,,---,0.00,VWS V14.01,2013-02-02 19:20:00,
2013-02-02 14:21:00,22.5,3.4,29.11,WNW,292,2.5,4.0,43,0.00,,---,0.00,VWS V14.01,2013-02-02 19:21:00,
2013-02-02 14:22:00,22.1,2.5,29.11,WNW,292,2.5,2.5,42,0.00,,---,0.00,VWS V14.01,2013-02-02 19:22:00,
2013-02-02 14:23:00,22.1,2.5,29.11,WNW,292,2.2,2.5,42,0.00,,---,0.00,VWS V14.01,2013-02-02 19:23:00,
2013-02-02 14:24:00,22.3,3.2,29.12,West,270,2.7,2.7,43,0.00,,---,0.00,VWS V14.01,2013-02-02 19:24:00,
2013-02-02 14:25:00,22.6,3.5,29.11,WSW,248,3.1,3.1,43,0.00,,---,0.00,VWS V14.01,2013-02-02 19:25:00,
2013-02-02 14:26:00,22.6,3.5,29.11,West,270,3.4,3.4,43,0.00,,---,0.00,VWS V14.01,2013-02-02 19:26:00,
2013-02-02 14:27:00,22.6,3.5,29.11,WNW,292,3.1,3.4,43,0.00,,---,0.00,VWS V14.01,2013-02-02 19:27:00,
2013-02-02 14:28:00,22.6,3.5,29.11,NNW,338,2.0,3.4,43,0.00,,---,0.00,VWS V14.01,2013-02-02 19:28:00,
2013-02-02 14:29:00,22.5,3.4,29.12,NW,315,2.7,2.7,43,0.00,,---,0.00,VWS V14.01,2013-02-02 19:29:00,
2013-02-02 14:30:00,22.5,3.4,29.11,WNW,292,2.5,2.7,43,0.00,,---,0.00,VWS V14.01,2013-02-02 19:30:00,
2013-02-02 14:31:00,22.3,3.2,29.11,WNW,292,2.5,2.5,43,0.00,,---,0.00,VWS V14.01,2013-02-02 19:31:00,
2013-02-02 14:32:00,22.3,3.2,29.11,NW,315,3.6,3.6,43,0.00,,---,0.00,VWS V14.01,2013-02-02 19:32:00,
2013-02-02 14:33:00,22.3,3.2,29.11,WNW,292,3.4,3.6,43,0.00,,---,0.00,VWS V14.01,2013-02-02 19:33:00,
2013-02-02 14:34:00,22.5,3.4,29.12,WNW,292,3.1,3.4,43,0.00,,---,0.00,VWS V14.01,2013-02-02 19:34:00,
2013-02-02 14:35:00,22.5,3.4,29.11,West,270,2.5,3.4,43,0.00,,---,0.00,VWS V14.01,2013-02-02 19:35:00,
2013-02-02 14:36:00,22.6,3.5,29.11,West,270,2.5,2.5,43,0.00,,---,0.00,VWS V14.01,2013-02-02 19:36:00,
2013-02-02 14:37:00,22.6,3.5,29.11,WNW,292,2.5,3.1,43,0.00,,---,0.00,VWS V14.01,2013-02-02 19:37:00,
2013-02-02 14:38:00,22.8,3.7,29.11,WNW,292,2.9,2.9,43,0.00,,---,0.00,VWS V14.01,2013-02-02 19:38:00,
2013-02-02 14:39:00,22.8,3.7,29.12,WNW,292,2.7,2.9,43,0.00,,---,0.00,VWS V14.01,2013-02-02 19:39:00,
2013-02-02 14:40:00,22.8,3.7,29.11,NNW,338,4.9,4.9,43,0.00,,---,0.00,VWS V14.01,2013-02-02 19:40:00,
2013-02-02 14:41:00,22.6,3.5,29.11,WNW,292,3.6,4.9,43,0.00,,---,0.00,VWS V14.01,2013-02-02 19:41:00,
2013-02-02 14:42:00,22.6,3.5,29.11,West,270,2.0,3.6,43,0.00,,---,0.00,VWS V14.01,2013-02-02 19:42:00,
2013-02-02 14:43:00,22.6,3.5,29.11,WNW,292,3.1,3.1,43,0.00,,---,0.00,VWS V14.01,2013-02-02 19:43:00,
2013-02-02 14:44:00,22.6,3.5,29.12,NNW,338,4.5,4.5,43,0.00,,---,0.00,VWS V14.01,2013-02-02 19:44:00,
2013-02-02 14:45:00,22.5,2.8,29.11,WSW,248,3.6,4.7,42,0.00,,---,0.00,VWS V14.01,2013-02-02 19:45:00,
2013-02-02 14:46:00,22.6,3.5,29.11,WSW,248,2.5,3.6,43,0.00,,---,0.00,VWS V14.01,2013-02-02 19:46:00,
2013-02-02 14:47:00,22.6,3.5,29.11,West,270,3.8,5.4,43,0.00,,---,0.00,VWS V14.01,2013-02-02 19:47:00,
2013-02-02 14:48:00,22.6,3.5,29.11,West,270,3.8,3.8,43,0.00,,---,0.00,VWS V14.01,2013-02-02 19:48:00,
2013-02-02 14:49:00,22.6,3.5,29.12,West,270,3.8,3.8,43,0.00,,---,0.00,VWS V14.01,2013-02-02 19:49:00,
2013-02-02 14:50:00,22.6,3.5,29.11,WNW,292,3.4,3.4,43,0.00,,---,0.00,VWS V14.01,2013-02-02 19:50:00,
2013-02-02 14:51:00,22.3,3.2,29.11,West,270,2.5,3.6,43,0.00,,---,0.00,VWS V14.01,2013-02-02 19:51:00,
2013-02-02 14:52:00,22.3,3.2,29.11,West,270,2.5,2.5,43,0.00,,---,0.00,VWS V14.01,2013-02-02 19:52:00,
2013-02-02 14:53:00,22.3,3.2,29.11,WNW,292,3.6,3.6,43,0.00,,---,0.00,VWS V14.01,2013-02-02 19:53:00,
2013-02-02 14:54:00,22.5,3.4,29.12,WNW,292,2.7,3.6,43,0.00,,---,0.00,VWS V14.01,2013-02-02 19:54:00,
2013-02-02 14:55:00,22.5,3.4,29.11,WNW,292,4.0,4.0,43,0.00,,---,0.00,VWS V14.01,2013-02-02 19:55:00,
2013-02-02 14:56:00,22.5,2.8,29.11,West,270,3.1,4.0,42,0.00,,---,0.00,VWS V14.01,2013-02-02 19:56:00,
2013-02-02 14:57:00,22.5,2.8,29.11,NNW,338,2.7,3.1,42,0.00,,---,0.00,VWS V14.01,2013-02-02 19:57:00,
2013-02-02 14:58:00,22.5,2.8,29.11,WNW,292,5.4,5.4,42,0.00,,---,0.00,VWS V14.01,2013-02-02 19:58:00,
2013-02-02 14:59:00,22.3,2.7,29.12,WNW,292,4.9,5.4,42,0.00,,---,0.00,VWS V14.01,2013-02-02 19:59:00,
2013-02-02 15:00:00,22.3,2.7,29.11,WNW,292,3.6,5.4,42,0.00,,---,0.00,VWS V14.01,2013-02-02 20:00:00,
2013-02-02 15:01:00,22.3,2.7,29.11,WNW,292,5.4,5.4,42,0.00,,---,0.00,VWS V14.01,2013-02-02 20:01:00,
2013-02-02 15:02:00,22.3,2.7,29.11,WNW,292,2.9,5.4,42,0.00,,---,0.00,VWS V14.01,2013-02-02 20:02:00,
2013-02-02 15:03:00,22.1,2.5,29.11,WNW,292,5.6,5.6,42,0.00,,---,0.00,VWS V14.01,2013-02-02 20:03:00,
2013-02-02 15:04:00,22.3,2.7,29.12,WNW,292,5.6,5.6,42,0.00,,---,0.00,VWS V14.01,2013-02-02 20:04:00,
2013-02-02 15:05:00,22.3,2.7,29.11,WNW,292,3.6,5.6,42,0.00,,---,0.00,VWS V14.01,2013-02-02 20:05:00,
2013-02-02 15:06:00,22.3,2.7,29.11,West,270,2.5,3.6,42,0.00,,---,0.00,VWS V14.01,2013-02-02 20:06:00,
2013-02-02 15:07:00,22.3,2.7,29.11,WNW,292,2.5,2.5,42,0.00,,---,0.00,VWS V14.01,2013-02-02 20:07:00,
2013-02-02 15:08:00,22.3,2.7,29.11,WNW,292,3.4,4.0,42,0.00,,---,0.00,VWS V14.01,2013-02-02 20:08:00,
2013-02-02 15:09:00,22.3,2.7,29.12,WNW,292,6.0,6.0,42,0.00,,---,0.00,VWS V14.01,2013-02-02 20:09:00,
2013-02-02 15:10:00,22.3,2.7,29.11,WSW,248,3.8,6.0,42,0.00,,---,0.00,VWS V14.01,2013-02-02 20:10:00,
2013-02-02 15:11:00,22.3,2.7,29.11,WSW,248,6.0,6.0,42,0.00,,---,0.00,VWS V14.01,2013-02-02 20:11:00,
2013-02-02 15:12:00,22.3,2.7,29.11,WSW,248,3.8,6.0,42,0.00,,---,0.00,VWS V14.01,2013-02-02 20:12:00,
2013-02-02 15:13:00,22.3,2.7,29.11,WSW,248,3.8,3.8,42,0.00,,---,0.00,VWS V14.01,2013-02-02 20:13:00,
2013-02-02 15:14:00,22.3,2.7,29.12,WSW,248,3.1,4.3,42,0.00,,---,0.00,VWS V14.01,2013-02-02 20:14:00,
2013-02-02 15:15:00,22.3,2.7,29.11,WNW,292,4.7,4.7,42,0.00,,---,0.00,VWS V14.01,2013-02-02 20:15:00,
2013-02-02 15:16:00,22.3,2.7,29.11,WSW,248,4.9,4.9,42,0.00,,---,0.00,VWS V14.01,2013-02-02 20:16:00,
2013-02-02 15:17:00,22.5,2.8,29.11,West,270,3.6,4.9,42,0.00,,---,0.00,VWS V14.01,2013-02-02 20:17:00,
2013-02-02 15:18:00,22.5,2.8,29.11,WSW,248,2.7,3.6,42,0.00,,---,0.00,VWS V14.01,2013-02-02 20:18:00,
2013-02-02 15:19:00,22.5,2.8,29.12,West,270,3.4,3.4,42,0.00,,---,0.00,VWS V14.01,2013-02-02 20:19:00,
2013-02-02 15:20:00,22.5,3.4,29.11,WNW,292,2.9,3.4,43,0.00,,---,0.00,VWS V14.01,2013-02-02 20:20:00,
2013-02-02 15:21:00,22.5,3.4,29.11,WNW,292,4.3,4.3,43,0.00,,---,0.00,VWS V14.01,2013-02-02 20:21:00,
2013-02-02 15:22:00,22.5,2.8,29.11,WNW,292,6.3,6.3,42,0.00,,---,0.00,VWS V14.01,2013-02-02 20:22:00,
2013-02-02 15:23:00,22.5,2.8,29.11,WSW,248,3.8,6.3,42,0.00,,---,0.00,VWS V14.01,2013-02-02 20:23:00,
2013-02-02 15:24:00,22.3,2.7,29.12,WNW,292,5.8,5.8,42,0.00,,---,0.00,VWS V14.01,2013-02-02 20:24:00,
2013-02-02 15:25:00,21.9,2.4,29.11,NW,315,7.4,7.4,42,0.00,,---,0.00,VWS V14.01,2013-02-02 20:25:00,
2013-02-02 15:26:00,21.9,2.4,29.11,WNW,292,3.4,7.4,42,0.00,,---,0.00,VWS V14.01,2013-02-02 20:26:00,
2013-02-02 15:27:00,21.9,2.4,29.11,WNW,292,3.4,3.4,42,0.00,,---,0.00,VWS V14.01,2013-02-02 20:27:00,
2013-02-02 15:28:00,21.9,2.4,29.11,WSW,248,4.7,4.7,42,0.00,,---,0.00,VWS V14.01,2013-02-02 20:28:00,
2013-02-02 15:29:00,21.9,2.4,29.12,WSW,248,4.7,4.7,42,0.00,,---,0.00,VWS V14.01,2013-02-02 20:29:00,
2013-02-02 15:30:00,21.9,2.4,29.11,West,270,2.9,4.7,42,0.00,,---,0.00,VWS V14.01,2013-02-02 20:30:00,
2013-02-02 15:31:00,22.1,2.5,29.11,WNW,292,2.7,2.9,42,0.00,,---,0.00,VWS V14.01,2013-02-02 20:31:00,
2013-02-02 15:32:00,22.1,2.5,29.11,WNW,292,2.7,2.7,42,0.00,,---,0.00,VWS V14.01,2013-02-02 20:32:00,
2013-02-02 15:33:00,22.1,2.5,29.11,West,270,2.5,2.7,42,0.00,,---,0.00,VWS V14.01,2013-02-02 20:33:00,
2013-02-02 15:34:00,22.1,2.5,29.12,WNW,292,3.4,3.4,42,0.00,,---,0.00,VWS V14.01,2013-02-02 20:34:00,
2013-02-02 15:35:00,22.1,2.5,29.11,WNW,292,4.9,4.9,42,0.00,,---,0.00,VWS V14.01,2013-02-02 20:35:00,
2013-02-02 15:36:00,21.9,2.4,29.11,WNW,292,4.9,4.9,42,0.00,,---,0.00,VWS V14.01,2013-02-02 20:36:00,
2013-02-02 15:37:00,21.9,2.4,29.11,WSW,248,1.6,4.9,42,0.00,,---,0.00,VWS V14.01,2013-02-02 20:37:00,
2013-02-02 15:38:00,21.9,2.4,29.11,WSW,248,3.6,3.6,42,0.00,,---,0.00,VWS V14.01,2013-02-02 20:38:00,
2013-02-02 15:39:00,21.9,2.4,29.12,WNW,292,3.4,3.6,42,0.00,,---,0.00,VWS V14.01,2013-02-02 20:39:00,
2013-02-02 15:40:00,21.9,2.4,29.11,WNW,292,3.1,3.4,42,0.00,,---,0.00,VWS V14.01,2013-02-02 20:40:00,
2013-02-02 15:41:00,21.9,2.4,29.11,WNW,292,2.5,3.1,42,0.00,,---,0.00,VWS V14.01,2013-02-02 20:41:00,
2013-02-02 15:42:00,21.9,2.4,29.11,WNW,292,2.9,2.9,42,0.00,,---,0.00,VWS V14.01,2013-02-02 20:42:00,
2013-02-02 15:43:00,21.9,2.4,29.11,WNW,292,2.7,2.9,42,0.00,,---,0.00,VWS V14.01,2013-02-02 20:43:00,
2013-02-02 15:44:00,21.9,2.4,29.12,WNW,292,2.5,2.7,42,0.00,,---,0.00,VWS V14.01,2013-02-02 20:44:00,
2013-02-02 15:45:00,21.9,2.4,29.11,NW,315,4.3,4.3,42,0.00,,---,0.00,VWS V14.01,2013-02-02 20:45:00,
2013-02-02 15:46:00,21.9,2.4,29.11,West,270,1.6,4.3,42,0.00,,---,0.00,VWS V14.01,2013-02-02 20:46:00,
2013-02-02 15:47:00,21.7,2.2,29.11,West,270,4.9,4.9,42,0.00,,---,0.00,VWS V14.01,2013-02-02 20:47:00,
2013-02-02 15:48:00,21.7,2.2,29.11,West,270,4.9,4.9,42,0.00,,---,0.00,VWS V14.01,2013-02-02 20:48:00,
2013-02-02 15:49:00,21.7,2.2,29.12,West,270,2.5,4.9,42,0.00,,---,0.00,VWS V14.01,2013-02-02 20:49:00,
2013-02-02 15:50:00,21.7,2.2,29.11,West,270,4.0,4.0,42,0.00,,---,0.00,VWS V14.01,2013-02-02 20:50:00,
2013-02-02 15:51:00,21.7,2.2,29.11,WNW,292,4.7,4.7,42,0.00,,---,0.00,VWS V14.01,2013-02-02 20:51:00,
2013-02-02 15:52:00,21.7,2.2,29.11,West,270,3.6,4.7,42,0.00,,---,0.00,VWS V14.01,2013-02-02 20:52:00,
2013-02-02 15:53:00,21.6,2.0,29.11,WNW,292,4.3,4.3,42,0.00,,---,0.00,VWS V14.01,2013-02-02 20:53:00,
2013-02-02 15:54:00,21.6,2.0,29.12,WSW,248,4.7,4.7,42,0.00,,---,0.00,VWS V14.01,2013-02-02 20:54:00,
2013-02-02 15:55:00,21.6,2.0,29.11,WNW,292,6.0,6.0,42,0.00,,---,0.00,VWS V14.01,2013-02-02 20:55:00,
2013-02-02 15:56:00,21.6,2.0,29.11,WNW,292,5.4,6.0,42,0.00,,---,0.00,VWS V14.01,2013-02-02 20:56:00,
2013-02-02 15:57:00,21.6,2.0,29.11,WNW,292,4.3,5.4,42,0.00,,---,0.00,VWS V14.01,2013-02-02 20:57:00,
2013-02-02 15:58:00,21.4,1.9,29.11,WNW,292,6.3,6.3,42,0.00,,---,0.00,VWS V14.01,2013-02-02 20:58:00,
2013-02-02 15:59:00,21.4,1.9,29.12,WNW,292,4.0,4.0,42,0.00,,---,0.00,VWS V14.01,2013-02-02 20:59:00,
2013-02-02 16:00:00,21.4,1.9,29.11,WNW,292,2.9,4.0,42,0.00,,---,0.00,VWS V14.01,2013-02-02 21:00:00,
2013-02-02 16:01:00,21.6,2.0,29.11,WNW,292,4.0,4.0,42,0.00,,---,0.00,VWS V14.01,2013-02-02 21:01:00,
2013-02-02 16:02:00,21.6,2.0,29.11,West,270,3.8,4.0,42,0.00,,---,0.00,VWS V14.01,2013-02-02 21:02:00,
2013-02-02 16:03:00,21.4,2.4,29.11,WSW,248,4.3,4.3,43,0.00,,---,0.00,VWS V14.01,2013-02-02 21:03:00,
2013-02-02 16:04:00,21.4,2.4,29.12,WNW,292,4.0,4.3,43,0.00,,---,0.00,VWS V14.01,2013-02-02 21:04:00,
2013-02-02 16:05:00,21.4,2.4,29.11,WNW,292,3.1,4.0,43,0.00,,---,0.00,VWS V14.01,2013-02-02 21:05:00,
2013-02-02 16:06:00,21.4,1.9,29.11,WNW,292,3.8,3.8,42,0.00,,---,0.00,VWS V14.01,2013-02-02 21:06:00,
2013-02-02 16:07:00,21.4,1.9,29.11,WNW,292,2.5,3.8,42,0.00,,---,0.00,VWS V14.01,2013-02-02 21:07:00,
2013-02-02 16:08:00,21.2,2.2,29.11,WNW,292,2.5,2.5,43,0.00,,---,0.00,VWS V14.01,2013-02-02 21:08:00,
2013-02-02 16:09:00,21.2,2.2,29.12,WSW,248,3.4,3.4,43,0.00,,---,0.00,VWS V14.01,2013-02-02 21:09:00,
2013-02-02 16:10:00,21.2,2.2,29.11,WNW,292,3.1,3.1,43,0.00,,---,0.00,VWS V14.01,2013-02-02 21:10:00,
2013-02-02 16:11:00,21.2,2.2,29.11,WSW,248,4.3,4.3,43,0.00,,---,0.00,VWS V14.01,2013-02-02 21:11:00,
2013-02-02 16:12:00,21.2,2.2,29.11,WSW,248,4.9,4.9,43,0.00,,---,0.00,VWS V14.01,2013-02-02 21:12:00,
2013-02-02 16:13:00,21.2,2.2,29.11,WSW,248,5.6,5.6,43,0.00,,---,0.00,VWS V14.01,2013-02-02 21:13:00,
2013-02-02 16:14:00,21.2,2.2,29.12,WSW,248,3.8,5.6,43,0.00,,---,0.00,VWS V14.01,2013-02-02 21:14:00,
2013-02-02 16:15:00,21.2,2.2,29.11,WSW,248,3.8,3.8,43,0.00,,---,0.00,VWS V14.01,2013-02-02 21:15:00,
2013-02-02 16:16:00,21.2,2.2,29.11,WSW,248,3.4,3.8,43,0.00,,---,0.00,VWS V14.01,2013-02-02 21:16:00,
2013-02-02 16:17:00,21.2,2.2,29.11,West,270,2.9,3.4,43,0.00,,---,0.00,VWS V14.01,2013-02-02 21:17:00,
2013-02-02 16:18:00,21.2,2.2,29.11,WNW,292,2.0,2.9,43,0.00,,---,0.00,VWS V14.01,2013-02-02 21:18:00,
2013-02-02 16:19:00,21.2,2.2,29.12,WSW,248,2.0,2.0,43,0.00,,---,0.00,VWS V14.01,2013-02-02 21:19:00,
2013-02-02 16:20:00,21.0,2.0,29.11,West,270,2.2,2.2,43,0.00,,---,0.00,VWS V14.01,2013-02-02 21:20:00,
2013-02-02 16:21:00,21.0,2.0,29.11,West,270,2.2,2.2,43,0.00,,---,0.00,VWS V14.01,2013-02-02 21:21:00,
2013-02-02 16:22:00,21.0,2.0,29.11,WSW,248,4.3,4.3,43,0.00,,---,0.00,VWS V14.01,2013-02-02 21:22:00,
2013-02-02 16:23:00,21.0,2.0,29.11,WNW,292,3.4,4.3,43,0.00,,---,0.00,VWS V14.01,2013-02-02 21:23:00,
2013-02-02 16:24:00,21.0,2.0,29.12,WNW,292,2.2,3.4,43,0.00,,---,0.00,VWS V14.01,2013-02-02 21:24:00,
2013-02-02 16:25:00,21.0,2.0,29.11,WNW,292,2.9,2.9,43,0.00,,---,0.00,VWS V14.01,2013-02-02 21:25:00,
2013-02-02 16:26:00,21.0,2.0,29.11,SSW,202,1.3,2.9,43,0.00,,---,0.00,VWS V14.01,2013-02-02 21:26:00,
2013-02-02 16:27:00,21.0,2.0,29.11,SSW,202,1.3,1.3,43,0.00,,---,0.00,VWS V14.01,2013-02-02 21:27:00,
2013-02-02 16:28:00,21.0,2.0,29.11,WSW,248,3.1,3.1,43,0.00,,---,0.00,VWS V14.01,2013-02-02 21:28:00,
2013-02-02 16:29:00,21.0,2.0,29.12,WSW,248,3.1,3.1,43,0.00,,---,0.00,VWS V14.01,2013-02-02 21:29:00,
2013-02-02 16:30:00,21.0,2.5,29.11,WSW,248,2.7,3.1,44,0.00,,---,0.00,VWS V14.01,2013-02-02 21:30:00,
2013-02-02 16:31:00,21.0,2.5,29.11,WSW,248,2.2,2.9,44,0.00,,---,0.00,VWS V14.01,2013-02-02 21:31:00,
2013-02-02 16:32:00,21.0,2.5,29.11,WNW,292,2.2,2.2,44,0.00,,---,0.00,VWS V14.01,2013-02-02 21:32:00,
2013-02-02 16:33:00,20.8,2.4,29.11,WNW,292,2.0,2.2,44,0.00,,---,0.00,VWS V14.01,2013-02-02 21:33:00,
2013-02-02 16:34:00,20.8,2.4,29.12,WSW,248,3.4,3.4,44,0.00,,---,0.00,VWS V14.01,2013-02-02 21:34:00,
2013-02-02 16:35:00,21.0,2.5,29.11,WSW,248,3.1,3.4,44,0.00,,---,0.00,VWS V14.01,2013-02-02 21:35:00,
2013-02-02 16:36:00,21.0,2.5,29.11,WSW,248,2.9,3.1,44,0.00,,---,0.00,VWS V14.01,2013-02-02 21:36:00,
2013-02-02 16:37:00,20.8,2.4,29.11,WSW,248,2.5,2.9,44,0.00,,---,0.00,VWS V14.01,2013-02-02 21:37:00,
2013-02-02 16:38:00,20.8,2.4,29.11,WSW,248,2.5,2.5,44,0.00,,---,0.00,VWS V14.01,2013-02-02 21:38:00,
2013-02-02 16:39:00,20.8,2.4,29.12,WSW,248,4.0,4.0,44,0.00,,---,0.00,VWS V14.01,2013-02-02 21:39:00,
2013-02-02 16:40:00,20.8,2.4,29.11,WSW,248,3.6,4.0,44,0.00,,---,0.00,VWS V14.01,2013-02-02 21:40:00,
2013-02-02 16:41:00,20.8,2.4,29.11,WSW,248,2.5,3.6,44,0.00,,---,0.00,VWS V14.01,2013-02-02 21:41:00,
2013-02-02 16:42:00,20.8,2.4,29.11,WSW,248,2.5,2.5,44,0.00,,---,0.00,VWS V14.01,2013-02-02 21:42:00,
2013-02-02 16:43:00,20.8,2.4,29.11,WSW,248,4.0,4.0,44,0.00,,---,0.00,VWS V14.01,2013-02-02 21:43:00,
2013-02-02 16:44:00,20.8,2.4,29.12,WSW,248,5.6,5.6,44,0.00,,---,0.00,VWS V14.01,2013-02-02 21:44:00,
2013-02-02 16:45:00,20.8,2.4,29.11,West,270,2.2,5.6,44,0.00,,---,0.00,VWS V14.01,2013-02-02 21:45:00,
2013-02-02 16:46:00,20.7,2.2,29.11,WNW,292,2.9,2.9,44,0.00,,---,0.00,VWS V14.01,2013-02-02 21:46:00,
2013-02-02 16:47:00,20.7,2.2,29.11,West,270,3.6,3.6,44,0.00,,---,0.00,VWS V14.01,2013-02-02 21:47:00,
2013-02-02 16:48:00,20.7,2.2,29.11,WNW,292,3.6,3.6,44,0.00,,---,0.00,VWS V14.01,2013-02-02 21:48:00,
2013-02-02 16:49:00,20.5,1.5,29.12,WNW,292,2.9,3.6,43,0.00,,---,0.00,VWS V14.01,2013-02-02 21:49:00,
2013-02-02 16:50:00,20.5,1.5,29.11,WNW,292,2.0,2.9,43,0.00,,---,0.00,VWS V14.01,2013-02-02 21:50:00,
2013-02-02 16:51:00,20.5,1.5,29.11,WSW,248,2.9,2.9,43,0.00,,---,0.00,VWS V14.01,2013-02-02 21:51:00,
2013-02-02 16:52:00,20.5,1.5,29.11,WSW,248,3.8,3.8,43,0.00,,---,0.00,VWS V14.01,2013-02-02 21:52:00,
2013-02-02 16:53:00,20.5,2.0,29.11,WNW,292,2.7,3.8,44,0.00,,---,0.00,VWS V14.01,2013-02-02 21:53:00,
2013-02-02 16:54:00,20.5,2.0,29.12,WNW,292,2.7,2.7,44,0.00,,---,0.00,VWS V14.01,2013-02-02 21:54:00,
2013-02-02 16:55:00,20.5,2.0,29.11,WNW,292,3.6,3.6,44,0.00,,---,0.00,VWS V14.01,2013-02-02 21:55:00,
2013-02-02 16:56:00,20.5,2.0,29.11,WSW,248,3.6,3.6,44,0.00,,---,0.00,VWS V14.01,2013-02-02 21:56:00,
2013-02-02 16:57:00,20.5,2.0,29.11,WSW,248,2.7,3.6,44,0.00,,---,0.00,VWS V14.01,2013-02-02 21:57:00,
2013-02-02 16:58:00,20.5,2.0,29.11,West,270,2.9,2.9,44,0.00,,---,0.00,VWS V14.01,2013-02-02 21:58:00,
2013-02-02 16:59:00,20.5,2.0,29.12,WSW,248,2.9,2.9,44,0.00,,---,0.00,VWS V14.01,2013-02-02 21:59:00,
2013-02-02 17:00:00,20.5,2.0,29.11,WSW,248,2.7,2.9,44,0.00,,---,0.00,VWS V14.01,2013-02-02 22:00:00,
2013-02-02 17:01:00,20.5,2.0,29.11,WNW,292,3.4,3.4,44,0.00,,---,0.00,VWS V14.01,2013-02-02 22:01:00,
2013-02-02 17:02:00,20.5,2.0,29.11,WNW,292,3.6,3.6,44,0.00,,---,0.00,VWS V14.01,2013-02-02 22:02:00,
2013-02-02 17:03:00,20.3,1.9,29.11,WNW,292,1.3,3.6,44,0.00,,---,0.00,VWS V14.01,2013-02-02 22:03:00,
2013-02-02 17:04:00,20.3,1.9,29.12,West,270,2.7,2.7,44,0.00,,---,0.00,VWS V14.01,2013-02-02 22:04:00,
2013-02-02 17:05:00,20.3,1.9,29.11,WSW,248,3.8,3.8,44,0.00,,---,0.00,VWS V14.01,2013-02-02 22:05:00,
2013-02-02 17:06:00,20.3,1.9,29.11,WSW,248,3.8,3.8,44,0.00,,---,0.00,VWS V14.01,2013-02-02 22:06:00,
2013-02-02 17:07:00,20.3,1.9,29.11,WNW,292,2.9,3.8,44,0.00,,---,0.00,VWS V14.01,2013-02-02 22:07:00,
2013-02-02 17:08:00,20.3,1.9,29.15,WNW,292,2.9,2.9,44,0.00,,---,0.00,VWS V14.01,2013-02-02 22:08:00,
2013-02-02 17:09:00,20.3,1.9,29.14,WNW,292,2.5,2.9,44,0.00,,---,0.00,VWS V14.01,2013-02-02 22:09:00,
2013-02-02 17:10:00,20.3,1.9,29.15,West,270,2.7,2.7,44,0.00,,---,0.00,VWS V14.01,2013-02-02 22:10:00,
2013-02-02 17:11:00,20.3,1.9,29.15,WSW,248,2.0,2.7,44,0.00,,---,0.00,VWS V14.01,2013-02-02 22:11:00,
2013-02-02 17:12:00,20.3,1.9,29.15,WSW,248,1.6,2.0,44,0.00,,---,0.00,VWS V14.01,2013-02-02 22:12:00,
2013-02-02 17:13:00,20.3,1.9,29.15,WSW,248,3.1,3.1,44,0.00,,---,0.00,VWS V14.01,2013-02-02 22:13:00,
2013-02-02 17:14:00,20.3,1.9,29.14,WSW,248,2.5,3.1,44,0.00,,---,0.00,VWS V14.01,2013-02-02 22:14:00,
2013-02-02 17:15:00,20.3,1.9,29.15,WSW,248,3.4,3.4,44,0.00,,---,0.00,VWS V14.01,2013-02-02 22:15:00,
2013-02-02 17:16:00,20.3,1.9,29.15,WSW,248,3.8,3.8,44,0.00,,---,0.00,VWS V14.01,2013-02-02 22:16:00,
2013-02-02 17:17:00,20.1,1.7,29.15,WSW,248,2.9,3.8,44,0.00,,---,0.00,VWS V14.01,2013-02-02 22:17:00,
2013-02-02 17:18:00,20.1,1.7,29.15,WNW,292,2.7,2.9,44,0.00,,---,0.00,VWS V14.01,2013-02-02 22:18:00,
2013-02-02 17:19:00,20.1,1.7,29.14,West,270,2.0,2.7,44,0.00,,---,0.00,VWS V14.01,2013-02-02 22:19:00,
2013-02-02 17:20:00,20.1,1.7,29.15,WSW,248,3.6,3.6,44,0.00,,---,0.00,VWS V14.01,2013-02-02 22:20:00,
2013-02-02 17:21:00,20.1,2.2,29.15,West,270,2.7,3.6,45,0.00,,---,0.00,VWS V14.01,2013-02-02 22:21:00,
2013-02-02 17:22:00,20.1,2.2,29.15,WSW,248,2.5,2.7,45,0.00,,---,0.00,VWS V14.01,2013-02-02 22:22:00,
2013-02-02 17:23:00,20.1,2.2,29.11,WSW,248,1.3,2.5,45,0.00,,---,0.00,VWS V14.01,2013-02-02 22:23:00,
2013-02-02 17:24:00,20.1,2.2,29.12,West,270,2.5,2.5,45,0.00,,---,0.00,VWS V14.01,2013-02-02 22:24:00,
2013-02-02 17:25:00,20.1,2.2,29.11,WSW,248,2.7,2.7,45,0.00,,---,0.00,VWS V14.01,2013-02-02 22:25:00,
2013-02-02 17:26:00,20.1,2.2,29.11,WNW,292,3.8,4.0,45,0.00,,---,0.00,VWS V14.01,2013-02-02 22:26:00,
2013-02-02 17:27:00,20.1,2.2,29.11,WNW,292,4.3,4.3,45,0.00,,---,0.00,VWS V14.01,2013-02-02 22:27:00,
2013-02-02 17:28:00,19.9,2.0,29.11,West,270,2.7,4.3,45,0.00,,---,0.00,VWS V14.01,2013-02-02 22:28:00,
2013-02-02 17:29:00,19.9,2.0,29.12,WNW,292,2.7,2.7,45,0.00,,---,0.00,VWS V14.01,2013-02-02 22:29:00,
2013-02-02 17:30:00,19.9,2.0,29.11,WNW,292,2.2,2.7,45,0.00,,---,0.00,VWS V14.01,2013-02-02 22:30:00,
2013-02-02 17:31:00,20.1,2.2,29.11,WNW,292,2.2,2.2,45,0.00,,---,0.00,VWS V14.01,2013-02-02 22:31:00,
2013-02-02 17:32:00,20.1,2.2,29.11,West,270,1.3,2.2,45,0.00,,---,0.00,VWS V14.01,2013-02-02 22:32:00,
2013-02-02 17:33:00,20.1,2.2,29.12,WSW,248,2.5,2.5,45,0.00,,---,0.00,VWS V14.01,2013-02-02 22:33:00,
2013-02-02 17:34:00,20.1,2.2,29.11,NW,315,3.4,3.4,45,0.00,,---,0.00,VWS V14.01,2013-02-02 22:34:00,
2013-02-02 17:35:00,19.9,2.0,29.11,WSW,248,3.4,3.4,45,0.00,,---,0.00,VWS V14.01,2013-02-02 22:35:00,
2013-02-02 17:36:00,19.9,2.0,29.11,WSW,248,2.0,3.4,45,0.00,,---,0.00,VWS V14.01,2013-02-02 22:36:00,
2013-02-02 17:37:00,19.9,2.0,29.11,WSW,248,0.9,2.0,45,0.00,,---,0.00,VWS V14.01,2013-02-02 22:37:00,
2013-02-02 17:38:00,19.9,2.0,29.12,WSW,248,2.9,2.9,45,0.00,,---,0.00,VWS V14.01,2013-02-02 22:38:00,
2013-02-02 17:39:00,19.9,2.0,29.11,WSW,248,2.9,2.9,45,0.00,,---,0.00,VWS V14.01,2013-02-02 22:39:00,
2013-02-02 17:40:00,19.9,2.0,29.11,WSW,248,4.0,4.0,45,0.00,,---,0.00,VWS V14.01,2013-02-02 22:40:00,
2013-02-02 17:41:00,19.9,2.0,29.11,WSW,248,2.5,4.0,45,0.00,,---,0.00,VWS V14.01,2013-02-02 22:41:00,
2013-02-02 17:42:00,19.9,2.0,29.11,WSW,248,1.3,2.5,45,0.00,,---,0.00,VWS V14.01,2013-02-02 22:42:00,
2013-02-02 17:43:00,19.8,1.9,29.12,West,270,2.7,3.6,45,0.00,,---,0.00,VWS V14.01,2013-02-02 22:43:00,
2013-02-02 17:44:00,19.8,1.9,29.11,South,180,2.5,3.6,45,0.00,,---,0.00,VWS V14.01,2013-02-02 22:44:00,
2013-02-02 17:45:00,19.8,1.9,29.11,South,180,2.5,2.5,45,0.00,,---,0.00,VWS V14.01,2013-02-02 22:45:00,
2013-02-02 17:46:00,19.8,1.9,29.11,WSW,248,4.0,4.0,45,0.00,,---,0.00,VWS V14.01,2013-02-02 22:46:00,
2013-02-02 17:47:00,19.8,1.9,29.11,WSW,248,2.5,4.0,45,0.00,,---,0.00,VWS V14.01,2013-02-02 22:47:00,
2013-02-02 17:48:00,19.8,2.3,29.12,WNW,292,2.7,2.7,46,0.00,,---,0.00,VWS V14.01,2013-02-02 22:48:00,
2013-02-02 17:49:00,19.8,2.3,29.11,WNW,292,2.7,2.7,46,0.00,,---,0.00,VWS V14.01,2013-02-02 22:49:00,
2013-02-02 17:50:00,19.8,2.3,29.11,WNW,292,2.7,2.7,46,0.00,,---,0.00,VWS V14.01,2013-02-02 22:50:00,
2013-02-02 17:51:00,19.6,2.2,29.11,SSW,202,3.8,4.3,46,0.00,,---,0.00,VWS V14.01,2013-02-02 22:51:00,
2013-02-02 17:52:00,19.6,2.2,29.11,WSW,248,2.9,3.8,46,0.00,,---,0.00,VWS V14.01,2013-02-02 22:52:00,
2013-02-02 17:53:00,19.6,2.2,29.12,West,270,2.5,2.5,46,0.00,,---,0.00,VWS V14.01,2013-02-02 22:53:00,
2013-02-02 17:54:00,19.6,2.2,29.11,West,270,2.5,2.5,46,0.00,,---,0.00,VWS V14.01,2013-02-02 22:54:00,
2013-02-02 17:55:00,19.6,2.2,29.11,WSW,248,2.5,2.5,46,0.00,,---,0.00,VWS V14.01,2013-02-02 22:55:00,
2013-02-02 17:56:00,19.6,2.2,29.11,WSW,248,3.1,3.1,46,0.00,,---,0.00,VWS V14.01,2013-02-02 22:56:00,
2013-02-02 17:57:00,19.6,2.2,29.11,WNW,292,2.9,3.1,46,0.00,,---,0.00,VWS V14.01,2013-02-02 22:57:00,
2013-02-02 17:58:00,19.6,2.2,29.12,West,270,0.0,2.0,46,0.00,,---,0.00,VWS V14.01,2013-02-02 22:58:00,
2013-02-02 17:59:00,19.6,2.2,29.11,West,270,0.0,2.0,46,0.00,,---,0.00,VWS V14.01,2013-02-02 22:59:00,
2013-02-02 18:00:00,19.6,2.2,29.11,SW,225,2.5,2.5,46,0.00,,---,0.00,VWS V14.01,2013-02-02 23:00:00,
2013-02-02 18:01:00,19.6,2.2,29.11,SW,225,2.5,2.5,46,0.00,,---,0.00,VWS V14.01,2013-02-02 23:01:00,
2013-02-02 18:02:00,19.4,2.5,29.11,WSW,248,2.5,2.5,47,0.00,,---,0.00,VWS V14.01,2013-02-02 23:02:00,
2013-02-02 18:03:00,19.4,2.5,29.12,WNW,292,0.0,0.0,47,0.00,,---,0.00,VWS V14.01,2013-02-02 23:03:00,
2013-02-02 18:04:00,19.4,2.5,29.11,WNW,292,0.0,0.0,47,0.00,,---,0.00,VWS V14.01,2013-02-02 23:04:00,
2013-02-02 18:05:00,19.4,2.5,29.11,WNW,292,0.0,0.0,47,0.00,,---,0.00,VWS V14.01,2013-02-02 23:05:00,
2013-02-02 18:06:00,19.4,2.5,29.11,WNW,292,0.0,0.0,47,0.00,,---,0.00,VWS V14.01,2013-02-02 23:06:00,
2013-02-02 18:07:00,19.4,2.5,29.11,WNW,292,0.0,0.0,47,0.00,,---,0.00,VWS V14.01,2013-02-02 23:07:00,
2013-02-02 18:08:00,19.2,2.3,29.14,WNW,292,0.0,1.6,47,0.00,,---,0.00,VWS V14.01,2013-02-02 23:08:00,
2013-02-02 18:09:00,19.2,2.3,29.15,WNW,292,0.0,1.6,47,0.00,,---,0.00,VWS V14.01,2013-02-02 23:09:00,
2013-02-02 18:10:00,19.2,2.3,29.15,WNW,292,0.0,0.0,47,0.00,,---,0.00,VWS V14.01,2013-02-02 23:10:00,
2013-02-02 18:11:00,19.2,2.3,29.15,WNW,292,0.0,0.0,47,0.00,,---,0.00,VWS V14.01,2013-02-02 23:11:00,
2013-02-02 18:12:00,19.2,2.3,29.15,WNW,292,0.0,0.0,47,0.00,,---,0.00,VWS V14.01,2013-02-02 23:12:00,
2013-02-02 18:13:00,19.2,2.3,29.14,WSW,248,2.9,2.9,47,0.00,,---,0.00,VWS V14.01,2013-02-02 23:13:00,
2013-02-02 18:14:00,19.2,2.3,29.15,WSW,248,0.0,2.9,47,0.00,,---,0.00,VWS V14.01,2013-02-02 23:14:00,
2013-02-02 18:15:00,19.2,2.3,29.15,WSW,248,0.0,0.0,47,0.00,,---,0.00,VWS V14.01,2013-02-02 23:15:00,
2013-02-02 18:16:00,19.2,2.3,29.15,WSW,248,0.0,0.0,47,0.00,,---,0.00,VWS V14.01,2013-02-02 23:16:00,
2013-02-02 18:17:00,19.2,2.3,29.15,WSW,248,0.0,0.0,47,0.00,,---,0.00,VWS V14.01,2013-02-02 23:17:00,
2013-02-02 18:18:00,19.2,2.3,29.14,WSW,248,0.0,0.0,47,0.00,,---,0.00,VWS V14.01,2013-02-02 23:18:00,
2013-02-02 18:19:00,19.2,2.3,29.15,WSW,248,0.0,0.0,47,0.00,,---,0.00,VWS V14.01,2013-02-02 23:19:00,
2013-02-02 18:20:00,19.2,2.3,29.15,WSW,248,0.0,0.0,47,0.00,,---,0.00,VWS V14.01,2013-02-02 23:20:00,
2013-02-02 18:21:00,19.2,2.3,29.15,WSW,248,1.1,1.1,47,0.00,,---,0.00,VWS V14.01,2013-02-02 23:21:00,
2013-02-02 18:22:00,19.2,2.3,29.15,WNW,292,2.5,2.5,47,0.00,,---,0.00,VWS V14.01,2013-02-02 23:22:00,
2013-02-02 18:23:00,19.2,2.3,29.14,WNW,292,1.6,1.6,47,0.00,,---,0.00,VWS V14.01,2013-02-02 23:23:00,
2013-02-02 18:24:00,19.2,2.3,29.15,WNW,292,1.6,1.6,47,0.00,,---,0.00,VWS V14.01,2013-02-02 23:24:00,
2013-02-02 18:25:00,19.2,2.3,29.15,WNW,292,0.0,1.6,47,0.00,,---,0.00,VWS V14.01,2013-02-02 23:25:00,
2013-02-02 18:26:00,19.0,2.6,29.15,WNW,292,0.0,0.0,48,0.00,,---,0.00,VWS V14.01,2013-02-02 23:26:00,
2013-02-02 18:27:00,19.0,2.6,29.15,WNW,292,2.0,2.0,48,0.00,,---,0.00,VWS V14.01,2013-02-02 23:27:00,
2013-02-02 18:28:00,19.0,2.6,29.14,WNW,292,2.0,2.0,48,0.00,,---,0.00,VWS V14.01,2013-02-02 23:28:00,
2013-02-02 18:29:00,19.0,2.6,29.15,WNW,292,2.0,2.0,48,0.00,,---,0.00,VWS V14.01,2013-02-02 23:29:00,
2013-02-02 18:30:00,19.2,2.8,29.15,West,270,2.7,2.7,48,0.00,,---,0.00,VWS V14.01,2013-02-02 23:30:00,
2013-02-02 18:31:00,19.2,2.8,29.15,WSW,248,2.5,2.7,48,0.00,,---,0.00,VWS V14.01,2013-02-02 23:31:00,
2013-02-02 18:32:00,19.0,2.6,29.15,WSW,248,3.6,3.6,48,0.00,,---,0.00,VWS V14.01,2013-02-02 23:32:00,
2013-02-02 18:33:00,19.0,2.6,29.14,West,270,1.6,3.6,48,0.00,,---,0.00,VWS V14.01,2013-02-02 23:33:00,
2013-02-02 18:34:00,19.0,2.6,29.15,West,270,1.6,3.6,48,0.00,,---,0.00,VWS V14.01,2013-02-02 23:34:00,
2013-02-02 18:35:00,19.0,2.6,29.15,WNW,292,3.8,3.8,48,0.00,,---,0.00,VWS V14.01,2013-02-02 23:35:00,
2013-02-02 18:36:00,19.2,2.3,29.15,WNW,292,2.2,3.8,47,0.00,,---,0.00,VWS V14.01,2013-02-02 23:36:00,
2013-02-02 18:37:00,19.2,2.3,29.15,WNW,292,0.9,2.2,47,0.00,,---,0.00,VWS V14.01,2013-02-02 23:37:00,
2013-02-02 18:38:00,19.2,2.3,29.12,WNW,292,3.1,3.1,47,0.00,,---,0.00,VWS V14.01,2013-02-02 23:38:00,
2013-02-02 18:39:00,19.2,2.3,29.11,WNW,292,3.1,3.1,47,0.00,,---,0.00,VWS V14.01,2013-02-02 23:39:00,
2013-02-02 18:40:00,19.2,2.3,29.11,WNW,292,4.5,4.5,47,0.00,,---,0.00,VWS V14.01,2013-02-02 23:40:00,
2013-02-02 18:41:00,19.2,2.3,29.11,WSW,248,2.9,4.5,47,0.00,,---,0.00,VWS V14.01,2013-02-02 23:41:00,
2013-02-02 18:42:00,19.4,2.0,29.11,WSW,248,2.9,2.9,46,0.00,,---,0.00,VWS V14.01,2013-02-02 23:42:00,
2013-02-02 18:43:00,19.4,2.0,29.12,WNW,292,3.1,3.8,46,0.00,,---,0.00,VWS V14.01,2013-02-02 23:43:00,
2013-02-02 18:44:00,19.4,2.0,29.11,WNW,292,3.1,3.8,46,0.00,,---,0.00,VWS V14.01,2013-02-02 23:44:00,
2013-02-02 18:45:00,19.4,2.0,29.11,WNW,292,3.1,3.1,46,0.00,,---,0.00,VWS V14.01,2013-02-02 23:45:00,
2013-02-02 18:46:00,19.4,2.0,29.11,WNW,292,3.1,3.1,46,0.00,,---,0.00,VWS V14.01,2013-02-02 23:46:00,
2013-02-02 18:47:00,19.2,1.8,29.11,West,270,1.3,3.1,46,0.00,,---,0.00,VWS V14.01,2013-02-02 23:47:00,
2013-02-02 18:48:00,19.2,1.8,29.12,West,270,1.3,1.3,46,0.00,,---,0.00,VWS V14.01,2013-02-02 23:48:00,
2013-02-02 18:49:00,19.2,1.8,29.11,West,270,1.3,1.3,46,0.00,,---,0.00,VWS V14.01,2013-02-02 23:49:00,
2013-02-02 18:50:00,19.2,1.8,29.11,West,270,2.7,2.7,46,0.00,,---,0.00,VWS V14.01,2013-02-02 23:50:00,
2013-02-02 18:51:00,19.2,2.3,29.11,WNW,292,2.5,2.7,47,0.00,,---,0.00,VWS V14.01,2013-02-02 23:51:00,
2013-02-02 18:52:00,19.2,2.3,29.11,WNW,292,3.1,3.1,47,0.00,,---,0.00,VWS V14.01,2013-02-02 23:52:00,
2013-02-02 18:53:00,19.2,1.8,29.12,WNW,292,2.5,3.1,46,0.00,,---,0.00,VWS V14.01,2013-02-02 23:53:00,
2013-02-02 18:54:00,19.2,1.8,29.11,WNW,292,2.5,3.1,46,0.00,,---,0.00,VWS V14.01,2013-02-02 23:54:00,
2013-02-02 18:55:00,19.2,1.8,29.11,WNW,292,1.1,2.5,46,0.00,,---,0.00,VWS V14.01,2013-02-02 23:55:00,
2013-02-02 18:56:00,19.0,2.1,29.11,WNW,292,1.3,1.3,47,0.00,,---,0.00,VWS V14.01,2013-02-02 23:56:00,
2013-02-02 18:57:00,19.0,2.1,29.11,WNW,292,2.9,2.9,47,0.00,,---,0.00,VWS V14.01,2013-02-02 23:57:00,
2013-02-02 18:58:00,19.0,2.1,29.12,West,270,2.9,3.4,47,0.00,,---,0.00,VWS V14.01,2013-02-02 23:58:00,
2013-02-02 18:59:00,19.0,2.1,29.11,West,270,2.9,3.4,47,0.00,,---,0.00,VWS V14.01,2013-02-02 23:59:00,
2013-02-02 19:00:00,19.2,2.3,29.11,WNW,292,2.7,2.9,47,0.00,,---,0.00,VWS V14.01,2013-02-03 00:00:00,
2013-02-02 19:01:00,19.2,2.3,29.11,WNW,292,1.6,2.7,47,0.00,,---,0.00,VWS V14.01,2013-02-03 00:01:00,
2013-02-02 19:02:00,19.2,2.3,29.11,WSW,248,2.2,2.2,47,0.00,,---,0.00,VWS V14.01,2013-02-03 00:02:00,
2013-02-02 19:03:00,19.2,2.3,29.12,WSW,248,2.7,2.7,47,0.00,,---,0.00,VWS V14.01,2013-02-03 00:03:00,
2013-02-02 19:04:00,19.2,2.3,29.11,WSW,248,2.7,2.7,47,0.00,,---,0.00,VWS V14.01,2013-02-03 00:04:00,
2013-02-02 19:05:00,19.0,2.1,29.11,WSW,248,1.6,2.7,47,0.00,,---,0.00,VWS V14.01,2013-02-03 00:05:00,
2013-02-02 19:06:00,19.0,2.1,29.11,WSW,248,0.0,1.6,47,0.00,,---,0.00,VWS V14.01,2013-02-03 00:06:00,
2013-02-02 19:07:00,18.9,2.0,29.11,WNW,292,2.5,2.5,47,0.00,,---,0.00,VWS V14.01,2013-02-03 00:07:00,
2013-02-02 19:08:00,18.9,2.0,29.12,WNW,292,3.4,3.4,47,0.00,,---,0.00,VWS V14.01,2013-02-03 00:08:00,
2013-02-02 19:09:00,18.9,2.0,29.11,WSW,248,3.8,3.8,47,0.00,,---,0.00,VWS V14.01,2013-02-03 00:09:00,
2013-02-02 19:10:00,19.0,2.1,29.11,WSW,248,3.8,3.8,47,0.00,,---,0.00,VWS V14.01,2013-02-03 00:10:00,
2013-02-02 19:11:00,19.0,2.1,29.11,WSW,248,3.1,3.8,47,0.00,,---,0.00,VWS V14.01,2013-02-03 00:11:00,
2013-02-02 19:12:00,19.0,2.1,29.11,West,270,2.0,3.1,47,0.00,,---,0.00,VWS V14.01,2013-02-03 00:12:00,
2013-02-02 19:13:00,19.0,1.7,29.12,NW,315,1.6,1.6,46,0.00,,---,0.00,VWS V14.01,2013-02-03 00:13:00,
2013-02-02 19:14:00,19.0,1.7,29.11,NNW,338,0.0,1.6,46,0.00,,---,0.00,VWS V14.01,2013-02-03 00:14:00,
2013-02-02 19:15:00,19.0,1.7,29.11,NNW,338,0.0,0.0,46,0.00,,---,0.00,VWS V14.01,2013-02-03 00:15:00,
2013-02-02 19:16:00,19.0,1.7,29.11,SE,135,3.1,3.1,46,0.00,,---,0.00,VWS V14.01,2013-02-03 00:16:00,
2013-02-02 19:17:00,18.7,1.8,29.11,NW,315,2.9,3.1,47,0.00,,---,0.00,VWS V14.01,2013-02-03 00:17:00,
2013-02-02 19:18:00,18.7,1.8,29.12,WSW,248,3.8,3.8,47,0.00,,---,0.00,VWS V14.01,2013-02-03 00:18:00,
2013-02-02 19:19:00,18.7,1.8,29.11,WSW,248,0.0,3.8,47,0.00,,---,0.00,VWS V14.01,2013-02-03 00:19:00,
2013-02-02 19:20:00,18.7,1.8,29.11,WSW,248,0.0,0.0,47,0.00,,---,0.00,VWS V14.01,2013-02-03 00:20:00,
2013-02-02 19:21:00,18.5,1.6,29.11,ESE,112,2.9,2.9,47,0.00,,---,0.00,VWS V14.01,2013-02-03 00:21:00,
2013-02-02 19:22:00,18.5,1.6,29.11,ESE,112,0.0,2.9,47,0.00,,---,0.00,VWS V14.01,2013-02-03 00:22:00,
2013-02-02 19:23:00,18.5,1.6,29.12,ESE,112,0.0,0.0,47,0.00,,---,0.00,VWS V14.01,2013-02-03 00:23:00,
2013-02-02 19:24:00,18.3,1.5,29.11,ESE,112,0.0,0.0,47,0.00,,---,0.00,VWS V14.01,2013-02-03 00:24:00,
2013-02-02 19:25:00,18.3,1.5,29.11,SE,135,3.8,3.8,47,0.00,,---,0.00,VWS V14.01,2013-02-03 00:25:00,
2013-02-02 19:26:00,18.3,1.5,29.11,SE,135,3.8,3.8,47,0.00,,---,0.00,VWS V14.01,2013-02-03 00:26:00,
2013-02-02 19:27:00,18.3,1.5,29.11,SE,135,1.1,3.8,47,0.00,,---,0.00,VWS V14.01,2013-02-03 00:27:00,
2013-02-02 19:28:00,18.3,1.5,29.12,SE,135,0.0,0.0,47,0.00,,---,0.00,VWS V14.01,2013-02-03 00:28:00,
2013-02-02 19:29:00,18.3,1.5,29.11,SE,135,0.0,0.0,47,0.00,,---,0.00,VWS V14.01,2013-02-03 00:29:00,
2013-02-02 19:30:00,18.1,1.3,29.11,SE,135,0.0,0.0,47,0.00,,---,0.00,VWS V14.01,2013-02-03 00:30:00,
2013-02-02 19:31:00,18.1,1.3,29.11,SE,135,0.0,0.0,47,0.00,,---,0.00,VWS V14.01,2013-02-03 00:31:00,
2013-02-02 19:32:00,18.1,1.3,29.11,SE,135,0.0,0.0,47,0.00,,---,0.00,VWS V14.01,2013-02-03 00:32:00,
2013-02-02 19:33:00,18.1,1.8,29.12,ESE,112,2.5,2.5,48,0.00,,---,0.00,VWS V14.01,2013-02-03 00:33:00,
2013-02-02 19:34:00,18.1,1.8,29.11,ESE,112,1.6,2.5,48,0.00,,---,0.00,VWS V14.01,2013-02-03 00:34:00,
2013-02-02 19:35:00,18.1,1.8,29.11,East,90,1.3,1.6,48,0.00,,---,0.00,VWS V14.01,2013-02-03 00:35:00,
2013-02-02 19:36:00,18.1,1.8,29.11,East,90,0.0,1.3,48,0.00,,---,0.00,VWS V14.01,2013-02-03 00:36:00,
2013-02-02 19:37:00,18.1,1.8,29.11,ENE,68,1.3,1.3,48,0.00,,---,0.00,VWS V14.01,2013-02-03 00:37:00,
2013-02-02 19:38:00,18.1,1.8,29.12,ENE,68,2.5,2.5,48,0.00,,---,0.00,VWS V14.01,2013-02-03 00:38:00,
2013-02-02 19:39:00,18.1,1.8,29.11,ENE,68,1.6,2.5,48,0.00,,---,0.00,VWS V14.01,2013-02-03 00:39:00,
2013-02-02 19:40:00,18.1,1.8,29.11,ENE,68,2.0,2.0,48,0.00,,---,0.00,VWS V14.01,2013-02-03 00:40:00,
2013-02-02 19:41:00,18.1,1.8,29.11,ENE,68,2.0,2.0,48,0.00,,---,0.00,VWS V14.01,2013-02-03 00:41:00,
2013-02-02 19:42:00,17.8,1.4,29.11,ENE,68,0.0,2.0,48,0.00,,---,0.00,VWS V14.01,2013-02-03 00:42:00,
2013-02-02 19:43:00,17.8,1.9,29.12,ENE,68,1.3,2.0,49,0.00,,---,0.00,VWS V14.01,2013-02-03 00:43:00,
2013-02-02 19:44:00,17.8,1.9,29.11,ENE,68,1.3,2.0,49,0.00,,---,0.00,VWS V14.01,2013-02-03 00:44:00,
2013-02-02 19:45:00,17.8,1.9,29.11,ENE,68,2.5,2.5,49,0.00,,---,0.00,VWS V14.01,2013-02-03 00:45:00,
2013-02-02 19:46:00,17.8,1.9,29.11,ENE,68,2.0,2.5,49,0.00,,---,0.00,VWS V14.01,2013-02-03 00:46:00,
2013-02-02 19:47:00,17.6,1.7,29.11,ENE,68,1.6,2.0,49,0.00,,---,0.00,VWS V14.01,2013-02-03 00:47:00,
2013-02-02 19:48:00,17.6,1.7,29.12,ENE,68,1.3,2.2,49,0.00,,---,0.00,VWS V14.01,2013-02-03 00:48:00,
2013-02-02 19:49:00,17.6,1.7,29.11,ENE,68,1.3,2.2,49,0.00,,---,0.00,VWS V14.01,2013-02-03 00:49:00,
2013-02-02 19:50:00,17.6,1.7,29.11,ENE,68,2.0,2.0,49,0.00,,---,0.00,VWS V14.01,2013-02-03 00:50:00,
2013-02-02 19:51:00,17.6,1.7,29.11,ENE,68,0.0,2.0,49,0.00,,---,0.00,VWS V14.01,2013-02-03 00:51:00,
2013-02-02 19:52:00,17.6,1.7,29.11,ENE,68,0.0,0.0,49,0.00,,---,0.00,VWS V14.01,2013-02-03 00:52:00,
2013-02-02 19:53:00,17.4,1.5,29.12,ENE,68,1.1,1.1,49,0.00,,---,0.00,VWS V14.01,2013-02-03 00:53:00,
2013-02-02 19:54:00,17.4,1.5,29.11,ENE,68,1.1,1.1,49,0.00,,---,0.00,VWS V14.01,2013-02-03 00:54:00,
2013-02-02 19:55:00,17.4,1.5,29.11,ENE,68,0.0,1.1,49,0.00,,---,0.00,VWS V14.01,2013-02-03 00:55:00,
2013-02-02 19:56:00,17.4,2.0,29.11,ENE,68,2.2,2.2,50,0.00,,---,0.00,VWS V14.01,2013-02-03 00:56:00,
2013-02-02 19:57:00,17.4,2.0,29.11,East,90,1.1,2.2,50,0.00,,---,0.00,VWS V14.01,2013-02-03 00:57:00,
2013-02-02 19:58:00,17.4,2.0,29.12,East,90,1.3,1.3,50,0.00,,---,0.00,VWS V14.01,2013-02-03 00:58:00,
2013-02-02 19:59:00,17.4,2.0,29.11,East,90,0.0,1.3,50,0.00,,---,0.00,VWS V14.01,2013-02-03 00:59:00,
2013-02-02 20:00:00,17.4,2.0,29.11,East,90,0.0,0.0,50,0.00,,---,0.00,VWS V14.01,2013-02-03 01:00:00,
2013-02-02 20:01:00,17.4,2.0,29.11,East,90,0.0,0.0,50,0.00,,---,0.00,VWS V14.01,2013-02-03 01:01:00,
2013-02-02 20:02:00,17.2,1.8,29.11,East,90,0.0,0.0,50,0.00,,---,0.00,VWS V14.01,2013-02-03 01:02:00,
2013-02-02 20:03:00,17.2,1.8,29.12,East,90,0.0,0.0,50,0.00,,---,0.00,VWS V14.01,2013-02-03 01:03:00,
2013-02-02 20:04:00,17.2,1.8,29.11,East,90,0.0,0.0,50,0.00,,---,0.00,VWS V14.01,2013-02-03 01:04:00,
2013-02-02 20:05:00,17.2,1.8,29.11,East,90,0.0,0.0,50,0.00,,---,0.00,VWS V14.01,2013-02-03 01:05:00,
2013-02-02 20:06:00,17.2,1.8,29.11,East,90,0.0,0.0,50,0.00,,---,0.00,VWS V14.01,2013-02-03 01:06:00,
2013-02-02 20:07:00,17.1,1.6,29.11,East,90,0.0,0.0,50,0.00,,---,0.00,VWS V14.01,2013-02-03 01:07:00,
2013-02-02 20:08:00,17.2,1.8,29.12,East,90,0.0,0.0,50,0.00,,---,0.00,VWS V14.01,2013-02-03 01:08:00,
2013-02-02 20:09:00,17.2,1.8,29.11,East,90,0.0,0.0,50,0.00,,---,0.00,VWS V14.01,2013-02-03 01:09:00,
2013-02-02 20:10:00,17.1,1.6,29.11,East,90,0.0,0.0,50,0.00,,---,0.00,VWS V14.01,2013-02-03 01:10:00,
2013-02-02 20:11:00,17.1,1.6,29.11,East,90,0.0,0.0,50,0.00,,---,0.00,VWS V14.01,2013-02-03 01:11:00,
2013-02-02 20:12:00,17.1,1.6,29.11,East,90,0.0,0.0,50,0.00,,---,0.00,VWS V14.01,2013-02-03 01:12:00,
2013-02-02 20:13:00,17.1,1.6,29.12,East,90,0.0,0.0,50,0.00,,---,0.00,VWS V14.01,2013-02-03 01:13:00,
2013-02-02 20:14:00,17.1,1.6,29.11,East,90,0.0,0.0,50,0.00,,---,0.00,VWS V14.01,2013-02-03 01:14:00,
2013-02-02 20:15:00,17.1,1.6,29.11,East,90,0.0,0.0,50,0.00,,---,0.00,VWS V14.01,2013-02-03 01:15:00,
2013-02-02 20:16:00,17.1,1.6,29.11,East,90,0.0,0.0,50,0.00,,---,0.00,VWS V14.01,2013-02-03 01:16:00,
2013-02-02 20:17:00,17.1,1.6,29.11,East,90,0.0,0.0,50,0.00,,---,0.00,VWS V14.01,2013-02-03 01:17:00,
2013-02-02 20:18:00,17.1,2.1,29.12,East,90,0.0,0.0,51,0.00,,---,0.00,VWS V14.01,2013-02-03 01:18:00,
2013-02-02 20:19:00,17.1,2.1,29.11,East,90,0.0,0.0,51,0.00,,---,0.00,VWS V14.01,2013-02-03 01:19:00,
2013-02-02 20:20:00,17.1,2.1,29.11,East,90,0.0,0.0,51,0.00,,---,0.00,VWS V14.01,2013-02-03 01:20:00,
2013-02-02 20:21:00,17.1,2.1,29.11,East,90,2.5,2.5,51,0.00,,---,0.00,VWS V14.01,2013-02-03 01:21:00,
2013-02-02 20:22:00,17.1,2.1,29.11,East,90,1.3,2.5,51,0.00,,---,0.00,VWS V14.01,2013-02-03 01:22:00,
2013-02-02 20:23:00,17.1,2.1,29.12,East,90,0.0,1.3,51,0.00,,---,0.00,VWS V14.01,2013-02-03 01:23:00,
2013-02-02 20:24:00,17.1,2.1,29.11,East,90,0.0,0.0,51,0.00,,---,0.00,VWS V14.01,2013-02-03 01:24:00,
2013-02-02 20:25:00,17.1,2.1,29.11,East,90,0.0,0.0,51,0.00,,---,0.00,VWS V14.01,2013-02-03 01:25:00,
2013-02-02 20:26:00,17.1,2.5,29.11,East,90,0.0,0.0,52,0.00,,---,0.00,VWS V14.01,2013-02-03 01:26:00,
2013-02-02 20:27:00,17.1,2.5,29.11,East,90,0.0,0.0,52,0.00,,---,0.00,VWS V14.01,2013-02-03 01:27:00,
2013-02-02 20:28:00,17.1,2.5,29.12,East,90,0.0,0.0,52,0.00,,---,0.00,VWS V14.01,2013-02-03 01:28:00,
2013-02-02 20:29:00,17.1,2.5,29.11,East,90,0.0,0.0,52,0.00,,---,0.00,VWS V14.01,2013-02-03 01:29:00,
2013-02-02 20:30:00,17.1,2.5,29.11,East,90,0.0,0.0,52,0.00,,---,0.00,VWS V14.01,2013-02-03 01:30:00,
2013-02-02 20:31:00,17.1,2.5,29.11,East,90,1.1,1.1,52,0.00,,---,0.00,VWS V14.01,2013-02-03 01:31:00,
2013-02-02 20:32:00,16.9,2.3,29.11,East,90,1.6,1.6,52,0.00,,---,0.00,VWS V14.01,2013-02-03 01:32:00,
2013-02-02 20:33:00,16.9,2.3,29.12,East,90,1.6,1.6,52,0.00,,---,0.00,VWS V14.01,2013-02-03 01:33:00,
2013-02-02 20:34:00,16.9,2.3,29.11,East,90,1.6,1.6,52,0.00,,---,0.00,VWS V14.01,2013-02-03 01:34:00,
2013-02-02 20:35:00,16.7,2.1,29.11,East,90,1.6,1.6,52,0.00,,---,0.00,VWS V14.01,2013-02-03 01:35:00,
2013-02-02 20:36:00,16.7,2.1,29.11,East,90,2.7,2.7,52,0.00,,---,0.00,VWS V14.01,2013-02-03 01:36:00,
2013-02-02 20:37:00,16.7,2.1,29.11,ENE,68,2.2,2.7,52,0.00,,---,0.00,VWS V14.01,2013-02-03 01:37:00,
2013-02-02 20:38:00,16.7,2.5,29.12,ENE,68,2.2,2.2,53,0.00,,---,0.00,VWS V14.01,2013-02-03 01:38:00,
2013-02-02 20:39:00,16.7,2.5,29.11,ENE,68,2.2,2.2,53,0.00,,---,0.00,VWS V14.01,2013-02-03 01:39:00,
2013-02-02 20:40:00,16.7,2.5,29.11,ENE,68,0.0,2.2,53,0.00,,---,0.00,VWS V14.01,2013-02-03 01:40:00,
2013-02-02 20:41:00,16.7,2.5,29.11,ENE,68,0.0,0.0,53,0.00,,---,0.00,VWS V14.01,2013-02-03 01:41:00,
2013-02-02 20:42:00,16.5,2.4,29.11,ENE,68,0.0,0.0,53,0.00,,---,0.00,VWS V14.01,2013-02-03 01:42:00,
2013-02-02 20:43:00,16.5,2.4,29.12,ENE,68,0.0,0.0,53,0.00,,---,0.00,VWS V14.01,2013-02-03 01:43:00,
2013-02-02 20:44:00,16.5,2.0,29.11,ENE,68,0.0,0.0,52,0.00,,---,0.00,VWS V14.01,2013-02-03 01:44:00,
2013-02-02 20:45:00,16.5,2.0,29.11,ENE,68,0.0,0.0,52,0.00,,---,0.00,VWS V14.01,2013-02-03 01:45:00,
2013-02-02 20:46:00,16.3,1.8,29.11,ENE,68,0.0,0.0,52,0.00,,---,0.00,VWS V14.01,2013-02-03 01:46:00,
2013-02-02 20:47:00,16.3,1.8,29.11,ENE,68,0.0,0.0,52,0.00,,---,0.00,VWS V14.01,2013-02-03 01:47:00,
2013-02-02 20:48:00,16.3,2.2,29.12,ENE,68,0.0,0.0,53,0.00,,---,0.00,VWS V14.01,2013-02-03 01:48:00,
2013-02-02 20:49:00,16.3,2.2,29.11,ENE,68,0.0,0.0,53,0.00,,---,0.00,VWS V14.01,2013-02-03 01:49:00,
2013-02-02 20:50:00,16.3,2.2,29.11,ENE,68,0.0,0.0,53,0.00,,---,0.00,VWS V14.01,2013-02-03 01:50:00,
2013-02-02 20:51:00,16.2,2.0,29.11,ENE,68,0.0,0.0,53,0.00,,---,0.00,VWS V14.01,2013-02-03 01:51:00,
2013-02-02 20:52:00,16.2,2.0,29.11,ENE,68,0.0,0.0,53,0.00,,---,0.00,VWS V14.01,2013-02-03 01:52:00,
2013-02-02 20:53:00,16.2,2.0,29.12,ENE,68,0.0,0.0,53,0.00,,---,0.00,VWS V14.01,2013-02-03 01:53:00,
2013-02-02 20:54:00,16.2,2.0,29.11,ENE,68,0.0,0.0,53,0.00,,---,0.00,VWS V14.01,2013-02-03 01:54:00,
2013-02-02 20:55:00,16.3,2.6,29.11,ENE,68,1.3,1.3,54,0.00,,---,0.00,VWS V14.01,2013-02-03 01:55:00,
2013-02-02 20:56:00,16.3,2.2,29.11,ENE,68,0.0,1.3,53,0.00,,---,0.00,VWS V14.01,2013-02-03 01:56:00,
2013-02-02 20:57:00,16.3,2.2,29.11,ENE,68,0.0,0.0,53,0.00,,---,0.00,VWS V14.01,2013-02-03 01:57:00,
2013-02-02 20:58:00,16.2,2.0,29.12,ENE,68,0.0,0.0,53,0.00,,---,0.00,VWS V14.01,2013-02-03 01:58:00,
2013-02-02 20:59:00,16.2,2.0,29.11,ENE,68,0.0,0.0,53,0.00,,---,0.00,VWS V14.01,2013-02-03 01:59:00,
2013-02-02 21:00:00,16.2,2.0,29.11,ENE,68,0.0,0.0,53,0.00,,---,0.00,VWS V14.01,2013-02-03 02:00:00,
2013-02-02 21:01:00,16.0,1.9,29.11,ENE,68,0.0,0.0,53,0.00,,---,0.00,VWS V14.01,2013-02-03 02:01:00,
2013-02-02 21:02:00,16.0,1.9,29.11,ENE,68,0.0,0.0,53,0.00,,---,0.00,VWS V14.01,2013-02-03 02:02:00,
2013-02-02 21:03:00,16.0,1.9,29.12,ENE,68,0.0,0.0,53,0.00,,---,0.00,VWS V14.01,2013-02-03 02:03:00,
2013-02-02 21:04:00,16.0,1.9,29.11,ENE,68,0.0,0.0,53,0.00,,---,0.00,VWS V14.01,2013-02-03 02:04:00,
2013-02-02 21:05:00,16.0,1.9,29.11,ENE,68,0.0,0.0,53,0.00,,---,0.00,VWS V14.01,2013-02-03 02:05:00,
2013-02-02 21:06:00,16.0,1.9,29.11,ENE,68,0.0,0.0,53,0.00,,---,0.00,VWS V14.01,2013-02-03 02:06:00,
2013-02-02 21:07:00,16.0,2.3,29.11,ENE,68,0.0,0.0,54,0.00,,---,0.00,VWS V14.01,2013-02-03 02:07:00,
2013-02-02 21:08:00,16.0,2.3,29.12,ENE,68,2.2,2.2,54,0.00,,---,0.00,VWS V14.01,2013-02-03 02:08:00,
2013-02-02 21:09:00,16.0,2.3,29.11,ENE,68,2.2,2.2,54,0.00,,---,0.00,VWS V14.01,2013-02-03 02:09:00,
2013-02-02 21:10:00,16.0,2.3,29.11,ENE,68,1.1,2.2,54,0.00,,---,0.00,VWS V14.01,2013-02-03 02:10:00,
2013-02-02 21:11:00,16.0,2.3,29.11,ENE,68,0.0,1.1,54,0.00,,---,0.00,VWS V14.01,2013-02-03 02:11:00,
2013-02-02 21:12:00,16.0,2.3,29.11,ENE,68,0.0,1.3,54,0.00,,---,0.00,VWS V14.01,2013-02-03 02:12:00,
2013-02-02 21:13:00,16.0,2.3,29.12,ENE,68,0.0,0.0,54,0.00,,---,0.00,VWS V14.01,2013-02-03 02:13:00,
2013-02-02 21:14:00,16.0,2.3,29.11,ENE,68,0.0,0.0,54,0.00,,---,0.00,VWS V14.01,2013-02-03 02:14:00,
2013-02-02 21:15:00,16.0,2.3,29.11,ENE,68,2.9,2.9,54,0.00,,---,0.00,VWS V14.01,2013-02-03 02:15:00,
2013-02-02 21:16:00,16.0,2.3,29.11,ENE,68,2.2,2.9,54,0.00,,---,0.00,VWS V14.01,2013-02-03 02:16:00,
2013-02-02 21:17:00,16.0,2.3,29.11,ENE,68,1.1,2.2,54,0.00,,---,0.00,VWS V14.01,2013-02-03 02:17:00,
2013-02-02 21:18:00,15.8,2.5,29.12,ENE,68,1.1,1.1,55,0.00,,---,0.00,VWS V14.01,2013-02-03 02:18:00,
2013-02-02 21:19:00,15.8,2.5,29.11,ENE,68,0.0,1.1,55,0.00,,---,0.00,VWS V14.01,2013-02-03 02:19:00,
2013-02-02 21:20:00,15.8,2.5,29.11,ENE,68,0.0,0.0,55,0.00,,---,0.00,VWS V14.01,2013-02-03 02:20:00,
2013-02-02 21:21:00,15.6,2.3,29.11,ENE,68,0.0,0.0,55,0.00,,---,0.00,VWS V14.01,2013-02-03 02:21:00,
2013-02-02 21:22:00,15.6,2.3,29.11,ENE,68,0.0,0.0,55,0.00,,---,0.00,VWS V14.01,2013-02-03 02:22:00,
2013-02-02 21:23:00,15.4,2.2,29.12,ENE,68,0.0,0.0,55,0.00,,---,0.00,VWS V14.01,2013-02-03 02:23:00,
2013-02-02 21:24:00,15.4,2.2,29.11,ENE,68,0.0,0.0,55,0.00,,---,0.00,VWS V14.01,2013-02-03 02:24:00,
2013-02-02 21:25:00,15.4,2.2,29.11,ENE,68,0.0,0.0,55,0.00,,---,0.00,VWS V14.01,2013-02-03 02:25:00,
2013-02-02 21:26:00,15.3,1.6,29.11,ENE,68,0.0,0.0,54,0.00,,---,0.00,VWS V14.01,2013-02-03 02:26:00,
2013-02-02 21:27:00,15.3,1.6,29.11,ENE,68,0.0,0.0,54,0.00,,---,0.00,VWS V14.01,2013-02-03 02:27:00,
2013-02-02 21:28:00,15.1,1.4,29.12,ENE,68,0.0,0.0,54,0.00,,---,0.00,VWS V14.01,2013-02-03 02:28:00,
2013-02-02 21:29:00,15.1,1.4,29.11,ENE,68,0.0,0.0,54,0.00,,---,0.00,VWS V14.01,2013-02-03 02:29:00,
2013-02-02 21:30:00,15.1,1.4,29.11,ENE,68,0.0,0.0,54,0.00,,---,0.00,VWS V14.01,2013-02-03 02:30:00,
2013-02-02 21:31:00,15.1,1.4,29.11,ENE,68,0.0,0.0,54,0.00,,---,0.00,VWS V14.01,2013-02-03 02:31:00,
2013-02-02 21:32:00,14.9,1.3,29.11,ENE,68,0.0,0.0,54,0.00,,---,0.00,VWS V14.01,2013-02-03 02:32:00,
2013-02-02 21:33:00,14.9,1.3,29.12,ENE,68,0.0,0.0,54,0.00,,---,0.00,VWS V14.01,2013-02-03 02:33:00,
2013-02-02 21:34:00,14.9,1.3,29.11,ENE,68,0.0,0.0,54,0.00,,---,0.00,VWS V14.01,2013-02-03 02:34:00,
2013-02-02 21:35:00,14.7,1.1,29.11,ENE,68,0.0,0.0,54,0.00,,---,0.00,VWS V14.01,2013-02-03 02:35:00,
2013-02-02 21:36:00,14.7,1.1,29.11,ENE,68,0.0,0.0,54,0.00,,---,0.00,VWS V14.01,2013-02-03 02:36:00,
2013-02-02 21:37:00,14.7,1.1,29.11,ENE,68,0.0,0.0,54,0.00,,---,0.00,VWS V14.01,2013-02-03 02:37:00,
2013-02-02 21:38:00,14.5,0.9,29.12,ENE,68,0.0,0.0,54,0.00,,---,0.00,VWS V14.01,2013-02-03 02:38:00,
2013-02-02 21:39:00,14.5,0.9,29.11,ENE,68,0.0,0.0,54,0.00,,---,0.00,VWS V14.01,2013-02-03 02:39:00,
2013-02-02 21:40:00,14.5,0.9,29.11,ENE,68,0.0,0.0,54,0.00,,---,0.00,VWS V14.01,2013-02-03 02:40:00,
2013-02-02 21:41:00,14.5,0.9,29.11,ENE,68,0.0,0.0,54,0.00,,---,0.00,VWS V14.01,2013-02-03 02:41:00,
2013-02-02 21:42:00,14.4,0.8,29.11,ENE,68,0.0,0.0,54,0.00,,---,0.00,VWS V14.01,2013-02-03 02:42:00,
2013-02-02 21:43:00,14.4,0.8,29.12,ENE,68,0.0,0.0,54,0.00,,---,0.00,VWS V14.01,2013-02-03 02:43:00,
2013-02-02 21:44:00,14.4,0.8,29.11,ENE,68,0.0,0.0,54,0.00,,---,0.00,VWS V14.01,2013-02-03 02:44:00,
2013-02-02 21:45:00,14.4,0.8,29.11,ENE,68,0.0,0.0,54,0.00,,---,0.00,VWS V14.01,2013-02-03 02:45:00,
2013-02-02 21:46:00,14.2,0.6,29.11,ENE,68,0.0,0.0,54,0.00,,---,0.00,VWS V14.01,2013-02-03 02:46:00,
2013-02-02 21:47:00,14.2,0.6,29.11,ENE,68,0.0,0.0,54,0.00,,---,0.00,VWS V14.01,2013-02-03 02:47:00,
2013-02-02 21:48:00,14.2,0.6,29.12,ENE,68,0.0,0.0,54,0.00,,---,0.00,VWS V14.01,2013-02-03 02:48:00,
2013-02-02 21:49:00,14.0,0.8,29.11,ENE,68,0.0,0.0,55,0.00,,---,0.00,VWS V14.01,2013-02-03 02:49:00,
2013-02-02 21:50:00,14.0,0.8,29.11,ENE,68,0.0,0.0,55,0.00,,---,0.00,VWS V14.01,2013-02-03 02:50:00,
2013-02-02 21:51:00,13.8,0.6,29.11,ENE,68,0.0,0.0,55,0.00,,---,0.00,VWS V14.01,2013-02-03 02:51:00,
2013-02-02 21:52:00,13.8,0.6,29.11,ENE,68,0.0,0.0,55,0.00,,---,0.00,VWS V14.01,2013-02-03 02:52:00,
2013-02-02 21:53:00,13.8,0.6,29.12,ENE,68,0.0,0.0,55,0.00,,---,0.00,VWS V14.01,2013-02-03 02:53:00,
2013-02-02 21:54:00,13.8,0.6,29.11,ENE,68,0.0,0.0,55,0.00,,---,0.00,VWS V14.01,2013-02-03 02:54:00,
2013-02-02 21:55:00,13.6,0.5,29.11,ENE,68,0.0,0.0,55,0.00,,---,0.00,VWS V14.01,2013-02-03 02:55:00,
2013-02-02 21:56:00,13.6,0.5,29.11,ENE,68,0.0,0.0,55,0.00,,---,0.00,VWS V14.01,2013-02-03 02:56:00,
2013-02-02 21:57:00,13.6,0.5,29.11,ENE,68,0.0,0.0,55,0.00,,---,0.00,VWS V14.01,2013-02-03 02:57:00,
2013-02-02 21:58:00,13.6,0.5,29.12,ENE,68,2.2,2.2,55,0.00,,---,0.00,VWS V14.01,2013-02-03 02:58:00,
2013-02-02 21:59:00,13.6,0.5,29.11,ENE,68,1.6,2.2,55,0.00,,---,0.00,VWS V14.01,2013-02-03 02:59:00,
2013-02-02 22:00:00,13.5,0.3,29.11,ENE,68,1.6,1.6,55,0.00,,---,0.00,VWS V14.01,2013-02-03 03:00:00,
2013-02-02 22:01:00,13.5,0.3,29.11,ENE,68,1.6,1.6,55,0.00,,---,0.00,VWS V14.01,2013-02-03 03:01:00,
2013-02-02 22:02:00,13.5,0.3,29.11,ENE,68,1.6,1.6,55,0.00,,---,0.00,VWS V14.01,2013-02-03 03:02:00,
2013-02-02 22:03:00,13.3,0.2,29.12,ENE,68,1.6,1.6,55,0.00,,---,0.00,VWS V14.01,2013-02-03 03:03:00,
2013-02-02 22:04:00,13.3,0.1,29.11,ENE,68,1.6,1.6,55,0.00,,---,0.00,VWS V14.01,2013-02-03 03:04:00,
2013-02-02 22:05:00,13.3,0.1,29.11,ENE,68,1.3,1.6,55,0.00,,---,0.00,VWS V14.01,2013-02-03 03:05:00,
2013-02-02 22:06:00,13.3,0.1,29.11,ENE,68,1.3,1.3,55,0.00,,---,0.00,VWS V14.01,2013-02-03 03:06:00,
2013-02-02 22:07:00,13.3,0.1,29.11,ENE,68,1.3,1.3,55,0.00,,---,0.00,VWS V14.01,2013-02-03 03:07:00,
2013-02-02 22:08:00,13.3,0.2,29.12,ENE,68,0.0,2.0,55,0.00,,---,0.00,VWS V14.01,2013-02-03 03:08:00,
2013-02-02 22:09:00,13.3,0.1,29.11,ENE,68,0.0,0.0,55,0.00,,---,0.00,VWS V14.01,2013-02-03 03:09:00,
2013-02-02 22:10:00,13.3,0.1,29.11,ENE,68,0.0,0.0,55,0.00,,---,0.00,VWS V14.01,2013-02-03 03:10:00,
2013-02-02 22:11:00,13.3,0.1,29.11,ENE,68,0.0,0.0,55,0.00,,---,0.00,VWS V14.01,2013-02-03 03:11:00,
2013-02-02 22:12:00,13.5,0.3,29.11,ENE,68,0.0,1.6,55,0.00,,---,0.00,VWS V14.01,2013-02-03 03:12:00,
2013-02-02 22:13:00,13.5,0.3,29.12,ENE,68,0.0,0.0,55,0.00,,---,0.00,VWS V14.01,2013-02-03 03:13:00,
2013-02-02 22:14:00,13.5,0.3,29.11,ENE,68,0.0,0.0,55,0.00,,---,0.00,VWS V14.01,2013-02-03 03:14:00,
2013-02-02 22:15:00,13.5,0.3,29.11,ENE,68,0.0,0.0,55,0.00,,---,0.00,VWS V14.01,2013-02-03 03:15:00,
2013-02-02 22:16:00,13.5,0.3,29.11,ENE,68,0.0,0.0,55,0.00,,---,0.00,VWS V14.01,2013-02-03 03:16:00,
2013-02-02 22:17:00,13.5,0.3,29.11,ENE,68,0.0,0.0,55,0.00,,---,0.00,VWS V14.01,2013-02-03 03:17:00,
2013-02-02 22:18:00,13.3,0.2,29.12,ENE,68,0.0,0.0,55,0.00,,---,0.00,VWS V14.01,2013-02-03 03:18:00,
2013-02-02 22:19:00,12.9,-0.2,29.11,ENE,68,0.0,0.0,55,0.00,,---,0.00,VWS V14.01,2013-02-03 03:19:00,
2013-02-02 22:20:00,12.9,-0.2,29.11,ENE,68,0.0,0.0,55,0.00,,---,0.00,VWS V14.01,2013-02-03 03:20:00,
2013-02-02 22:21:00,12.9,-0.2,29.11,ENE,68,0.0,0.0,55,0.00,,---,0.00,VWS V14.01,2013-02-03 03:21:00,
2013-02-02 22:22:00,12.9,-0.2,29.11,ENE,68,0.0,0.0,55,0.00,,---,0.00,VWS V14.01,2013-02-03 03:22:00,
2013-02-02 22:23:00,12.7,-0.4,29.12,ENE,68,0.0,0.0,55,0.00,,---,0.00,VWS V14.01,2013-02-03 03:23:00,
2013-02-02 22:24:00,12.7,-0.4,29.11,ENE,68,0.0,0.0,55,0.00,,---,0.00,VWS V14.01,2013-02-03 03:24:00,
2013-02-02 22:25:00,12.6,-0.5,29.11,ENE,68,0.0,0.0,55,0.00,,---,0.00,VWS V14.01,2013-02-03 03:25:00,
2013-02-02 22:26:00,12.6,-0.5,29.11,ENE,68,0.0,0.0,55,0.00,,---,0.00,VWS V14.01,2013-02-03 03:26:00,
2013-02-02 22:27:00,12.6,-0.5,29.11,ENE,68,0.0,0.0,55,0.00,,---,0.00,VWS V14.01,2013-02-03 03:27:00,
2013-02-02 22:28:00,12.6,-0.5,29.12,ENE,68,0.0,0.0,55,0.00,,---,0.00,VWS V14.01,2013-02-03 03:28:00,
2013-02-02 22:29:00,12.6,-0.5,29.11,ENE,68,0.0,0.0,55,0.00,,---,0.00,VWS V14.01,2013-02-03 03:29:00,
2013-02-02 22:30:00,12.4,-0.7,29.11,ENE,68,0.0,0.0,55,0.00,,---,0.00,VWS V14.01,2013-02-03 03:30:00,
2013-02-02 22:31:00,12.4,-0.7,29.11,ENE,68,0.0,0.0,55,0.00,,---,0.00,VWS V14.01,2013-02-03 03:31:00,
2013-02-02 22:32:00,12.2,-0.9,29.11,ENE,68,0.0,0.0,55,0.00,,---,0.00,VWS V14.01,2013-02-03 03:32:00,
2013-02-02 22:33:00,12.2,-0.9,29.12,ENE,68,0.0,0.0,55,0.00,,---,0.00,VWS V14.01,2013-02-03 03:33:00,
2013-02-02 22:34:00,12.2,-0.9,29.11,ENE,68,0.0,0.0,55,0.00,,---,0.00,VWS V14.01,2013-02-03 03:34:00,
2013-02-02 22:35:00,12.0,-1.0,29.11,ENE,68,0.0,0.0,55,0.00,,---,0.00,VWS V14.01,2013-02-03 03:35:00,
2013-02-02 22:36:00,12.0,-1.0,29.11,ENE,68,0.0,0.0,55,0.00,,---,0.00,VWS V14.01,2013-02-03 03:36:00,
2013-02-02 22:37:00,12.0,-1.0,29.11,ENE,68,0.0,0.0,55,0.00,,---,0.00,VWS V14.01,2013-02-03 03:37:00,
2013-02-02 22:38:00,12.0,-1.0,29.12,ENE,68,0.0,0.0,55,0.00,,---,0.00,VWS V14.01,2013-02-03 03:38:00,
2013-02-02 22:39:00,12.0,-1.0,29.11,ENE,68,0.0,0.0,55,0.00,,---,0.00,VWS V14.01,2013-02-03 03:39:00,
2013-02-02 22:40:00,12.0,-1.0,29.11,ENE,68,0.0,0.0,55,0.00,,---,0.00,VWS V14.01,2013-02-03 03:40:00,
2013-02-02 22:41:00,12.0,-1.0,29.11,ENE,68,0.0,0.0,55,0.00,,---,0.00,VWS V14.01,2013-02-03 03:41:00,
2013-02-02 22:42:00,12.0,-1.0,29.11,ENE,68,0.0,0.0,55,0.00,,---,0.00,VWS V14.01,2013-02-03 03:42:00,
2013-02-02 22:43:00,12.0,-1.0,29.12,ENE,68,0.0,0.0,55,0.00,,---,0.00,VWS V14.01,2013-02-03 03:43:00,
2013-02-02 22:44:00,11.8,-1.2,29.11,ENE,68,0.0,0.0,55,0.00,,---,0.00,VWS V14.01,2013-02-03 03:44:00,
2013-02-02 22:45:00,11.8,-1.2,29.11,ENE,68,0.0,0.0,55,0.00,,---,0.00,VWS V14.01,2013-02-03 03:45:00,
2013-02-02 22:46:00,11.7,-1.4,29.11,ENE,68,0.0,0.0,55,0.00,,---,0.00,VWS V14.01,2013-02-03 03:46:00,
2013-02-02 22:47:00,11.7,-1.4,29.11,ENE,68,0.0,0.0,55,0.00,,---,0.00,VWS V14.01,2013-02-03 03:47:00,
2013-02-02 22:48:00,11.7,-1.4,29.12,ENE,68,0.0,0.0,55,0.00,,---,0.00,VWS V14.01,2013-02-03 03:48:00,
2013-02-02 22:49:00,12.0,-1.0,29.11,ENE,68,0.0,0.0,55,0.00,,---,0.00,VWS V14.01,2013-02-03 03:49:00,
2013-02-02 22:50:00,12.0,-1.0,29.11,ENE,68,0.0,0.0,55,0.00,,---,0.00,VWS V14.01,2013-02-03 03:50:00,
2013-02-02 22:51:00,12.0,-1.0,29.11,ENE,68,0.0,0.0,55,0.00,,---,0.00,VWS V14.01,2013-02-03 03:51:00,
2013-02-02 22:52:00,12.0,-1.0,29.11,ENE,68,0.0,0.0,55,0.00,,---,0.00,VWS V14.01,2013-02-03 03:52:00,
2013-02-02 22:53:00,12.0,-1.0,29.12,ENE,68,0.0,0.0,55,0.00,,---,0.00,VWS V14.01,2013-02-03 03:53:00,
2013-02-02 22:54:00,12.0,-1.0,29.11,ENE,68,0.0,0.0,55,0.00,,---,0.00,VWS V14.01,2013-02-03 03:54:00,
2013-02-02 22:55:00,11.8,-1.2,29.11,ENE,68,0.0,0.0,55,0.00,,---,0.00,VWS V14.01,2013-02-03 03:55:00,
2013-02-02 22:56:00,11.8,-1.2,29.11,ENE,68,0.0,0.0,55,0.00,,---,0.00,VWS V14.01,2013-02-03 03:56:00,
2013-02-02 22:57:00,11.8,-1.2,29.11,ENE,68,0.0,0.0,55,0.00,,---,0.00,VWS V14.01,2013-02-03 03:57:00,
2013-02-02 22:58:00,11.7,-1.4,29.12,ENE,68,0.0,0.0,55,0.00,,---,0.00,VWS V14.01,2013-02-03 03:58:00,
2013-02-02 22:59:00,11.7,-1.4,29.11,ENE,68,0.0,0.0,55,0.00,,---,0.00,VWS V14.01,2013-02-03 03:59:00,
2013-02-02 23:00:00,11.7,-1.4,29.11,ENE,68,0.0,0.0,55,0.00,,---,0.00,VWS V14.01,2013-02-03 04:00:00,
2013-02-02 23:01:00,11.7,-1.4,29.11,ENE,68,0.0,0.0,55,0.00,,---,0.00,VWS V14.01,2013-02-03 04:01:00,
2013-02-02 23:02:00,11.7,-1.4,29.11,ENE,68,0.0,0.0,55,0.00,,---,0.00,VWS V14.01,2013-02-03 04:02:00,
2013-02-02 23:03:00,11.7,-1.4,29.12,ENE,68,0.0,0.0,55,0.00,,---,0.00,VWS V14.01,2013-02-03 04:03:00,
2013-02-02 23:04:00,11.7,-1.4,29.11,ENE,68,0.0,0.0,55,0.00,,---,0.00,VWS V14.01,2013-02-03 04:04:00,
2013-02-02 23:05:00,11.5,-1.5,29.11,ENE,68,0.0,0.0,55,0.00,,---,0.00,VWS V14.01,2013-02-03 04:05:00,
2013-02-02 23:06:00,11.5,-1.5,29.11,ENE,68,0.0,0.0,55,0.00,,---,0.00,VWS V14.01,2013-02-03 04:06:00,
2013-02-02 23:07:00,11.1,-1.9,29.11,ENE,68,0.0,0.0,55,0.00,,---,0.00,VWS V14.01,2013-02-03 04:07:00,
2013-02-02 23:08:00,11.1,-1.9,29.14,ENE,68,0.0,0.0,55,0.00,,---,0.00,VWS V14.01,2013-02-03 04:08:00,
2013-02-02 23:09:00,11.1,-1.9,29.15,ENE,68,0.0,0.0,55,0.00,,---,0.00,VWS V14.01,2013-02-03 04:09:00,
2013-02-02 23:10:00,11.1,-1.9,29.15,ENE,68,0.0,0.0,55,0.00,,---,0.00,VWS V14.01,2013-02-03 04:10:00,
2013-02-02 23:11:00,10.9,-2.0,29.15,ENE,68,0.0,0.0,55,0.00,,---,0.00,VWS V14.01,2013-02-03 04:11:00,
2013-02-02 23:12:00,10.9,-2.0,29.15,ENE,68,0.0,0.0,55,0.00,,---,0.00,VWS V14.01,2013-02-03 04:12:00,
2013-02-02 23:13:00,10.9,-2.0,29.14,ENE,68,0.0,0.0,55,0.00,,---,0.00,VWS V14.01,2013-02-03 04:13:00,
2013-02-02 23:14:00,10.8,-2.2,29.15,ENE,68,0.0,0.0,55,0.00,,---,0.00,VWS V14.01,2013-02-03 04:14:00,
2013-02-02 23:15:00,10.8,-2.2,29.15,ENE,68,0.0,0.0,55,0.00,,---,0.00,VWS V14.01,2013-02-03 04:15:00,
2013-02-02 23:16:00,10.8,-2.2,29.15,ENE,68,0.0,0.0,55,0.00,,---,0.00,VWS V14.01,2013-02-03 04:16:00,
2013-02-02 23:17:00,10.8,-2.2,29.15,ENE,68,0.0,0.0,55,0.00,,---,0.00,VWS V14.01,2013-02-03 04:17:00,
2013-02-02 23:18:00,10.6,-2.4,29.14,ENE,68,0.0,0.0,55,0.00,,---,0.00,VWS V14.01,2013-02-03 04:18:00,
2013-02-02 23:19:00,10.4,-2.6,29.15,ENE,68,0.0,0.0,55,0.00,,---,0.00,VWS V14.01,2013-02-03 04:19:00,
2013-02-02 23:20:00,10.4,-2.6,29.15,ENE,68,0.0,0.0,55,0.00,,---,0.00,VWS V14.01,2013-02-03 04:20:00,
2013-02-02 23:21:00,10.4,-2.6,29.15,ENE,68,0.0,0.0,55,0.00,,---,0.00,VWS V14.01,2013-02-03 04:21:00,
2013-02-02 23:22:00,10.4,-2.6,29.15,ENE,68,0.0,0.0,55,0.00,,---,0.00,VWS V14.01,2013-02-03 04:22:00,
2013-02-02 23:23:00,10.4,-2.6,29.12,ENE,68,0.0,0.0,55,0.00,,---,0.00,VWS V14.01,2013-02-03 04:23:00,
2013-02-02 23:24:00,10.4,-2.6,29.11,ENE,68,0.0,0.0,55,0.00,,---,0.00,VWS V14.01,2013-02-03 04:24:00,
2013-02-02 23:25:00,10.4,-2.6,29.11,ENE,68,0.0,0.0,55,0.00,,---,0.00,VWS V14.01,2013-02-03 04:25:00,
2013-02-02 23:26:00,10.4,-2.6,29.11,ENE,68,0.0,0.0,55,0.00,,---,0.00,VWS V14.01,2013-02-03 04:26:00,
2013-02-02 23:27:00,10.2,-2.7,29.11,ENE,68,0.0,0.0,55,0.00,,---,0.00,VWS V14.01,2013-02-03 04:27:00,
2013-02-02 23:28:00,10.2,-2.7,29.12,ENE,68,0.0,0.0,55,0.00,,---,0.00,VWS V14.01,2013-02-03 04:28:00,
2013-02-02 23:29:00,10.2,-2.7,29.11,ENE,68,0.0,0.0,55,0.00,,---,0.00,VWS V14.01,2013-02-03 04:29:00,
2013-02-02 23:30:00,10.2,-2.7,29.11,ENE,68,0.0,0.0,55,0.00,,---,0.00,VWS V14.01,2013-02-03 04:30:00,
2013-02-02 23:31:00,10.2,-2.7,29.11,ENE,68,0.0,0.0,55,0.00,,---,0.00,VWS V14.01,2013-02-03 04:31:00,
2013-02-02 23:32:00,10.0,-2.9,29.11,ENE,68,0.0,0.0,55,0.00,,---,0.00,VWS V14.01,2013-02-03 04:32:00,
2013-02-02 23:33:00,10.0,-2.9,29.12,ENE,68,0.0,0.0,55,0.00,,---,0.00,VWS V14.01,2013-02-03 04:33:00,
2013-02-02 23:34:00,10.0,-2.9,29.11,ENE,68,0.0,0.0,55,0.00,,---,0.00,VWS V14.01,2013-02-03 04:34:00,
2013-02-02 23:35:00,10.0,-2.9,29.11,ENE,68,0.0,0.0,55,0.00,,---,0.00,VWS V14.01,2013-02-03 04:35:00,
2013-02-02 23:36:00,10.0,-2.9,29.11,ENE,68,0.0,0.0,55,0.00,,---,0.00,VWS V14.01,2013-02-03 04:36:00,
2013-02-02 23:37:00,10.2,-2.7,29.11,ENE,68,0.0,0.0,55,0.00,,---,0.00,VWS V14.01,2013-02-03 04:37:00,
2013-02-02 23:38:00,10.2,-2.7,29.14,ENE,68,0.0,0.0,55,0.00,,---,0.00,VWS V14.01,2013-02-03 04:38:00,
2013-02-02 23:39:00,10.2,-2.7,29.15,ENE,68,0.0,0.0,55,0.00,,---,0.00,VWS V14.01,2013-02-03 04:39:00,
2013-02-02 23:40:00,10.2,-2.7,29.15,ENE,68,0.0,0.0,55,0.00,,---,0.00,VWS V14.01,2013-02-03 04:40:00,
2013-02-02 23:41:00,10.2,-2.7,29.15,ENE,68,0.0,0.0,55,0.00,,---,0.00,VWS V14.01,2013-02-03 04:41:00,
2013-02-02 23:42:00,10.2,-2.7,29.15,ENE,68,0.0,0.0,55,0.00,,---,0.00,VWS V14.01,2013-02-03 04:42:00,
2013-02-02 23:43:00,10.2,-2.7,29.14,ENE,68,0.0,0.0,55,0.00,,---,0.00,VWS V14.01,2013-02-03 04:43:00,
2013-02-02 23:44:00,10.0,-2.9,29.15,ENE,68,0.0,0.0,55,0.00,,---,0.00,VWS V14.01,2013-02-03 04:44:00,
2013-02-02 23:45:00,10.0,-2.9,29.15,ENE,68,0.0,0.0,55,0.00,,---,0.00,VWS V14.01,2013-02-03 04:45:00,
2013-02-02 23:46:00,10.0,-2.9,29.15,ENE,68,0.0,0.0,55,0.00,,---,0.00,VWS V14.01,2013-02-03 04:46:00,
2013-02-02 23:47:00,10.0,-2.9,29.15,ENE,68,0.0,0.0,55,0.00,,---,0.00,VWS V14.01,2013-02-03 04:47:00,
2013-02-02 23:48:00,9.9,-3.1,29.14,ENE,68,0.0,0.0,55,0.00,,---,0.00,VWS V14.01,2013-02-03 04:48:00,
2013-02-02 23:49:00,9.9,-3.1,29.15,ENE,68,0.0,0.0,55,0.00,,---,0.00,VWS V14.01,2013-02-03 04:49:00,
2013-02-02 23:50:00,9.7,-3.2,29.15,ENE,68,0.0,0.0,55,0.00,,---,0.00,VWS V14.01,2013-02-03 04:50:00,
2013-02-02 23:51:00,9.7,-3.2,29.15,ENE,68,0.0,0.0,55,0.00,,---,0.00,VWS V14.01,2013-02-03 04:51:00,
2013-02-02 23:52:00,9.7,-3.2,29.15,ENE,68,0.0,0.0,55,0.00,,---,0.00,VWS V14.01,2013-02-03 04:52:00,
2013-02-02 23:53:00,9.5,-3.4,29.14,ENE,68,0.0,0.0,55,0.00,,---,0.00,VWS V14.01,2013-02-03 04:53:00,
2013-02-02 23:54:00,9.5,-3.4,29.15,ENE,68,0.0,0.0,55,0.00,,---,0.00,VWS V14.01,2013-02-03 04:54:00,
2013-02-02 23:55:00,9.5,-3.4,29.15,ENE,68,0.0,0.0,55,0.00,,---,0.00,VWS V14.01,2013-02-03 04:55:00,
2013-02-02 23:56:00,9.5,-3.4,29.15,ENE,68,0.0,0.0,55,0.00,,---,0.00,VWS V14.01,2013-02-03 04:56:00,
2013-02-02 23:57:00,9.3,-3.6,29.15,ENE,68,0.0,0.0,55,0.00,,---,0.00,VWS V14.01,2013-02-03 04:57:00,
2013-02-02 23:58:00,9.3,-3.6,29.14,ENE,68,0.0,0.0,55,0.00,,---,0.00,VWS V14.01,2013-02-03 04:58:00,
2013-02-02 23:59:00,9.3,-3.6,29.15,ENE,68,0.0,0.0,55,0.00,,---,0.00,VWS V14.01,2013-02-03 04:59:00,